St. Margarethen - Festspielgelnde
Wetterdaten: Sonntag, 08.01.2012
Datum Zeit Temp. A. Feuchte A. Regen Wind Richtung Richtung Windben
08.01.2012 00:00 4,4 C 83 % 0,0 l/m 8,9 km/h (2 Bft) W-SW 240 14,5 km/h (3 Bft)
08.01.2012 00:01 4,4 C 83 % 0,0 l/m 11,5 km/h (2 Bft) S-SW 210 17,7 km/h (3 Bft)
08.01.2012 00:02 4,4 C 83 % 0,0 l/m 11,8 km/h (2 Bft) W 262 20,9 km/h (4 Bft)
08.01.2012 00:03 4,5 C 82 % 0,0 l/m 14,8 km/h (3 Bft) W-NW 295 19,3 km/h (3 Bft)
08.01.2012 00:04 4,5 C 82 % 0,0 l/m 9,9 km/h (2 Bft) W-SW 243 20,9 km/h (4 Bft)
08.01.2012 00:05 4,6 C 82 % 0,0 l/m 14,1 km/h (3 Bft) W 259 24,1 km/h (4 Bft)
08.01.2012 00:06 4,6 C 81 % 0,0 l/m 14,6 km/h (3 Bft) W-NW 285 22,5 km/h (4 Bft)
08.01.2012 00:07 4,7 C 82 % 0,0 l/m 12,6 km/h (3 Bft) W 264 20,9 km/h (4 Bft)
08.01.2012 00:08 4,7 C 81 % 0,0 l/m 13,4 km/h (3 Bft) N-NW 340 24,1 km/h (4 Bft)
08.01.2012 00:09 4,7 C 81 % 0,0 l/m 9,7 km/h (2 Bft) NW 317 16,1 km/h (3 Bft)
08.01.2012 00:10 4,8 C 81 % 0,0 l/m 16,6 km/h (3 Bft) SW 232 33,8 km/h (5 Bft)
08.01.2012 00:11 4,8 C 81 % 0,0 l/m 12,7 km/h (3 Bft) W-SW 254 19,3 km/h (3 Bft)
08.01.2012 00:12 4,8 C 81 % 0,0 l/m 10,4 km/h (2 Bft) S-SW 209 14,5 km/h (3 Bft)
08.01.2012 00:13 4,9 C 80 % 0,0 l/m 12,0 km/h (2 Bft) W-NW 299 17,7 km/h (3 Bft)
08.01.2012 00:14 4,9 C 80 % 0,0 l/m 13,3 km/h (3 Bft) W-SW 245 20,9 km/h (4 Bft)
08.01.2012 00:15 4,9 C 80 % 0,0 l/m 19,7 km/h (3 Bft) W-NW 288 32,2 km/h (5 Bft)
08.01.2012 00:16 5,1 C 80 % 0,0 l/m 11,6 km/h (2 Bft) NW 312 22,5 km/h (4 Bft)
08.01.2012 00:17 5,1 C 80 % 0,0 l/m 18,3 km/h (3 Bft) S 186 24,1 km/h (4 Bft)
08.01.2012 00:18 5,1 C 79 % 0,0 l/m 11,1 km/h (2 Bft) W-NW 288 16,1 km/h (3 Bft)
08.01.2012 00:19 5,1 C 80 % 0,0 l/m 15,6 km/h (3 Bft) W 262 22,5 km/h (4 Bft)
08.01.2012 00:20 5,2 C 79 % 0,0 l/m 12,1 km/h (2 Bft) N-NO 30 29,0 km/h (5 Bft)
08.01.2012 00:21 5,2 C 79 % 0,0 l/m 14,0 km/h (3 Bft) W-NW 289 25,7 km/h (4 Bft)
08.01.2012 00:22 5,2 C 79 % 0,0 l/m 22,9 km/h (4 Bft) W-NW 300 32,2 km/h (5 Bft)
08.01.2012 00:23 5,2 C 79 % 0,0 l/m 17,3 km/h (3 Bft) W-NW 298 25,7 km/h (4 Bft)
08.01.2012 00:24 5,3 C 79 % 0,0 l/m 16,7 km/h (3 Bft) W-NW 288 24,1 km/h (4 Bft)
08.01.2012 00:25 5,3 C 78 % 0,0 l/m 19,5 km/h (3 Bft) SW 225 35,4 km/h (5 Bft)
08.01.2012 00:26 5,3 C 79 % 0,0 l/m 15,7 km/h (3 Bft) O-SO 108 22,5 km/h (4 Bft)
08.01.2012 00:27 5,3 C 79 % 0,0 l/m 20,6 km/h (4 Bft) W-NW 302 29,0 km/h (5 Bft)
08.01.2012 00:28 5,3 C 79 % 0,0 l/m 15,3 km/h (3 Bft) SO 143 19,3 km/h (3 Bft)
08.01.2012 00:29 5,3 C 78 % 0,0 l/m 21,9 km/h (4 Bft) NO 50 41,8 km/h (6 Bft)
08.01.2012 00:30 5,3 C 78 % 0,0 l/m 15,3 km/h (3 Bft) NO 45 35,4 km/h (5 Bft)
08.01.2012 00:31 5,4 C 78 % 0,0 l/m 22,8 km/h (4 Bft) W-NW 289 33,8 km/h (5 Bft)
08.01.2012 00:32 5,4 C 79 % 0,0 l/m 22,3 km/h (4 Bft) W-NW 297 27,4 km/h (4 Bft)
08.01.2012 00:33 5,4 C 78 % 0,0 l/m 15,3 km/h (3 Bft) W 263 24,1 km/h (4 Bft)
08.01.2012 00:34 5,4 C 78 % 0,0 l/m 14,2 km/h (3 Bft) NW 313 22,5 km/h (4 Bft)
08.01.2012 00:35 5,4 C 79 % 0,0 l/m 12,1 km/h (2 Bft) NW 308 27,4 km/h (4 Bft)
08.01.2012 00:36 5,3 C 79 % 0,0 l/m 22,8 km/h (4 Bft) W 259 37,0 km/h (5 Bft)
08.01.2012 00:37 5,3 C 79 % 0,0 l/m 14,7 km/h (3 Bft) W 270 24,1 km/h (4 Bft)
08.01.2012 00:38 5,3 C 80 % 0,0 l/m 13,9 km/h (3 Bft) W-NW 287 27,4 km/h (4 Bft)
08.01.2012 00:39 5,3 C 79 % 0,0 l/m 20,9 km/h (4 Bft) W-SW 255 35,4 km/h (5 Bft)
08.01.2012 00:40 5,3 C 79 % 0,0 l/m 16,7 km/h (3 Bft) W-NW 290 29,0 km/h (5 Bft)
08.01.2012 00:41 5,3 C 79 % 0,0 l/m 26,5 km/h (4 Bft) NW 308 53,1 km/h (7 Bft)
08.01.2012 00:42 5,3 C 79 % 0,0 l/m 18,5 km/h (3 Bft) NW 305 37,0 km/h (5 Bft)
08.01.2012 00:43 5,3 C 80 % 0,0 l/m 16,9 km/h (3 Bft) N 357 29,0 km/h (5 Bft)
08.01.2012 00:44 5,3 C 80 % 0,0 l/m 22,1 km/h (4 Bft) W-NW 294 40,2 km/h (6 Bft)
08.01.2012 00:45 5,3 C 80 % 0,0 l/m 17,7 km/h (3 Bft) W 277 35,4 km/h (5 Bft)
08.01.2012 00:46 5,3 C 80 % 0,0 l/m 17,6 km/h (3 Bft) W 277 32,2 km/h (5 Bft)
08.01.2012 00:47 5,3 C 80 % 0,0 l/m 24,1 km/h (4 Bft) W 274 41,8 km/h (6 Bft)
08.01.2012 00:48 5,3 C 80 % 0,0 l/m 18,9 km/h (3 Bft) W-NW 285 41,8 km/h (6 Bft)
08.01.2012 00:49 5,3 C 79 % 0,0 l/m 18,0 km/h (3 Bft) W 271 37,0 km/h (5 Bft)
08.01.2012 00:50 5,3 C 79 % 0,0 l/m 18,8 km/h (3 Bft) W 264 29,0 km/h (5 Bft)
08.01.2012 00:51 5,3 C 79 % 0,0 l/m 17,6 km/h (3 Bft) W-NW 297 29,0 km/h (5 Bft)
08.01.2012 00:52 5,3 C 79 % 0,0 l/m 17,8 km/h (3 Bft) W-NW 284 27,4 km/h (4 Bft)
08.01.2012 00:53 5,3 C 80 % 0,0 l/m 10,5 km/h (2 Bft) O-NO 57 19,3 km/h (3 Bft)
08.01.2012 00:54 5,3 C 80 % 0,0 l/m 12,4 km/h (3 Bft) N-NW 329 25,7 km/h (4 Bft)
08.01.2012 00:55 5,2 C 80 % 0,0 l/m 10,5 km/h (2 Bft) W-NW 288 16,1 km/h (3 Bft)
08.01.2012 00:56 5,2 C 80 % 0,0 l/m 9,8 km/h (2 Bft) N-NW 335 29,0 km/h (5 Bft)
08.01.2012 00:57 5,2 C 80 % 0,0 l/m 15,0 km/h (3 Bft) W 277 24,1 km/h (4 Bft)
08.01.2012 00:58 5,2 C 80 % 0,0 l/m 8,6 km/h (2 Bft) SO 136 17,7 km/h (3 Bft)
08.01.2012 00:59 5,2 C 81 % 0,0 l/m 15,2 km/h (3 Bft) W 263 22,5 km/h (4 Bft)
08.01.2012 01:00 5,2 C 80 % 0,0 l/m 12,9 km/h (3 Bft) O-NO 59 20,9 km/h (4 Bft)
08.01.2012 01:01 5,2 C 81 % 0,0 l/m 16,4 km/h (3 Bft) W 280 24,1 km/h (4 Bft)
08.01.2012 01:02 5,2 C 80 % 0,0 l/m 14,3 km/h (3 Bft) W-NW 285 25,7 km/h (4 Bft)
08.01.2012 01:03 5,2 C 81 % 0,0 l/m 13,6 km/h (3 Bft) W-NW 285 25,7 km/h (4 Bft)
08.01.2012 01:04 5,1 C 81 % 0,0 l/m 17,6 km/h (3 Bft) W-SW 238 32,2 km/h (5 Bft)
08.01.2012 01:05 5,2 C 80 % 0,0 l/m 19,1 km/h (3 Bft) W-NW 290 32,2 km/h (5 Bft)
08.01.2012 01:06 5,2 C 80 % 0,0 l/m 9,4 km/h (2 Bft) W 280 16,1 km/h (3 Bft)
08.01.2012 01:07 5,2 C 81 % 0,0 l/m 14,2 km/h (3 Bft) W 278 33,8 km/h (5 Bft)
08.01.2012 01:08 5,2 C 80 % 0,0 l/m 22,3 km/h (4 Bft) W-SW 241 38,6 km/h (5 Bft)
08.01.2012 01:09 5,2 C 80 % 0,0 l/m 18,1 km/h (3 Bft) W-NW 300 35,4 km/h (5 Bft)
08.01.2012 01:10 5,2 C 80 % 0,0 l/m 12,3 km/h (3 Bft) N-NW 335 27,4 km/h (4 Bft)
08.01.2012 01:11 5,2 C 80 % 0,0 l/m 14,3 km/h (3 Bft) W-NW 297 32,2 km/h (5 Bft)
08.01.2012 01:12 5,2 C 80 % 0,0 l/m 19,2 km/h (3 Bft) W-NW 289 27,4 km/h (4 Bft)
08.01.2012 01:13 5,2 C 80 % 0,0 l/m 16,7 km/h (3 Bft) W-NW 283 32,2 km/h (5 Bft)
08.01.2012 01:14 5,1 C 81 % 0,0 l/m 18,1 km/h (3 Bft) W-NW 288 27,4 km/h (4 Bft)
08.01.2012 01:15 5,1 C 80 % 0,0 l/m 20,2 km/h (4 Bft) W-NW 301 29,0 km/h (5 Bft)
08.01.2012 01:16 5,1 C 80 % 0,0 l/m 10,5 km/h (2 Bft) W-SW 245 22,5 km/h (4 Bft)
08.01.2012 01:17 5,1 C 80 % 0,0 l/m 11,5 km/h (2 Bft) NW 304 22,5 km/h (4 Bft)
08.01.2012 01:18 5,1 C 81 % 0,0 l/m 15,5 km/h (3 Bft) W-SW 245 30,6 km/h (5 Bft)
08.01.2012 01:19 5,1 C 81 % 0,0 l/m 11,8 km/h (2 Bft) W 277 24,1 km/h (4 Bft)
08.01.2012 01:20 5,1 C 81 % 0,0 l/m 10,1 km/h (2 Bft) W 260 20,9 km/h (4 Bft)
08.01.2012 01:21 5,1 C 81 % 0,0 l/m 15,8 km/h (3 Bft) W-NW 288 25,7 km/h (4 Bft)
08.01.2012 01:22 5,1 C 81 % 0,0 l/m 14,3 km/h (3 Bft) W-NW 301 29,0 km/h (5 Bft)
08.01.2012 01:23 5,1 C 81 % 0,0 l/m 9,6 km/h (2 Bft) W-SW 238 14,5 km/h (3 Bft)
08.01.2012 01:24 5,0 C 81 % 0,0 l/m 8,4 km/h (2 Bft) W-NW 301 12,9 km/h (3 Bft)
08.01.2012 01:25 5,0 C 81 % 0,0 l/m 13,4 km/h (3 Bft) W 266 20,9 km/h (4 Bft)
08.01.2012 01:26 5,0 C 81 % 0,0 l/m 12,1 km/h (2 Bft) W-NW 302 17,7 km/h (3 Bft)
08.01.2012 01:27 5,0 C 81 % 0,0 l/m 11,9 km/h (2 Bft) W-NW 283 16,1 km/h (3 Bft)
08.01.2012 01:28 4,9 C 81 % 0,0 l/m 9,8 km/h (2 Bft) NO 53 14,5 km/h (3 Bft)
08.01.2012 01:29 4,9 C 81 % 0,0 l/m 4,8 km/h (1 Bft) W 269 17,7 km/h (3 Bft)
08.01.2012 01:30 4,9 C 81 % 0,0 l/m 13,7 km/h (3 Bft) NW 304 20,9 km/h (4 Bft)
08.01.2012 01:31 4,9 C 82 % 0,0 l/m 6,6 km/h (2 Bft) W-SW 248 14,5 km/h (3 Bft)
08.01.2012 01:32 4,9 C 82 % 0,0 l/m 7,3 km/h (2 Bft) NW 319 9,7 km/h (2 Bft)
08.01.2012 01:33 4,9 C 82 % 0,0 l/m 4,8 km/h (1 Bft) SW 235 11,3 km/h (2 Bft)
08.01.2012 01:34 4,8 C 82 % 0,0 l/m 12,1 km/h (2 Bft) NW 304 20,9 km/h (4 Bft)
08.01.2012 01:35 4,8 C 82 % 0,0 l/m 12,0 km/h (2 Bft) W 269 24,1 km/h (4 Bft)
08.01.2012 01:36 4,8 C 82 % 0,0 l/m 10,0 km/h (2 Bft) W-NW 297 22,5 km/h (4 Bft)
08.01.2012 01:37 4,8 C 82 % 0,0 l/m 13,2 km/h (3 Bft) W-SW 251 24,1 km/h (4 Bft)
08.01.2012 01:38 4,8 C 82 % 0,0 l/m 14,7 km/h (3 Bft) SW 235 24,1 km/h (4 Bft)
08.01.2012 01:39 4,8 C 82 % 0,0 l/m 12,5 km/h (3 Bft) W-SW 245 24,1 km/h (4 Bft)
08.01.2012 01:40 4,8 C 82 % 0,0 l/m 13,6 km/h (3 Bft) W-NW 297 19,3 km/h (3 Bft)
08.01.2012 01:41 4,8 C 82 % 0,0 l/m 10,1 km/h (2 Bft) NW 323 17,7 km/h (3 Bft)
08.01.2012 01:42 4,8 C 82 % 0,0 l/m 11,7 km/h (2 Bft) W 273 22,5 km/h (4 Bft)
08.01.2012 01:43 4,8 C 82 % 0,0 l/m 17,1 km/h (3 Bft) W 263 40,2 km/h (6 Bft)
08.01.2012 01:44 4,9 C 82 % 0,0 l/m 22,4 km/h (4 Bft) W-SW 248 38,6 km/h (5 Bft)
08.01.2012 01:45 4,9 C 81 % 0,0 l/m 20,5 km/h (4 Bft) W 277 29,0 km/h (5 Bft)
08.01.2012 01:46 4,9 C 81 % 0,0 l/m 13,8 km/h (3 Bft) W 267 30,6 km/h (5 Bft)
08.01.2012 01:47 4,9 C 81 % 0,0 l/m 13,4 km/h (3 Bft) NW 307 25,7 km/h (4 Bft)
08.01.2012 01:48 4,9 C 81 % 0,0 l/m 22,1 km/h (4 Bft) W 273 30,6 km/h (5 Bft)
08.01.2012 01:49 4,9 C 81 % 0,0 l/m 20,6 km/h (4 Bft) NW 308 27,4 km/h (4 Bft)
08.01.2012 01:50 4,9 C 81 % 0,0 l/m 13,5 km/h (3 Bft) NW 308 24,1 km/h (4 Bft)
08.01.2012 01:51 4,9 C 81 % 0,0 l/m 18,2 km/h (3 Bft) W 259 29,0 km/h (5 Bft)
08.01.2012 01:52 4,9 C 81 % 0,0 l/m 12,1 km/h (2 Bft) NW 308 16,1 km/h (3 Bft)
08.01.2012 01:53 4,9 C 81 % 0,0 l/m 13,6 km/h (3 Bft) SW 229 30,6 km/h (5 Bft)
08.01.2012 01:54 4,9 C 81 % 0,0 l/m 13,9 km/h (3 Bft) NW 312 22,5 km/h (4 Bft)
08.01.2012 01:55 4,9 C 81 % 0,0 l/m 9,2 km/h (2 Bft) NW 305 20,9 km/h (4 Bft)
08.01.2012 01:56 4,9 C 81 % 0,0 l/m 14,5 km/h (3 Bft) SW 224 20,9 km/h (4 Bft)
08.01.2012 01:57 4,9 C 81 % 0,0 l/m 8,8 km/h (2 Bft) W-NW 288 17,7 km/h (3 Bft)
08.01.2012 01:58 4,9 C 81 % 0,0 l/m 17,8 km/h (3 Bft) W 259 29,0 km/h (5 Bft)
08.01.2012 01:59 4,9 C 81 % 0,0 l/m 11,3 km/h (2 Bft) W-SW 257 22,5 km/h (4 Bft)
08.01.2012 02:00 4,9 C 81 % 0,0 l/m 16,7 km/h (3 Bft) W-NW 291 27,4 km/h (4 Bft)
08.01.2012 02:01 4,9 C 81 % 0,0 l/m 15,4 km/h (3 Bft) W-NW 294 25,7 km/h (4 Bft)
08.01.2012 02:02 4,9 C 80 % 0,0 l/m 15,0 km/h (3 Bft) W-NW 284 25,7 km/h (4 Bft)
08.01.2012 02:03 4,9 C 81 % 0,0 l/m 6,4 km/h (2 Bft) W-SW 246 9,7 km/h (2 Bft)
08.01.2012 02:04 4,9 C 80 % 0,0 l/m 16,0 km/h (3 Bft) W-NW 302 35,4 km/h (5 Bft)
08.01.2012 02:05 4,9 C 80 % 0,0 l/m 11,6 km/h (2 Bft) SW 236 22,5 km/h (4 Bft)
08.01.2012 02:06 4,9 C 80 % 0,0 l/m 10,7 km/h (2 Bft) W-SW 237 25,7 km/h (4 Bft)
08.01.2012 02:07 4,8 C 80 % 0,0 l/m 14,3 km/h (3 Bft) W-SW 246 29,0 km/h (5 Bft)
08.01.2012 02:08 4,9 C 80 % 0,0 l/m 11,8 km/h (2 Bft) S-SW 197 20,9 km/h (4 Bft)
08.01.2012 02:09 4,8 C 80 % 0,0 l/m 8,1 km/h (2 Bft) W-SW 255 12,9 km/h (3 Bft)
08.01.2012 02:10 4,8 C 80 % 0,0 l/m 14,6 km/h (3 Bft) W 266 25,7 km/h (4 Bft)
08.01.2012 02:11 4,8 C 80 % 0,0 l/m 13,6 km/h (3 Bft) W-NW 297 17,7 km/h (3 Bft)
08.01.2012 02:12 4,8 C 80 % 0,0 l/m 12,6 km/h (3 Bft) O-SO 115 19,3 km/h (3 Bft)
08.01.2012 02:13 4,8 C 80 % 0,0 l/m 7,4 km/h (2 Bft) W 260 14,5 km/h (3 Bft)
08.01.2012 02:14 4,8 C 80 % 0,0 l/m 13,9 km/h (3 Bft) W-NW 284 20,9 km/h (4 Bft)
08.01.2012 02:15 4,8 C 80 % 0,0 l/m 9,7 km/h (2 Bft) S-SW 208 20,9 km/h (4 Bft)
08.01.2012 02:16 4,8 C 80 % 0,0 l/m 6,2 km/h (2 Bft) SW 228 16,1 km/h (3 Bft)
08.01.2012 02:17 4,8 C 80 % 0,0 l/m 10,9 km/h (2 Bft) W-SW 246 16,1 km/h (3 Bft)
08.01.2012 02:18 4,8 C 80 % 0,0 l/m 7,0 km/h (2 Bft) W-NW 297 12,9 km/h (3 Bft)
08.01.2012 02:19 4,8 C 80 % 0,0 l/m 11,4 km/h (2 Bft) SW 236 17,7 km/h (3 Bft)
08.01.2012 02:20 4,8 C 80 % 0,0 l/m 11,0 km/h (2 Bft) N 4 22,5 km/h (4 Bft)
08.01.2012 02:21 4,8 C 80 % 0,0 l/m 7,7 km/h (2 Bft) W-SW 240 16,1 km/h (3 Bft)
08.01.2012 02:22 4,8 C 80 % 0,0 l/m 11,7 km/h (2 Bft) NW 313 16,1 km/h (3 Bft)
08.01.2012 02:23 4,8 C 80 % 0,0 l/m 11,3 km/h (2 Bft) W-SW 239 16,1 km/h (3 Bft)
08.01.2012 02:24 4,8 C 80 % 0,0 l/m 8,5 km/h (2 Bft) S-SW 209 19,3 km/h (3 Bft)
08.01.2012 02:25 4,8 C 80 % 0,0 l/m 6,5 km/h (2 Bft) S-SW 198 12,9 km/h (3 Bft)
08.01.2012 02:26 4,8 C 80 % 0,0 l/m 6,8 km/h (2 Bft) W-SW 253 14,5 km/h (3 Bft)
08.01.2012 02:27 4,8 C 80 % 0,0 l/m 7,9 km/h (2 Bft) SW 231 16,1 km/h (3 Bft)
08.01.2012 02:28 4,7 C 80 % 0,0 l/m 10,3 km/h (2 Bft) W-SW 256 17,7 km/h (3 Bft)
08.01.2012 02:29 4,7 C 80 % 0,0 l/m 10,5 km/h (2 Bft) W 281 20,9 km/h (4 Bft)
08.01.2012 02:30 4,7 C 80 % 0,0 l/m 12,8 km/h (3 Bft) W 269 27,4 km/h (4 Bft)
08.01.2012 02:31 4,7 C 79 % 0,0 l/m 9,1 km/h (2 Bft) W-NW 285 17,7 km/h (3 Bft)
08.01.2012 02:32 4,7 C 80 % 0,0 l/m 6,4 km/h (2 Bft) W-NW 294 17,7 km/h (3 Bft)
08.01.2012 02:33 4,8 C 79 % 0,0 l/m 14,3 km/h (3 Bft) SW 226 20,9 km/h (4 Bft)
08.01.2012 02:34 4,7 C 79 % 0,0 l/m 10,3 km/h (2 Bft) S 181 16,1 km/h (3 Bft)
08.01.2012 02:35 4,7 C 79 % 0,0 l/m 6,9 km/h (2 Bft) W-NW 301 14,5 km/h (3 Bft)
08.01.2012 02:36 4,7 C 79 % 0,0 l/m 9,4 km/h (2 Bft) W 276 12,9 km/h (3 Bft)
08.01.2012 02:37 4,8 C 79 % 0,0 l/m 9,6 km/h (2 Bft) W 264 16,1 km/h (3 Bft)
08.01.2012 02:38 4,7 C 79 % 0,0 l/m 11,6 km/h (2 Bft) W 269 19,3 km/h (3 Bft)
08.01.2012 02:39 4,7 C 79 % 0,0 l/m 8,2 km/h (2 Bft) N-NW 330 12,9 km/h (3 Bft)
08.01.2012 02:40 4,7 C 79 % 0,0 l/m 3,3 km/h (1 Bft) W 271 4,8 km/h (1 Bft)
08.01.2012 02:41 4,7 C 79 % 0,0 l/m 9,3 km/h (2 Bft) W 276 19,3 km/h (3 Bft)
08.01.2012 02:42 4,7 C 79 % 0,0 l/m 8,6 km/h (2 Bft) W-NW 291 12,9 km/h (3 Bft)
08.01.2012 02:43 4,7 C 79 % 0,0 l/m 14,8 km/h (3 Bft) W 276 20,9 km/h (4 Bft)
08.01.2012 02:44 4,7 C 79 % 0,0 l/m 8,6 km/h (2 Bft) W-SW 252 17,7 km/h (3 Bft)
08.01.2012 02:45 4,7 C 79 % 0,0 l/m 7,6 km/h (2 Bft) W 270 14,5 km/h (3 Bft)
08.01.2012 02:46 4,7 C 79 % 0,0 l/m 11,3 km/h (2 Bft) W-SW 250 22,5 km/h (4 Bft)
08.01.2012 02:47 4,7 C 79 % 0,0 l/m 10,6 km/h (2 Bft) W-NW 291 17,7 km/h (3 Bft)
08.01.2012 02:48 4,7 C 79 % 0,0 l/m 7,4 km/h (2 Bft) W 280 12,9 km/h (3 Bft)
08.01.2012 02:49 4,6 C 79 % 0,0 l/m 8,7 km/h (2 Bft) W-SW 256 19,3 km/h (3 Bft)
08.01.2012 02:50 4,6 C 79 % 0,0 l/m 9,8 km/h (2 Bft) W-SW 245 14,5 km/h (3 Bft)
08.01.2012 02:51 4,6 C 79 % 0,0 l/m 10,7 km/h (2 Bft) W-SW 249 16,1 km/h (3 Bft)
08.01.2012 02:52 4,6 C 79 % 0,0 l/m 9,4 km/h (2 Bft) W-SW 256 16,1 km/h (3 Bft)
08.01.2012 02:53 4,6 C 79 % 0,0 l/m 14,8 km/h (3 Bft) SW 229 22,5 km/h (4 Bft)
08.01.2012 02:54 4,6 C 79 % 0,0 l/m 8,9 km/h (2 Bft) S-SW 192 14,5 km/h (3 Bft)
08.01.2012 02:55 4,7 C 78 % 0,0 l/m 16,8 km/h (3 Bft) NW 308 25,7 km/h (4 Bft)
08.01.2012 02:56 4,7 C 78 % 0,0 l/m 10,3 km/h (2 Bft) W-SW 250 16,1 km/h (3 Bft)
08.01.2012 02:57 4,7 C 78 % 0,0 l/m 9,3 km/h (2 Bft) W-SW 239 16,1 km/h (3 Bft)
08.01.2012 02:58 4,7 C 78 % 0,0 l/m 12,3 km/h (3 Bft) SW 228 29,0 km/h (5 Bft)
08.01.2012 02:59 4,7 C 79 % 0,0 l/m 14,4 km/h (3 Bft) SW 226 25,7 km/h (4 Bft)
08.01.2012 03:00 4,7 C 78 % 0,0 l/m 11,6 km/h (2 Bft) W-SW 250 20,9 km/h (4 Bft)
08.01.2012 03:01 4,7 C 78 % 0,0 l/m 9,7 km/h (2 Bft) W 267 16,1 km/h (3 Bft)
08.01.2012 03:02 4,7 C 78 % 0,0 l/m 8,2 km/h (2 Bft) SW 228 11,3 km/h (2 Bft)
08.01.2012 03:03 4,7 C 79 % 0,0 l/m 6,8 km/h (2 Bft) SW 236 11,3 km/h (2 Bft)
08.01.2012 03:04 4,7 C 79 % 0,0 l/m 8,2 km/h (2 Bft) W 274 14,5 km/h (3 Bft)
08.01.2012 03:05 4,6 C 79 % 0,0 l/m 7,8 km/h (2 Bft) W 263 12,9 km/h (3 Bft)
08.01.2012 03:06 4,6 C 79 % 0,0 l/m 9,0 km/h (2 Bft) W 266 14,5 km/h (3 Bft)
08.01.2012 03:07 4,6 C 79 % 0,0 l/m 8,4 km/h (2 Bft) W 264 14,5 km/h (3 Bft)
08.01.2012 03:08 4,6 C 79 % 0,0 l/m 4,1 km/h (1 Bft) SW 233 9,7 km/h (2 Bft)
08.01.2012 03:09 4,6 C 79 % 0,0 l/m 5,0 km/h (1 Bft) W-SW 245 9,7 km/h (2 Bft)
08.01.2012 03:10 4,6 C 79 % 0,0 l/m 8,0 km/h (2 Bft) SW 214 11,3 km/h (2 Bft)
08.01.2012 03:11 4,6 C 79 % 0,0 l/m 7,9 km/h (2 Bft) W-SW 245 12,9 km/h (3 Bft)
08.01.2012 03:12 4,6 C 79 % 0,0 l/m 8,8 km/h (2 Bft) NW 307 14,5 km/h (3 Bft)
08.01.2012 03:13 4,6 C 79 % 0,0 l/m 5,4 km/h (1 Bft) SW 233 8,0 km/h (2 Bft)
08.01.2012 03:14 4,6 C 79 % 0,0 l/m 7,7 km/h (2 Bft) W-NW 293 16,1 km/h (3 Bft)
08.01.2012 03:15 4,6 C 79 % 0,0 l/m 10,8 km/h (2 Bft) W-NW 289 22,5 km/h (4 Bft)
08.01.2012 03:16 4,6 C 79 % 0,0 l/m 13,7 km/h (3 Bft) NW 308 20,9 km/h (4 Bft)
08.01.2012 03:17 4,6 C 79 % 0,0 l/m 5,5 km/h (1 Bft) N-NW 333 12,9 km/h (3 Bft)
08.01.2012 03:18 4,6 C 79 % 0,0 l/m 5,5 km/h (1 Bft) W 281 11,3 km/h (2 Bft)
08.01.2012 03:19 4,6 C 78 % 0,0 l/m 6,0 km/h (2 Bft) W 264 16,1 km/h (3 Bft)
08.01.2012 03:20 4,6 C 78 % 0,0 l/m 12,3 km/h (3 Bft) W-SW 249 17,7 km/h (3 Bft)
08.01.2012 03:21 4,6 C 78 % 0,0 l/m 13,7 km/h (3 Bft) W-NW 295 24,1 km/h (4 Bft)
08.01.2012 03:22 4,7 C 78 % 0,0 l/m 9,3 km/h (2 Bft) W-SW 256 19,3 km/h (3 Bft)
08.01.2012 03:23 4,7 C 78 % 0,0 l/m 8,4 km/h (2 Bft) S-SW 210 12,9 km/h (3 Bft)
08.01.2012 03:24 4,7 C 78 % 0,0 l/m 11,8 km/h (2 Bft) W-NW 287 19,3 km/h (3 Bft)
08.01.2012 03:25 4,7 C 78 % 0,0 l/m 8,4 km/h (2 Bft) W-NW 297 16,1 km/h (3 Bft)
08.01.2012 03:26 4,7 C 78 % 0,0 l/m 12,1 km/h (2 Bft) W 271 32,2 km/h (5 Bft)
08.01.2012 03:27 4,7 C 78 % 0,0 l/m 12,9 km/h (3 Bft) W-NW 295 22,5 km/h (4 Bft)
08.01.2012 03:28 4,7 C 78 % 0,0 l/m 9,3 km/h (2 Bft) S-SW 210 14,5 km/h (3 Bft)
08.01.2012 03:29 4,7 C 78 % 0,0 l/m 9,3 km/h (2 Bft) W 260 14,5 km/h (3 Bft)
08.01.2012 03:30 4,7 C 78 % 0,0 l/m 6,5 km/h (2 Bft) W-SW 248 14,5 km/h (3 Bft)
08.01.2012 03:31 4,7 C 78 % 0,0 l/m 6,3 km/h (2 Bft) W-SW 242 11,3 km/h (2 Bft)
08.01.2012 03:32 4,7 C 78 % 0,0 l/m 4,1 km/h (1 Bft) W-SW 238 11,3 km/h (2 Bft)
08.01.2012 03:33 4,7 C 78 % 0,0 l/m 8,6 km/h (2 Bft) N-NW 346 11,3 km/h (2 Bft)
08.01.2012 03:34 4,7 C 78 % 0,0 l/m 6,6 km/h (2 Bft) S-SO 150 11,3 km/h (2 Bft)
08.01.2012 03:35 4,7 C 78 % 0,0 l/m 4,9 km/h (1 Bft) W 263 14,5 km/h (3 Bft)
08.01.2012 03:36 4,7 C 78 % 0,0 l/m 7,7 km/h (2 Bft) W 259 14,5 km/h (3 Bft)
08.01.2012 03:37 4,7 C 78 % 0,0 l/m 5,1 km/h (1 Bft) W-SW 252 8,0 km/h (2 Bft)
08.01.2012 03:38 4,7 C 78 % 0,0 l/m 6,6 km/h (2 Bft) SW 229 9,7 km/h (2 Bft)
08.01.2012 03:39 4,7 C 78 % 0,0 l/m 4,8 km/h (1 Bft) N-NW 341 11,3 km/h (2 Bft)
08.01.2012 03:40 4,7 C 78 % 0,0 l/m 8,4 km/h (2 Bft) S-SW 200 17,7 km/h (3 Bft)
08.01.2012 03:41 4,7 C 78 % 0,0 l/m 8,2 km/h (2 Bft) W-NW 291 14,5 km/h (3 Bft)
08.01.2012 03:42 4,7 C 78 % 0,0 l/m 13,7 km/h (3 Bft) W-NW 297 24,1 km/h (4 Bft)
08.01.2012 03:43 4,8 C 77 % 0,0 l/m 14,8 km/h (3 Bft) W-NW 288 29,0 km/h (5 Bft)
08.01.2012 03:44 4,8 C 77 % 0,0 l/m 15,6 km/h (3 Bft) W 263 29,0 km/h (5 Bft)
08.01.2012 03:45 4,8 C 77 % 0,0 l/m 14,2 km/h (3 Bft) N-NW 340 27,4 km/h (4 Bft)
08.01.2012 03:46 4,9 C 77 % 0,0 l/m 6,4 km/h (2 Bft) NW 307 14,5 km/h (3 Bft)
08.01.2012 03:47 4,9 C 76 % 0,0 l/m 17,4 km/h (3 Bft) W-NW 295 25,7 km/h (4 Bft)
08.01.2012 03:48 4,9 C 76 % 0,0 l/m 15,4 km/h (3 Bft) W 271 24,1 km/h (4 Bft)
08.01.2012 03:49 5,0 C 76 % 0,0 l/m 18,1 km/h (3 Bft) W-NW 283 30,6 km/h (5 Bft)
08.01.2012 03:50 5,0 C 76 % 0,0 l/m 11,0 km/h (2 Bft) W 278 16,1 km/h (3 Bft)
08.01.2012 03:51 5,1 C 76 % 0,0 l/m 14,6 km/h (3 Bft) W-NW 288 27,4 km/h (4 Bft)
08.01.2012 03:52 5,1 C 75 % 0,0 l/m 15,0 km/h (3 Bft) W-SW 245 22,5 km/h (4 Bft)
08.01.2012 03:53 5,1 C 75 % 0,0 l/m 14,3 km/h (3 Bft) W-NW 285 24,1 km/h (4 Bft)
08.01.2012 03:54 5,1 C 75 % 0,0 l/m 10,0 km/h (2 Bft) SO 129 24,1 km/h (4 Bft)
08.01.2012 03:55 5,1 C 75 % 0,0 l/m 10,5 km/h (2 Bft) W 261 20,9 km/h (4 Bft)
08.01.2012 03:56 5,1 C 75 % 0,0 l/m 11,7 km/h (2 Bft) W-NW 295 17,7 km/h (3 Bft)
08.01.2012 03:57 5,1 C 75 % 0,0 l/m 9,8 km/h (2 Bft) W-SW 257 33,8 km/h (5 Bft)
08.01.2012 03:58 5,1 C 75 % 0,0 l/m 14,1 km/h (3 Bft) W-SW 242 30,6 km/h (5 Bft)
08.01.2012 03:59 5,1 C 75 % 0,0 l/m 13,7 km/h (3 Bft) W-NW 284 22,5 km/h (4 Bft)
08.01.2012 04:00 5,1 C 75 % 0,0 l/m 11,0 km/h (2 Bft) NW 321 17,7 km/h (3 Bft)
08.01.2012 04:01 5,1 C 75 % 0,0 l/m 14,3 km/h (3 Bft) W-SW 257 24,1 km/h (4 Bft)
08.01.2012 04:02 5,1 C 75 % 0,0 l/m 16,3 km/h (3 Bft) W-NW 294 33,8 km/h (5 Bft)
08.01.2012 04:03 5,1 C 75 % 0,0 l/m 14,1 km/h (3 Bft) N-NW 342 22,5 km/h (4 Bft)
08.01.2012 04:04 5,2 C 75 % 0,0 l/m 10,2 km/h (2 Bft) W 270 17,7 km/h (3 Bft)
08.01.2012 04:05 5,2 C 75 % 0,0 l/m 19,5 km/h (3 Bft) W 269 33,8 km/h (5 Bft)
08.01.2012 04:06 5,2 C 75 % 0,0 l/m 13,5 km/h (3 Bft) W-NW 301 24,1 km/h (4 Bft)
08.01.2012 04:07 5,2 C 75 % 0,0 l/m 19,6 km/h (3 Bft) W-NW 299 30,6 km/h (5 Bft)
08.01.2012 04:08 5,2 C 75 % 0,0 l/m 10,7 km/h (2 Bft) W-SW 252 29,0 km/h (5 Bft)
08.01.2012 04:09 5,2 C 75 % 0,0 l/m 7,8 km/h (2 Bft) N 355 16,1 km/h (3 Bft)
08.01.2012 04:10 5,2 C 75 % 0,0 l/m 10,8 km/h (2 Bft) W-SW 249 16,1 km/h (3 Bft)
08.01.2012 04:11 5,2 C 75 % 0,0 l/m 10,3 km/h (2 Bft) N 359 17,7 km/h (3 Bft)
08.01.2012 04:12 5,2 C 75 % 0,0 l/m 16,3 km/h (3 Bft) W-NW 293 29,0 km/h (5 Bft)
08.01.2012 04:13 5,2 C 74 % 0,0 l/m 20,8 km/h (4 Bft) W 265 29,0 km/h (5 Bft)
08.01.2012 04:14 5,3 C 74 % 0,0 l/m 12,0 km/h (2 Bft) W-NW 302 22,5 km/h (4 Bft)
08.01.2012 04:15 5,3 C 74 % 0,0 l/m 11,7 km/h (2 Bft) S-SO 163 25,7 km/h (4 Bft)
08.01.2012 04:16 5,3 C 74 % 0,0 l/m 13,6 km/h (3 Bft) NW 315 27,4 km/h (4 Bft)
08.01.2012 04:17 5,3 C 74 % 0,0 l/m 9,5 km/h (2 Bft) W-NW 291 22,5 km/h (4 Bft)
08.01.2012 04:18 5,3 C 74 % 0,0 l/m 16,3 km/h (3 Bft) W 269 27,4 km/h (4 Bft)
08.01.2012 04:19 5,4 C 74 % 0,0 l/m 20,8 km/h (4 Bft) W-NW 283 29,0 km/h (5 Bft)
08.01.2012 04:20 5,4 C 74 % 0,0 l/m 13,4 km/h (3 Bft) W-NW 300 27,4 km/h (4 Bft)
08.01.2012 04:21 5,4 C 74 % 0,0 l/m 13,3 km/h (3 Bft) W-NW 293 27,4 km/h (4 Bft)
08.01.2012 04:22 5,4 C 74 % 0,0 l/m 21,6 km/h (4 Bft) S-SO 163 43,5 km/h (6 Bft)
08.01.2012 04:23 5,4 C 74 % 0,0 l/m 18,2 km/h (3 Bft) NW 304 35,4 km/h (5 Bft)
08.01.2012 04:24 5,4 C 73 % 0,0 l/m 27,3 km/h (4 Bft) NW 304 33,8 km/h (5 Bft)
08.01.2012 04:25 5,5 C 73 % 0,0 l/m 28,6 km/h (4 Bft) W-NW 293 41,8 km/h (6 Bft)
08.01.2012 04:26 5,5 C 73 % 0,0 l/m 20,7 km/h (4 Bft) NW 318 35,4 km/h (5 Bft)
08.01.2012 04:27 5,5 C 73 % 0,0 l/m 16,2 km/h (3 Bft) NW 315 32,2 km/h (5 Bft)
08.01.2012 04:28 5,5 C 73 % 0,0 l/m 12,4 km/h (3 Bft) N-NW 330 19,3 km/h (3 Bft)
08.01.2012 04:29 5,4 C 74 % 0,0 l/m 16,5 km/h (3 Bft) W-NW 297 35,4 km/h (5 Bft)
08.01.2012 04:30 5,4 C 74 % 0,0 l/m 16,7 km/h (3 Bft) NW 308 30,6 km/h (5 Bft)
08.01.2012 04:31 5,4 C 74 % 0,0 l/m 12,5 km/h (3 Bft) W-NW 293 22,5 km/h (4 Bft)
08.01.2012 04:32 5,4 C 74 % 0,0 l/m 9,3 km/h (2 Bft) NW 304 16,1 km/h (3 Bft)
08.01.2012 04:33 5,4 C 74 % 0,0 l/m 10,5 km/h (2 Bft) NW 312 17,7 km/h (3 Bft)
08.01.2012 04:34 5,4 C 74 % 0,0 l/m 13,0 km/h (3 Bft) SW 232 20,9 km/h (4 Bft)
08.01.2012 04:35 5,3 C 74 % 0,0 l/m 14,6 km/h (3 Bft) NW 317 22,5 km/h (4 Bft)
08.01.2012 04:36 5,3 C 74 % 0,0 l/m 11,3 km/h (2 Bft) NW 304 29,0 km/h (5 Bft)
08.01.2012 04:37 5,3 C 74 % 0,0 l/m 15,0 km/h (3 Bft) W 278 25,7 km/h (4 Bft)
08.01.2012 04:38 5,3 C 74 % 0,0 l/m 12,5 km/h (3 Bft) W-SW 256 20,9 km/h (4 Bft)
08.01.2012 04:39 5,3 C 74 % 0,0 l/m 13,0 km/h (3 Bft) NW 323 27,4 km/h (4 Bft)
08.01.2012 04:40 5,3 C 75 % 0,0 l/m 7,9 km/h (2 Bft) W-NW 297 17,7 km/h (3 Bft)
08.01.2012 04:41 5,3 C 75 % 0,0 l/m 9,7 km/h (2 Bft) W-NW 301 12,9 km/h (3 Bft)
08.01.2012 04:42 5,3 C 75 % 0,0 l/m 11,3 km/h (2 Bft) N-NW 333 22,5 km/h (4 Bft)
08.01.2012 04:43 5,2 C 75 % 0,0 l/m 15,9 km/h (3 Bft) N-NW 329 30,6 km/h (5 Bft)
08.01.2012 04:44 5,2 C 75 % 0,0 l/m 16,3 km/h (3 Bft) W-NW 287 33,8 km/h (5 Bft)
08.01.2012 04:45 5,2 C 75 % 0,0 l/m 20,4 km/h (4 Bft) W 276 30,6 km/h (5 Bft)
08.01.2012 04:46 5,2 C 75 % 0,0 l/m 16,4 km/h (3 Bft) NW 308 27,4 km/h (4 Bft)
08.01.2012 04:47 5,2 C 75 % 0,0 l/m 21,4 km/h (4 Bft) W-NW 293 37,0 km/h (5 Bft)
08.01.2012 04:48 5,2 C 75 % 0,0 l/m 9,7 km/h (2 Bft) W-NW 300 22,5 km/h (4 Bft)
08.01.2012 04:49 5,2 C 75 % 0,0 l/m 14,5 km/h (3 Bft) W-SW 252 27,4 km/h (4 Bft)
08.01.2012 04:50 5,2 C 75 % 0,0 l/m 24,8 km/h (4 Bft) W-NW 282 35,4 km/h (5 Bft)
08.01.2012 04:51 5,2 C 75 % 0,2 l/m 12,3 km/h (3 Bft) S 190 20,9 km/h (4 Bft)
08.01.2012 04:52 5,2 C 75 % 0,0 l/m 18,9 km/h (3 Bft) W 277 30,6 km/h (5 Bft)
08.01.2012 04:53 5,2 C 75 % 0,0 l/m 17,8 km/h (3 Bft) W-NW 287 25,7 km/h (4 Bft)
08.01.2012 04:54 5,2 C 75 % 0,0 l/m 17,1 km/h (3 Bft) W-NW 297 29,0 km/h (5 Bft)
08.01.2012 04:55 5,2 C 75 % 0,0 l/m 25,7 km/h (4 Bft) W-NW 289 32,2 km/h (5 Bft)
08.01.2012 04:56 5,2 C 75 % 0,0 l/m 20,2 km/h (4 Bft) NW 306 30,6 km/h (5 Bft)
08.01.2012 04:57 5,2 C 75 % 0,0 l/m 15,6 km/h (3 Bft) W-NW 302 27,4 km/h (4 Bft)
08.01.2012 04:58 5,2 C 75 % 0,0 l/m 18,1 km/h (3 Bft) W-NW 291 30,6 km/h (5 Bft)
08.01.2012 04:59 5,2 C 75 % 0,0 l/m 23,5 km/h (4 Bft) NO 47 38,6 km/h (5 Bft)
08.01.2012 05:00 5,2 C 75 % 0,0 l/m 19,6 km/h (3 Bft) W 273 32,2 km/h (5 Bft)
08.01.2012 05:01 5,2 C 75 % 0,0 l/m 15,8 km/h (3 Bft) S 186 27,4 km/h (4 Bft)
08.01.2012 05:02 5,2 C 75 % 0,0 l/m 31,0 km/h (5 Bft) W-NW 302 40,2 km/h (6 Bft)
08.01.2012 05:03 5,2 C 75 % 0,0 l/m 26,7 km/h (4 Bft) W-NW 300 38,6 km/h (5 Bft)
08.01.2012 05:04 5,2 C 75 % 0,0 l/m 19,6 km/h (3 Bft) W 271 33,8 km/h (5 Bft)
08.01.2012 05:05 5,2 C 75 % 0,0 l/m 21,4 km/h (4 Bft) W-SW 246 32,2 km/h (5 Bft)
08.01.2012 05:06 5,2 C 75 % 0,0 l/m 23,3 km/h (4 Bft) W-NW 288 32,2 km/h (5 Bft)
08.01.2012 05:07 5,2 C 76 % 0,0 l/m 15,8 km/h (3 Bft) NW 316 33,8 km/h (5 Bft)
08.01.2012 05:08 5,2 C 76 % 0,0 l/m 15,7 km/h (3 Bft) W 281 24,1 km/h (4 Bft)
08.01.2012 05:09 5,2 C 76 % 0,0 l/m 17,4 km/h (3 Bft) NW 315 35,4 km/h (5 Bft)
08.01.2012 05:10 5,2 C 76 % 0,0 l/m 14,6 km/h (3 Bft) W-NW 297 29,0 km/h (5 Bft)
08.01.2012 05:11 5,2 C 76 % 0,0 l/m 18,5 km/h (3 Bft) W-NW 287 30,6 km/h (5 Bft)
08.01.2012 05:12 5,2 C 76 % 0,0 l/m 16,4 km/h (3 Bft) W 266 29,0 km/h (5 Bft)
08.01.2012 05:13 5,2 C 76 % 0,0 l/m 18,8 km/h (3 Bft) W-NW 294 35,4 km/h (5 Bft)
08.01.2012 05:14 5,2 C 76 % 0,0 l/m 12,4 km/h (3 Bft) W-NW 294 25,7 km/h (4 Bft)
08.01.2012 05:15 5,2 C 76 % 0,0 l/m 14,7 km/h (3 Bft) N-NW 345 20,9 km/h (4 Bft)
08.01.2012 05:16 5,1 C 76 % 0,0 l/m 16,7 km/h (3 Bft) N-NW 341 22,5 km/h (4 Bft)
08.01.2012 05:17 5,1 C 76 % 0,0 l/m 18,5 km/h (3 Bft) N 351 30,6 km/h (5 Bft)
08.01.2012 05:18 5,1 C 76 % 0,0 l/m 14,6 km/h (3 Bft) W-SW 256 27,4 km/h (4 Bft)
08.01.2012 05:19 5,1 C 76 % 0,0 l/m 13,0 km/h (3 Bft) NW 312 20,9 km/h (4 Bft)
08.01.2012 05:20 5,1 C 76 % 0,0 l/m 16,9 km/h (3 Bft) W-NW 293 29,0 km/h (5 Bft)
08.01.2012 05:21 5,1 C 76 % 0,0 l/m 15,2 km/h (3 Bft) W-NW 301 35,4 km/h (5 Bft)
08.01.2012 05:22 5,1 C 76 % 0,0 l/m 17,1 km/h (3 Bft) W-SW 246 27,4 km/h (4 Bft)
08.01.2012 05:23 5,1 C 76 % 0,0 l/m 19,2 km/h (3 Bft) W-SW 238 32,2 km/h (5 Bft)
08.01.2012 05:24 5,1 C 77 % 0,0 l/m 13,9 km/h (3 Bft) N-NO 15 27,4 km/h (4 Bft)
08.01.2012 05:25 5,1 C 76 % 0,0 l/m 21,4 km/h (4 Bft) NW 321 30,6 km/h (5 Bft)
08.01.2012 05:26 5,1 C 76 % 0,0 l/m 18,0 km/h (3 Bft) W-SW 245 30,6 km/h (5 Bft)
08.01.2012 05:27 5,1 C 76 % 0,0 l/m 12,0 km/h (2 Bft) N-NW 329 32,2 km/h (5 Bft)
08.01.2012 05:28 5,1 C 76 % 0,0 l/m 14,4 km/h (3 Bft) W 264 24,1 km/h (4 Bft)
08.01.2012 05:29 5,1 C 76 % 0,0 l/m 15,6 km/h (3 Bft) N-NW 345 24,1 km/h (4 Bft)
08.01.2012 05:30 5,1 C 77 % 0,0 l/m 11,6 km/h (2 Bft) NW 312 25,7 km/h (4 Bft)
08.01.2012 05:31 5,1 C 77 % 0,0 l/m 13,2 km/h (3 Bft) N-NW 333 32,2 km/h (5 Bft)
08.01.2012 05:32 5,1 C 77 % 0,0 l/m 19,1 km/h (3 Bft) W 259 30,6 km/h (5 Bft)
08.01.2012 05:33 5,1 C 77 % 0,0 l/m 16,1 km/h (3 Bft) W-NW 297 22,5 km/h (4 Bft)
08.01.2012 05:34 5,1 C 77 % 0,0 l/m 11,6 km/h (2 Bft) S 181 32,2 km/h (5 Bft)
08.01.2012 05:35 5,1 C 77 % 0,0 l/m 18,2 km/h (3 Bft) W 269 29,0 km/h (5 Bft)
08.01.2012 05:36 5,1 C 76 % 0,0 l/m 18,4 km/h (3 Bft) W 264 29,0 km/h (5 Bft)
08.01.2012 05:37 5,1 C 76 % 0,0 l/m 20,0 km/h (4 Bft) S-SW 201 33,8 km/h (5 Bft)
08.01.2012 05:38 5,1 C 77 % 0,0 l/m 12,5 km/h (3 Bft) NW 309 25,7 km/h (4 Bft)
08.01.2012 05:39 5,1 C 77 % 0,0 l/m 13,9 km/h (3 Bft) W 281 29,0 km/h (5 Bft)
08.01.2012 05:40 5,1 C 77 % 0,0 l/m 9,3 km/h (2 Bft) W-NW 291 17,7 km/h (3 Bft)
08.01.2012 05:41 5,1 C 77 % 0,0 l/m 12,7 km/h (3 Bft) W-SW 256 27,4 km/h (4 Bft)
08.01.2012 05:42 5,1 C 77 % 0,0 l/m 9,7 km/h (2 Bft) NW 305 22,5 km/h (4 Bft)
08.01.2012 05:43 5,0 C 77 % 0,0 l/m 6,8 km/h (2 Bft) S 184 11,3 km/h (2 Bft)
08.01.2012 05:44 5,0 C 77 % 0,0 l/m 10,2 km/h (2 Bft) NW 304 20,9 km/h (4 Bft)
08.01.2012 05:45 5,0 C 77 % 0,0 l/m 20,1 km/h (4 Bft) W-NW 300 37,0 km/h (5 Bft)
08.01.2012 05:46 5,0 C 77 % 0,0 l/m 19,1 km/h (3 Bft) W-SW 250 32,2 km/h (5 Bft)
08.01.2012 05:47 5,0 C 77 % 0,0 l/m 17,0 km/h (3 Bft) N-NW 343 25,7 km/h (4 Bft)
08.01.2012 05:48 5,0 C 77 % 0,0 l/m 12,5 km/h (3 Bft) N-NW 336 22,5 km/h (4 Bft)
08.01.2012 05:49 5,0 C 77 % 0,0 l/m 17,2 km/h (3 Bft) W-NW 288 30,6 km/h (5 Bft)
08.01.2012 05:50 5,0 C 77 % 0,0 l/m 12,8 km/h (3 Bft) W-NW 294 20,9 km/h (4 Bft)
08.01.2012 05:51 5,0 C 78 % 0,0 l/m 18,7 km/h (3 Bft) NW 321 32,2 km/h (5 Bft)
08.01.2012 05:52 4,9 C 78 % 0,0 l/m 21,0 km/h (4 Bft) W 264 29,0 km/h (5 Bft)
08.01.2012 05:53 4,9 C 78 % 0,0 l/m 12,8 km/h (3 Bft) W 260 32,2 km/h (5 Bft)
08.01.2012 05:54 4,9 C 78 % 0,0 l/m 12,0 km/h (2 Bft) SW 225 25,7 km/h (4 Bft)
08.01.2012 05:55 4,9 C 78 % 0,0 l/m 11,7 km/h (2 Bft) W-NW 299 20,9 km/h (4 Bft)
08.01.2012 05:56 4,9 C 78 % 0,0 l/m 12,3 km/h (3 Bft) NW 321 20,9 km/h (4 Bft)
08.01.2012 05:57 4,9 C 78 % 0,0 l/m 14,1 km/h (3 Bft) W-NW 293 24,1 km/h (4 Bft)
08.01.2012 05:58 4,9 C 78 % 0,0 l/m 15,2 km/h (3 Bft) W-NW 298 20,9 km/h (4 Bft)
08.01.2012 05:59 4,9 C 78 % 0,0 l/m 9,2 km/h (2 Bft) W-SW 244 16,1 km/h (3 Bft)
08.01.2012 06:00 4,9 C 78 % 0,0 l/m 9,9 km/h (2 Bft) W 262 14,5 km/h (3 Bft)
08.01.2012 06:01 4,8 C 78 % 0,0 l/m 11,3 km/h (2 Bft) W-NW 302 22,5 km/h (4 Bft)
08.01.2012 06:02 4,8 C 78 % 0,0 l/m 9,0 km/h (2 Bft) N-NW 336 24,1 km/h (4 Bft)
08.01.2012 06:03 4,8 C 79 % 0,0 l/m 10,7 km/h (2 Bft) W-NW 302 16,1 km/h (3 Bft)
08.01.2012 06:04 4,8 C 79 % 0,0 l/m 10,5 km/h (2 Bft) W-NW 291 19,3 km/h (3 Bft)
08.01.2012 06:05 4,8 C 79 % 0,0 l/m 12,8 km/h (3 Bft) W-NW 302 22,5 km/h (4 Bft)
08.01.2012 06:06 4,8 C 79 % 0,0 l/m 15,7 km/h (3 Bft) W-NW 287 24,1 km/h (4 Bft)
08.01.2012 06:07 4,8 C 79 % 0,0 l/m 9,6 km/h (2 Bft) W-NW 284 24,1 km/h (4 Bft)
08.01.2012 06:08 4,8 C 79 % 0,0 l/m 11,6 km/h (2 Bft) W 264 22,5 km/h (4 Bft)
08.01.2012 06:09 4,8 C 79 % 0,0 l/m 6,6 km/h (2 Bft) NW 322 12,9 km/h (3 Bft)
08.01.2012 06:10 4,8 C 79 % 0,0 l/m 13,5 km/h (3 Bft) NW 321 20,9 km/h (4 Bft)
08.01.2012 06:11 4,8 C 79 % 0,0 l/m 13,4 km/h (3 Bft) W 264 22,5 km/h (4 Bft)
08.01.2012 06:12 4,8 C 79 % 0,0 l/m 13,9 km/h (3 Bft) W-NW 285 27,4 km/h (4 Bft)
08.01.2012 06:13 4,8 C 79 % 0,0 l/m 21,5 km/h (4 Bft) SW 232 32,2 km/h (5 Bft)
08.01.2012 06:14 4,8 C 79 % 0,0 l/m 7,8 km/h (2 Bft) W 269 22,5 km/h (4 Bft)
08.01.2012 06:15 4,8 C 79 % 0,0 l/m 10,1 km/h (2 Bft) NW 316 19,3 km/h (3 Bft)
08.01.2012 06:16 4,8 C 79 % 0,0 l/m 10,8 km/h (2 Bft) W-NW 284 20,9 km/h (4 Bft)
08.01.2012 06:17 4,8 C 79 % 0,0 l/m 4,4 km/h (1 Bft) SW 222 11,3 km/h (2 Bft)
08.01.2012 06:18 4,8 C 79 % 0,0 l/m 17,7 km/h (3 Bft) W 276 27,4 km/h (4 Bft)
08.01.2012 06:19 4,8 C 79 % 0,0 l/m 8,9 km/h (2 Bft) W 277 14,5 km/h (3 Bft)
08.01.2012 06:20 4,7 C 79 % 0,0 l/m 7,6 km/h (2 Bft) W-NW 301 17,7 km/h (3 Bft)
08.01.2012 06:21 4,7 C 79 % 0,0 l/m 12,7 km/h (3 Bft) W-NW 298 19,3 km/h (3 Bft)
08.01.2012 06:22 4,7 C 79 % 0,0 l/m 7,9 km/h (2 Bft) W-SW 238 12,9 km/h (3 Bft)
08.01.2012 06:23 4,7 C 79 % 0,0 l/m 12,3 km/h (3 Bft) N-NO 13 29,0 km/h (5 Bft)
08.01.2012 06:24 4,7 C 79 % 0,0 l/m 8,0 km/h (2 Bft) W-SW 255 12,9 km/h (3 Bft)
08.01.2012 06:25 4,7 C 79 % 0,0 l/m 8,0 km/h (2 Bft) W 277 16,1 km/h (3 Bft)
08.01.2012 06:26 4,7 C 79 % 0,0 l/m 15,7 km/h (3 Bft) NW 322 25,7 km/h (4 Bft)
08.01.2012 06:27 4,7 C 79 % 0,0 l/m 8,9 km/h (2 Bft) NW 315 12,9 km/h (3 Bft)
08.01.2012 06:28 4,7 C 79 % 0,0 l/m 4,6 km/h (1 Bft) W 267 9,7 km/h (2 Bft)
08.01.2012 06:29 4,6 C 79 % 0,0 l/m 8,0 km/h (2 Bft) W 280 17,7 km/h (3 Bft)
08.01.2012 06:30 4,6 C 79 % 0,0 l/m 8,9 km/h (2 Bft) W-NW 298 14,5 km/h (3 Bft)
08.01.2012 06:31 4,6 C 79 % 0,0 l/m 8,5 km/h (2 Bft) W 278 12,9 km/h (3 Bft)
08.01.2012 06:32 4,6 C 79 % 0,0 l/m 11,1 km/h (2 Bft) SW 232 17,7 km/h (3 Bft)
08.01.2012 06:33 4,6 C 79 % 0,0 l/m 8,8 km/h (2 Bft) W-SW 243 12,9 km/h (3 Bft)
08.01.2012 06:34 4,6 C 79 % 0,0 l/m 6,9 km/h (2 Bft) W-NW 284 12,9 km/h (3 Bft)
08.01.2012 06:35 4,6 C 79 % 0,0 l/m 14,2 km/h (3 Bft) S-SW 200 20,9 km/h (4 Bft)
08.01.2012 06:36 4,6 C 79 % 0,0 l/m 15,0 km/h (3 Bft) W 281 24,1 km/h (4 Bft)
08.01.2012 06:37 4,6 C 79 % 0,0 l/m 20,9 km/h (4 Bft) W-NW 289 37,0 km/h (5 Bft)
08.01.2012 06:38 4,6 C 79 % 0,0 l/m 13,1 km/h (3 Bft) W 276 20,9 km/h (4 Bft)
08.01.2012 06:39 4,6 C 79 % 0,0 l/m 8,9 km/h (2 Bft) NW 316 20,9 km/h (4 Bft)
08.01.2012 06:40 4,6 C 79 % 0,0 l/m 15,5 km/h (3 Bft) W-NW 302 20,9 km/h (4 Bft)
08.01.2012 06:41 4,6 C 79 % 0,0 l/m 16,2 km/h (3 Bft) W 267 30,6 km/h (5 Bft)
08.01.2012 06:42 4,6 C 79 % 0,0 l/m 7,4 km/h (2 Bft) W 267 11,3 km/h (2 Bft)
08.01.2012 06:43 4,6 C 79 % 0,0 l/m 7,3 km/h (2 Bft) W 277 17,7 km/h (3 Bft)
08.01.2012 06:44 4,6 C 79 % 0,0 l/m 13,8 km/h (3 Bft) N-NW 330 27,4 km/h (4 Bft)
08.01.2012 06:45 4,6 C 79 % 0,0 l/m 13,3 km/h (3 Bft) SW 221 24,1 km/h (4 Bft)
08.01.2012 06:46 4,6 C 79 % 0,0 l/m 16,0 km/h (3 Bft) SW 228 29,0 km/h (5 Bft)
08.01.2012 06:47 4,6 C 79 % 0,0 l/m 9,3 km/h (2 Bft) S 181 14,5 km/h (3 Bft)
08.01.2012 06:48 4,6 C 79 % 0,0 l/m 12,4 km/h (3 Bft) SW 228 19,3 km/h (3 Bft)
08.01.2012 06:49 4,6 C 79 % 0,0 l/m 10,4 km/h (2 Bft) S-SW 207 16,1 km/h (3 Bft)
08.01.2012 06:50 4,6 C 79 % 0,0 l/m 6,1 km/h (2 Bft) NW 319 8,0 km/h (2 Bft)
08.01.2012 06:51 4,6 C 79 % 0,0 l/m 7,6 km/h (2 Bft) NW 323 12,9 km/h (3 Bft)
08.01.2012 06:52 4,6 C 79 % 0,0 l/m 11,6 km/h (2 Bft) W-NW 293 17,7 km/h (3 Bft)
08.01.2012 06:53 4,6 C 79 % 0,0 l/m 7,8 km/h (2 Bft) SW 226 11,3 km/h (2 Bft)
08.01.2012 06:54 4,6 C 79 % 0,0 l/m 8,0 km/h (2 Bft) SW 228 14,5 km/h (3 Bft)
08.01.2012 06:55 4,6 C 79 % 0,0 l/m 9,0 km/h (2 Bft) S-SW 210 20,9 km/h (4 Bft)
08.01.2012 06:56 4,6 C 79 % 0,0 l/m 9,3 km/h (2 Bft) O-NO 76 20,9 km/h (4 Bft)
08.01.2012 06:57 4,6 C 79 % 0,0 l/m 8,0 km/h (2 Bft) W 263 16,1 km/h (3 Bft)
08.01.2012 06:58 4,6 C 78 % 0,0 l/m 11,3 km/h (2 Bft) SW 225 22,5 km/h (4 Bft)
08.01.2012 06:59 4,6 C 78 % 0,0 l/m 10,9 km/h (2 Bft) W-SW 242 14,5 km/h (3 Bft)
08.01.2012 07:00 4,6 C 79 % 0,0 l/m 6,7 km/h (2 Bft) NO 49 9,7 km/h (2 Bft)
08.01.2012 07:01 4,6 C 79 % 0,0 l/m 9,8 km/h (2 Bft) W 260 17,7 km/h (3 Bft)
08.01.2012 07:02 4,6 C 79 % 0,0 l/m 9,3 km/h (2 Bft) W-NW 297 14,5 km/h (3 Bft)
08.01.2012 07:03 4,6 C 79 % 0,0 l/m 12,3 km/h (3 Bft) W-NW 297 22,5 km/h (4 Bft)
08.01.2012 07:04 4,5 C 79 % 0,0 l/m 9,8 km/h (2 Bft) W-SW 257 12,9 km/h (3 Bft)
08.01.2012 07:05 4,5 C 79 % 0,0 l/m 8,0 km/h (2 Bft) W-NW 290 17,7 km/h (3 Bft)
08.01.2012 07:06 4,5 C 79 % 0,0 l/m 10,6 km/h (2 Bft) S-SW 213 16,1 km/h (3 Bft)
08.01.2012 07:07 4,5 C 79 % 0,0 l/m 12,9 km/h (3 Bft) SW 232 17,7 km/h (3 Bft)
08.01.2012 07:08 4,6 C 78 % 0,0 l/m 17,7 km/h (3 Bft) N-NO 23 25,7 km/h (4 Bft)
08.01.2012 07:09 4,6 C 78 % 0,0 l/m 6,6 km/h (2 Bft) O-NO 65 11,3 km/h (2 Bft)
08.01.2012 07:10 4,6 C 78 % 0,0 l/m 7,4 km/h (2 Bft) NW 306 16,1 km/h (3 Bft)
08.01.2012 07:11 4,6 C 78 % 0,0 l/m 8,1 km/h (2 Bft) W-SW 250 12,9 km/h (3 Bft)
08.01.2012 07:12 4,6 C 78 % 0,0 l/m 9,3 km/h (2 Bft) SW 225 16,1 km/h (3 Bft)
08.01.2012 07:13 4,5 C 78 % 0,0 l/m 10,0 km/h (2 Bft) N-NO 25 17,7 km/h (3 Bft)
08.01.2012 07:14 4,5 C 78 % 0,0 l/m 9,2 km/h (2 Bft) NW 307 16,1 km/h (3 Bft)
08.01.2012 07:15 4,5 C 78 % 0,0 l/m 13,5 km/h (3 Bft) W-SW 246 19,3 km/h (3 Bft)
08.01.2012 07:16 4,6 C 78 % 0,0 l/m 13,0 km/h (3 Bft) W 262 20,9 km/h (4 Bft)
08.01.2012 07:17 4,6 C 78 % 0,0 l/m 10,9 km/h (2 Bft) W-SW 250 17,7 km/h (3 Bft)
08.01.2012 07:18 4,6 C 78 % 0,0 l/m 10,1 km/h (2 Bft) W-NW 284 14,5 km/h (3 Bft)
08.01.2012 07:19 4,6 C 78 % 0,0 l/m 11,9 km/h (2 Bft) W 276 19,3 km/h (3 Bft)
08.01.2012 07:20 4,5 C 78 % 0,0 l/m 8,9 km/h (2 Bft) W-SW 238 14,5 km/h (3 Bft)
08.01.2012 07:21 4,5 C 78 % 0,0 l/m 11,3 km/h (2 Bft) W 273 17,7 km/h (3 Bft)
08.01.2012 07:22 4,6 C 78 % 0,0 l/m 10,7 km/h (2 Bft) W-SW 239 19,3 km/h (3 Bft)
08.01.2012 07:23 4,6 C 78 % 0,0 l/m 8,1 km/h (2 Bft) W-NW 303 12,9 km/h (3 Bft)
08.01.2012 07:24 4,6 C 78 % 0,0 l/m 10,9 km/h (2 Bft) W-NW 295 17,7 km/h (3 Bft)
08.01.2012 07:25 4,6 C 78 % 0,0 l/m 4,7 km/h (1 Bft) N-NW 337 8,0 km/h (2 Bft)
08.01.2012 07:26 4,6 C 78 % 0,0 l/m 11,9 km/h (2 Bft) NW 311 20,9 km/h (4 Bft)
08.01.2012 07:27 4,6 C 77 % 0,0 l/m 10,5 km/h (2 Bft) S-SW 201 17,7 km/h (3 Bft)
08.01.2012 07:28 4,6 C 77 % 0,0 l/m 9,5 km/h (2 Bft) W-SW 246 16,1 km/h (3 Bft)
08.01.2012 07:29 4,6 C 77 % 0,0 l/m 11,9 km/h (2 Bft) N-NO 22 19,3 km/h (3 Bft)
08.01.2012 07:30 4,6 C 77 % 0,0 l/m 16,0 km/h (3 Bft) W-SW 255 25,7 km/h (4 Bft)
08.01.2012 07:31 4,6 C 77 % 0,0 l/m 12,1 km/h (2 Bft) W 276 16,1 km/h (3 Bft)
08.01.2012 07:32 4,6 C 77 % 0,0 l/m 11,4 km/h (2 Bft) W 274 17,7 km/h (3 Bft)
08.01.2012 07:33 4,6 C 77 % 0,0 l/m 9,2 km/h (2 Bft) W 262 16,1 km/h (3 Bft)
08.01.2012 07:34 4,6 C 77 % 0,0 l/m 8,5 km/h (2 Bft) W-NW 289 12,9 km/h (3 Bft)
08.01.2012 07:35 4,6 C 77 % 0,0 l/m 7,9 km/h (2 Bft) NO 56 11,3 km/h (2 Bft)
08.01.2012 07:36 4,6 C 77 % 0,0 l/m 6,4 km/h (2 Bft) SW 231 14,5 km/h (3 Bft)
08.01.2012 07:37 4,6 C 77 % 0,0 l/m 15,0 km/h (3 Bft) W-SW 253 20,9 km/h (4 Bft)
08.01.2012 07:38 4,6 C 77 % 0,0 l/m 10,3 km/h (2 Bft) W-SW 257 19,3 km/h (3 Bft)
08.01.2012 07:39 4,5 C 78 % 0,0 l/m 10,0 km/h (2 Bft) W-SW 243 12,9 km/h (3 Bft)
08.01.2012 07:40 4,5 C 78 % 0,0 l/m 12,3 km/h (3 Bft) NW 312 19,3 km/h (3 Bft)
08.01.2012 07:41 4,5 C 78 % 0,0 l/m 14,6 km/h (3 Bft) W-SW 243 19,3 km/h (3 Bft)
08.01.2012 07:42 4,4 C 78 % 0,0 l/m 12,0 km/h (2 Bft) W-SW 256 17,7 km/h (3 Bft)
08.01.2012 07:43 4,4 C 78 % 0,0 l/m 14,1 km/h (3 Bft) W 259 22,5 km/h (4 Bft)
08.01.2012 07:44 4,4 C 78 % 0,0 l/m 11,0 km/h (2 Bft) W-SW 256 17,7 km/h (3 Bft)
08.01.2012 07:45 4,4 C 78 % 0,0 l/m 9,3 km/h (2 Bft) S-SW 203 16,1 km/h (3 Bft)
08.01.2012 07:46 4,4 C 78 % 0,0 l/m 15,8 km/h (3 Bft) W 266 30,6 km/h (5 Bft)
08.01.2012 07:47 4,4 C 78 % 0,0 l/m 15,1 km/h (3 Bft) SW 232 20,9 km/h (4 Bft)
08.01.2012 07:48 4,4 C 78 % 0,0 l/m 11,1 km/h (2 Bft) W 270 19,3 km/h (3 Bft)
08.01.2012 07:49 4,4 C 78 % 0,0 l/m 9,0 km/h (2 Bft) N-NW 342 16,1 km/h (3 Bft)
08.01.2012 07:50 4,4 C 78 % 0,0 l/m 7,8 km/h (2 Bft) W-NW 283 12,9 km/h (3 Bft)
08.01.2012 07:51 4,3 C 78 % 0,0 l/m 12,9 km/h (3 Bft) W-NW 290 20,9 km/h (4 Bft)
08.01.2012 07:52 4,4 C 78 % 0,0 l/m 16,4 km/h (3 Bft) W-SW 249 20,9 km/h (4 Bft)
08.01.2012 07:53 4,4 C 78 % 0,0 l/m 9,7 km/h (2 Bft) W-SW 250 17,7 km/h (3 Bft)
08.01.2012 07:54 4,4 C 78 % 0,0 l/m 9,1 km/h (2 Bft) W-NW 283 14,5 km/h (3 Bft)
08.01.2012 07:55 4,4 C 78 % 0,0 l/m 7,8 km/h (2 Bft) W-SW 248 17,7 km/h (3 Bft)
08.01.2012 07:56 4,4 C 77 % 0,0 l/m 10,9 km/h (2 Bft) W-SW 248 20,9 km/h (4 Bft)
08.01.2012 07:57 4,4 C 77 % 0,0 l/m 12,1 km/h (2 Bft) W-SW 250 19,3 km/h (3 Bft)
08.01.2012 07:58 4,4 C 77 % 0,0 l/m 9,5 km/h (2 Bft) W 269 22,5 km/h (4 Bft)
08.01.2012 07:59 4,5 C 77 % 0,0 l/m 9,4 km/h (2 Bft) N-NW 347 17,7 km/h (3 Bft)
08.01.2012 08:00 4,5 C 77 % 0,0 l/m 7,5 km/h (2 Bft) W-SW 256 12,9 km/h (3 Bft)
08.01.2012 08:01 4,5 C 77 % 0,0 l/m 9,6 km/h (2 Bft) W-NW 290 17,7 km/h (3 Bft)
08.01.2012 08:02 4,5 C 77 % 0,0 l/m 10,7 km/h (2 Bft) SW 215 16,1 km/h (3 Bft)
08.01.2012 08:03 4,5 C 77 % 0,0 l/m 3,6 km/h (1 Bft) W-NW 302 8,0 km/h (2 Bft)
08.01.2012 08:04 4,4 C 77 % 0,0 l/m 6,6 km/h (2 Bft) W-NW 284 16,1 km/h (3 Bft)
08.01.2012 08:05 4,4 C 77 % 0,0 l/m 8,3 km/h (2 Bft) W 263 17,7 km/h (3 Bft)
08.01.2012 08:06 4,5 C 77 % 0,0 l/m 7,7 km/h (2 Bft) W 261 14,5 km/h (3 Bft)
08.01.2012 08:07 4,6 C 76 % 0,0 l/m 15,4 km/h (3 Bft) NW 308 25,7 km/h (4 Bft)
08.01.2012 08:08 4,6 C 76 % 0,0 l/m 11,6 km/h (2 Bft) W-NW 295 22,5 km/h (4 Bft)
08.01.2012 08:09 4,6 C 76 % 0,0 l/m 10,6 km/h (2 Bft) W-NW 290 19,3 km/h (3 Bft)
08.01.2012 08:10 4,7 C 76 % 0,0 l/m 15,0 km/h (3 Bft) N-NW 342 22,5 km/h (4 Bft)
08.01.2012 08:11 4,7 C 76 % 0,0 l/m 13,5 km/h (3 Bft) NW 306 27,4 km/h (4 Bft)
08.01.2012 08:12 4,7 C 76 % 0,0 l/m 13,0 km/h (3 Bft) NW 305 22,5 km/h (4 Bft)
08.01.2012 08:13 4,8 C 76 % 0,0 l/m 13,6 km/h (3 Bft) NW 326 22,5 km/h (4 Bft)
08.01.2012 08:15 4,8 C 75 % 0,0 l/m 16,5 km/h (3 Bft) W 281 25,7 km/h (4 Bft)
08.01.2012 08:16 4,9 C 75 % 0,0 l/m 13,8 km/h (3 Bft) W-NW 289 24,1 km/h (4 Bft)
08.01.2012 08:17 4,9 C 75 % 0,0 l/m 10,1 km/h (2 Bft) W 274 16,1 km/h (3 Bft)
08.01.2012 08:18 4,9 C 75 % 0,0 l/m 9,7 km/h (2 Bft) W 273 19,3 km/h (3 Bft)
08.01.2012 08:19 4,9 C 76 % 0,0 l/m 7,4 km/h (2 Bft) NO 47 12,9 km/h (3 Bft)
08.01.2012 08:20 4,9 C 76 % 0,0 l/m 12,4 km/h (3 Bft) W 269 19,3 km/h (3 Bft)
08.01.2012 08:21 4,9 C 76 % 0,0 l/m 15,7 km/h (3 Bft) W-NW 300 22,5 km/h (4 Bft)
08.01.2012 08:22 4,9 C 75 % 0,0 l/m 12,7 km/h (3 Bft) W 281 20,9 km/h (4 Bft)
08.01.2012 08:23 4,9 C 76 % 0,0 l/m 10,9 km/h (2 Bft) N-NW 328 20,9 km/h (4 Bft)
08.01.2012 08:24 5,0 C 76 % 0,0 l/m 11,7 km/h (2 Bft) NW 326 19,3 km/h (3 Bft)
08.01.2012 08:25 5,0 C 76 % 0,0 l/m 12,0 km/h (2 Bft) W-NW 298 22,5 km/h (4 Bft)
08.01.2012 08:26 5,0 C 76 % 0,0 l/m 9,3 km/h (2 Bft) W-NW 297 17,7 km/h (3 Bft)
08.01.2012 08:27 5,0 C 75 % 0,0 l/m 17,1 km/h (3 Bft) N-NW 330 22,5 km/h (4 Bft)
08.01.2012 08:28 5,0 C 75 % 0,0 l/m 14,6 km/h (3 Bft) NW 313 20,9 km/h (4 Bft)
08.01.2012 08:29 5,0 C 75 % 0,0 l/m 21,4 km/h (4 Bft) W-SW 246 29,0 km/h (5 Bft)
08.01.2012 08:30 5,0 C 75 % 0,0 l/m 17,2 km/h (3 Bft) W-NW 290 24,1 km/h (4 Bft)
08.01.2012 08:31 5,0 C 75 % 0,0 l/m 14,8 km/h (3 Bft) W-NW 284 20,9 km/h (4 Bft)
08.01.2012 08:32 5,0 C 76 % 0,0 l/m 11,4 km/h (2 Bft) W 264 17,7 km/h (3 Bft)
08.01.2012 08:33 4,9 C 76 % 0,0 l/m 13,8 km/h (3 Bft) W 278 22,5 km/h (4 Bft)
08.01.2012 08:34 4,9 C 76 % 0,0 l/m 15,3 km/h (3 Bft) W-SW 255 22,5 km/h (4 Bft)
08.01.2012 08:35 4,9 C 76 % 0,0 l/m 12,5 km/h (3 Bft) W-SW 239 22,5 km/h (4 Bft)
08.01.2012 08:36 4,9 C 76 % 0,0 l/m 15,4 km/h (3 Bft) W-NW 287 25,7 km/h (4 Bft)
08.01.2012 08:37 4,9 C 76 % 0,0 l/m 14,4 km/h (3 Bft) W-NW 299 24,1 km/h (4 Bft)
08.01.2012 08:38 4,9 C 76 % 0,0 l/m 20,2 km/h (4 Bft) W-NW 302 27,4 km/h (4 Bft)
08.01.2012 08:39 4,9 C 76 % 0,0 l/m 17,7 km/h (3 Bft) W-NW 293 27,4 km/h (4 Bft)
08.01.2012 08:40 4,9 C 76 % 0,0 l/m 13,9 km/h (3 Bft) W 280 22,5 km/h (4 Bft)
08.01.2012 08:41 4,9 C 76 % 0,0 l/m 10,2 km/h (2 Bft) O-NO 58 14,5 km/h (3 Bft)
08.01.2012 08:42 4,9 C 76 % 0,0 l/m 17,9 km/h (3 Bft) W-NW 301 33,8 km/h (5 Bft)
08.01.2012 08:43 4,9 C 76 % 0,0 l/m 13,9 km/h (3 Bft) W 274 22,5 km/h (4 Bft)
08.01.2012 08:44 4,9 C 76 % 0,0 l/m 27,7 km/h (4 Bft) NW 308 43,5 km/h (6 Bft)
08.01.2012 08:45 4,9 C 76 % 0,0 l/m 16,2 km/h (3 Bft) N 8 29,0 km/h (5 Bft)
08.01.2012 08:46 4,9 C 76 % 0,0 l/m 15,3 km/h (3 Bft) NW 319 32,2 km/h (5 Bft)
08.01.2012 08:47 4,9 C 76 % 0,0 l/m 25,2 km/h (4 Bft) W 276 45,1 km/h (6 Bft)
08.01.2012 08:48 4,9 C 76 % 0,0 l/m 10,3 km/h (2 Bft) NW 305 22,5 km/h (4 Bft)
08.01.2012 08:49 4,9 C 76 % 0,0 l/m 19,8 km/h (3 Bft) W-NW 297 35,4 km/h (5 Bft)
08.01.2012 08:50 4,9 C 76 % 0,0 l/m 15,8 km/h (3 Bft) W-NW 295 24,1 km/h (4 Bft)
08.01.2012 08:51 4,9 C 77 % 0,0 l/m 15,0 km/h (3 Bft) W-NW 284 27,4 km/h (4 Bft)
08.01.2012 08:52 4,9 C 76 % 0,0 l/m 24,5 km/h (4 Bft) W-NW 291 37,0 km/h (5 Bft)
08.01.2012 08:53 4,9 C 76 % 0,0 l/m 25,1 km/h (4 Bft) W 263 35,4 km/h (5 Bft)
08.01.2012 08:54 4,9 C 76 % 0,0 l/m 26,9 km/h (4 Bft) W-SW 256 45,1 km/h (6 Bft)
08.01.2012 08:55 4,9 C 76 % 0,0 l/m 23,4 km/h (4 Bft) SW 224 37,0 km/h (5 Bft)
08.01.2012 08:56 4,9 C 77 % 0,0 l/m 20,4 km/h (4 Bft) O 93 38,6 km/h (5 Bft)
08.01.2012 08:57 4,9 C 77 % 0,0 l/m 17,7 km/h (3 Bft) W-NW 288 29,0 km/h (5 Bft)
08.01.2012 08:58 4,9 C 77 % 0,0 l/m 14,8 km/h (3 Bft) N-NW 335 22,5 km/h (4 Bft)
08.01.2012 08:59 4,9 C 77 % 0,0 l/m 22,8 km/h (4 Bft) W-NW 293 38,6 km/h (5 Bft)
08.01.2012 09:00 4,9 C 77 % 0,0 l/m 25,3 km/h (4 Bft) NW 308 37,0 km/h (5 Bft)
08.01.2012 09:01 4,9 C 77 % 0,0 l/m 20,3 km/h (4 Bft) W-NW 289 35,4 km/h (5 Bft)
08.01.2012 09:02 4,9 C 77 % 0,0 l/m 11,6 km/h (2 Bft) W-NW 295 24,1 km/h (4 Bft)
08.01.2012 09:03 4,8 C 77 % 0,0 l/m 17,0 km/h (3 Bft) W 265 25,7 km/h (4 Bft)
08.01.2012 09:04 4,8 C 77 % 0,0 l/m 22,5 km/h (4 Bft) S-SW 197 38,6 km/h (5 Bft)
08.01.2012 09:05 4,8 C 77 % 0,0 l/m 18,9 km/h (3 Bft) W-NW 298 33,8 km/h (5 Bft)
08.01.2012 09:06 4,8 C 77 % 0,0 l/m 20,8 km/h (4 Bft) W-NW 297 30,6 km/h (5 Bft)
08.01.2012 09:07 4,8 C 77 % 0,0 l/m 11,7 km/h (2 Bft) W-NW 291 25,7 km/h (4 Bft)
08.01.2012 09:08 4,8 C 77 % 0,0 l/m 13,5 km/h (3 Bft) W 276 25,7 km/h (4 Bft)
08.01.2012 09:09 4,8 C 77 % 0,0 l/m 23,3 km/h (4 Bft) W 274 40,2 km/h (6 Bft)
08.01.2012 09:10 4,8 C 78 % 0,0 l/m 16,8 km/h (3 Bft) W-NW 282 35,4 km/h (5 Bft)
08.01.2012 09:11 4,8 C 77 % 0,0 l/m 26,9 km/h (4 Bft) N 8 38,6 km/h (5 Bft)
08.01.2012 09:12 4,8 C 77 % 0,0 l/m 15,0 km/h (3 Bft) W-NW 287 22,5 km/h (4 Bft)
08.01.2012 09:13 4,8 C 78 % 0,0 l/m 18,2 km/h (3 Bft) W-NW 293 37,0 km/h (5 Bft)
08.01.2012 09:14 4,8 C 78 % 0,0 l/m 17,9 km/h (3 Bft) W-NW 301 30,6 km/h (5 Bft)
08.01.2012 09:15 4,8 C 78 % 0,0 l/m 15,4 km/h (3 Bft) W 276 20,9 km/h (4 Bft)
08.01.2012 09:16 4,8 C 78 % 0,0 l/m 17,3 km/h (3 Bft) N-NW 335 27,4 km/h (4 Bft)
08.01.2012 09:17 4,8 C 78 % 0,0 l/m 18,0 km/h (3 Bft) N-NW 328 35,4 km/h (5 Bft)
08.01.2012 09:18 4,8 C 78 % 0,0 l/m 17,7 km/h (3 Bft) W 280 30,6 km/h (5 Bft)
08.01.2012 09:19 4,8 C 78 % 0,0 l/m 18,3 km/h (3 Bft) W-NW 290 27,4 km/h (4 Bft)
08.01.2012 09:20 4,8 C 78 % 0,0 l/m 14,7 km/h (3 Bft) N 351 24,1 km/h (4 Bft)
08.01.2012 09:21 4,8 C 78 % 0,0 l/m 14,1 km/h (3 Bft) W-SW 252 20,9 km/h (4 Bft)
08.01.2012 09:22 4,8 C 78 % 0,0 l/m 12,0 km/h (2 Bft) W-NW 298 19,3 km/h (3 Bft)
08.01.2012 09:23 4,8 C 78 % 0,0 l/m 16,0 km/h (3 Bft) W 281 24,1 km/h (4 Bft)
08.01.2012 09:24 4,8 C 79 % 0,0 l/m 15,9 km/h (3 Bft) SW 231 22,5 km/h (4 Bft)
08.01.2012 09:25 4,7 C 79 % 0,0 l/m 19,1 km/h (3 Bft) NW 314 30,6 km/h (5 Bft)
08.01.2012 09:26 4,7 C 79 % 0,0 l/m 18,0 km/h (3 Bft) NW 318 29,0 km/h (5 Bft)
08.01.2012 09:27 4,7 C 79 % 0,0 l/m 18,1 km/h (3 Bft) W-NW 300 29,0 km/h (5 Bft)
08.01.2012 09:28 4,7 C 79 % 0,0 l/m 19,7 km/h (3 Bft) NW 306 37,0 km/h (5 Bft)
08.01.2012 09:29 4,7 C 79 % 0,0 l/m 19,8 km/h (3 Bft) NW 309 32,2 km/h (5 Bft)
08.01.2012 09:30 4,7 C 79 % 0,0 l/m 16,6 km/h (3 Bft) W-NW 300 25,7 km/h (4 Bft)
08.01.2012 09:31 4,7 C 79 % 0,0 l/m 17,9 km/h (3 Bft) W-NW 297 25,7 km/h (4 Bft)
08.01.2012 09:32 4,7 C 79 % 0,0 l/m 19,6 km/h (3 Bft) W 281 33,8 km/h (5 Bft)
08.01.2012 09:33 4,7 C 80 % 0,0 l/m 16,4 km/h (3 Bft) NW 315 25,7 km/h (4 Bft)
08.01.2012 09:34 4,8 C 80 % 0,0 l/m 19,6 km/h (3 Bft) W-SW 257 32,2 km/h (5 Bft)
08.01.2012 09:35 4,8 C 80 % 0,0 l/m 18,7 km/h (3 Bft) N 9 32,2 km/h (5 Bft)
08.01.2012 09:36 4,8 C 80 % 0,0 l/m 23,3 km/h (4 Bft) W 271 30,6 km/h (5 Bft)
08.01.2012 09:37 4,8 C 79 % 0,0 l/m 21,0 km/h (4 Bft) W-NW 285 29,0 km/h (5 Bft)
08.01.2012 09:38 4,8 C 79 % 0,0 l/m 13,5 km/h (3 Bft) S 169 29,0 km/h (5 Bft)
08.01.2012 09:39 4,8 C 79 % 0,0 l/m 21,1 km/h (4 Bft) W 279 32,2 km/h (5 Bft)
08.01.2012 09:40 4,9 C 78 % 0,0 l/m 23,9 km/h (4 Bft) W-NW 297 38,6 km/h (5 Bft)
08.01.2012 09:41 4,9 C 78 % 0,0 l/m 17,6 km/h (3 Bft) W-SW 245 32,2 km/h (5 Bft)
08.01.2012 09:42 4,9 C 78 % 0,0 l/m 17,3 km/h (3 Bft) W-NW 295 37,0 km/h (5 Bft)
08.01.2012 09:43 4,9 C 78 % 0,0 l/m 10,8 km/h (2 Bft) W-SW 253 19,3 km/h (3 Bft)
08.01.2012 09:44 4,9 C 78 % 0,0 l/m 13,8 km/h (3 Bft) W 278 29,0 km/h (5 Bft)
08.01.2012 09:45 4,9 C 78 % 0,0 l/m 12,4 km/h (3 Bft) W 274 22,5 km/h (4 Bft)
08.01.2012 09:46 4,8 C 78 % 0,0 l/m 14,2 km/h (3 Bft) NW 323 32,2 km/h (5 Bft)
08.01.2012 09:47 4,8 C 78 % 0,0 l/m 6,6 km/h (2 Bft) W-SW 239 12,9 km/h (3 Bft)
08.01.2012 09:48 4,8 C 77 % 0,0 l/m 18,0 km/h (3 Bft) N-NW 337 32,2 km/h (5 Bft)
08.01.2012 09:49 4,8 C 77 % 0,0 l/m 23,2 km/h (4 Bft) W 259 43,5 km/h (6 Bft)
08.01.2012 09:50 4,8 C 77 % 0,0 l/m 21,5 km/h (4 Bft) S 186 37,0 km/h (5 Bft)
08.01.2012 09:51 4,8 C 77 % 0,0 l/m 14,0 km/h (3 Bft) O-NO 57 22,5 km/h (4 Bft)
08.01.2012 09:52 4,9 C 77 % 0,0 l/m 14,8 km/h (3 Bft) W-NW 288 29,0 km/h (5 Bft)
08.01.2012 09:53 4,9 C 77 % 0,0 l/m 12,7 km/h (3 Bft) SW 229 24,1 km/h (4 Bft)
08.01.2012 09:54 4,9 C 77 % 0,0 l/m 20,3 km/h (4 Bft) W-NW 297 29,0 km/h (5 Bft)
08.01.2012 09:55 4,9 C 77 % 0,0 l/m 16,2 km/h (3 Bft) NW 315 25,7 km/h (4 Bft)
08.01.2012 09:56 4,9 C 77 % 0,0 l/m 17,0 km/h (3 Bft) W 265 27,4 km/h (4 Bft)
08.01.2012 09:57 4,9 C 77 % 0,0 l/m 20,4 km/h (4 Bft) W 269 27,4 km/h (4 Bft)
08.01.2012 09:58 4,9 C 77 % 0,0 l/m 17,0 km/h (3 Bft) W 265 37,0 km/h (5 Bft)
08.01.2012 09:59 4,9 C 76 % 0,0 l/m 17,4 km/h (3 Bft) W-NW 297 29,0 km/h (5 Bft)
08.01.2012 10:00 4,9 C 76 % 0,0 l/m 20,0 km/h (4 Bft) W 277 32,2 km/h (5 Bft)
08.01.2012 10:01 4,9 C 76 % 0,0 l/m 14,7 km/h (3 Bft) SW 224 22,5 km/h (4 Bft)
08.01.2012 10:02 4,9 C 76 % 0,0 l/m 11,9 km/h (2 Bft) NW 309 22,5 km/h (4 Bft)
08.01.2012 10:03 4,9 C 76 % 0,0 l/m 17,8 km/h (3 Bft) NW 305 30,6 km/h (5 Bft)
08.01.2012 10:04 4,9 C 76 % 0,0 l/m 18,0 km/h (3 Bft) NW 308 35,4 km/h (5 Bft)
08.01.2012 10:05 4,9 C 76 % 0,0 l/m 13,9 km/h (3 Bft) W-NW 287 32,2 km/h (5 Bft)
08.01.2012 10:06 4,9 C 76 % 0,0 l/m 23,9 km/h (4 Bft) W 269 35,4 km/h (5 Bft)
08.01.2012 10:07 5,0 C 76 % 0,0 l/m 13,0 km/h (3 Bft) NW 307 19,3 km/h (3 Bft)
08.01.2012 10:08 5,0 C 76 % 0,0 l/m 10,7 km/h (2 Bft) NW 309 20,9 km/h (4 Bft)
08.01.2012 10:09 5,0 C 76 % 0,0 l/m 12,7 km/h (3 Bft) W-SW 240 25,7 km/h (4 Bft)
08.01.2012 10:10 5,0 C 76 % 0,0 l/m 15,3 km/h (3 Bft) W-SW 249 22,5 km/h (4 Bft)
08.01.2012 10:11 5,0 C 76 % 0,0 l/m 11,4 km/h (2 Bft) O-NO 68 24,1 km/h (4 Bft)
08.01.2012 10:12 5,0 C 76 % 0,0 l/m 15,1 km/h (3 Bft) W-SW 246 29,0 km/h (5 Bft)
08.01.2012 10:13 5,0 C 76 % 0,0 l/m 12,5 km/h (3 Bft) O 79 33,8 km/h (5 Bft)
08.01.2012 10:14 5,1 C 75 % 0,0 l/m 17,4 km/h (3 Bft) W-NW 285 27,4 km/h (4 Bft)
08.01.2012 10:15 5,1 C 75 % 0,0 l/m 13,3 km/h (3 Bft) W-SW 238 29,0 km/h (5 Bft)
08.01.2012 10:16 5,1 C 75 % 0,0 l/m 17,8 km/h (3 Bft) SW 224 30,6 km/h (5 Bft)
08.01.2012 10:17 5,1 C 75 % 0,0 l/m 16,7 km/h (3 Bft) W-SW 253 27,4 km/h (4 Bft)
08.01.2012 10:18 5,1 C 75 % 0,0 l/m 15,8 km/h (3 Bft) W 278 24,1 km/h (4 Bft)
08.01.2012 10:19 5,1 C 75 % 0,0 l/m 10,4 km/h (2 Bft) W-SW 248 27,4 km/h (4 Bft)
08.01.2012 10:20 5,1 C 75 % 0,0 l/m 10,4 km/h (2 Bft) W-NW 285 17,7 km/h (3 Bft)
08.01.2012 10:21 5,2 C 75 % 0,0 l/m 19,2 km/h (3 Bft) W 281 40,2 km/h (6 Bft)
08.01.2012 10:22 5,2 C 75 % 0,0 l/m 24,2 km/h (4 Bft) W-NW 283 43,5 km/h (6 Bft)
08.01.2012 10:23 5,2 C 74 % 0,0 l/m 20,0 km/h (4 Bft) W-NW 285 27,4 km/h (4 Bft)
08.01.2012 10:24 5,3 C 74 % 0,0 l/m 20,6 km/h (4 Bft) W-NW 286 41,8 km/h (6 Bft)
08.01.2012 10:25 5,3 C 74 % 0,0 l/m 23,0 km/h (4 Bft) W-NW 285 29,0 km/h (5 Bft)
08.01.2012 10:26 5,3 C 74 % 0,0 l/m 19,0 km/h (3 Bft) W 271 30,6 km/h (5 Bft)
08.01.2012 10:27 5,3 C 74 % 0,0 l/m 19,1 km/h (3 Bft) W-NW 284 32,2 km/h (5 Bft)
08.01.2012 10:28 5,3 C 74 % 0,0 l/m 8,6 km/h (2 Bft) NW 312 14,5 km/h (3 Bft)
08.01.2012 10:29 5,3 C 75 % 0,0 l/m 19,6 km/h (3 Bft) W-NW 285 41,8 km/h (6 Bft)
08.01.2012 10:30 5,3 C 75 % 0,0 l/m 22,4 km/h (4 Bft) W-NW 295 33,8 km/h (5 Bft)
08.01.2012 10:31 5,3 C 75 % 0,0 l/m 16,3 km/h (3 Bft) W-NW 297 33,8 km/h (5 Bft)
08.01.2012 10:32 5,3 C 74 % 0,0 l/m 18,4 km/h (3 Bft) W-NW 301 37,0 km/h (5 Bft)
08.01.2012 10:33 5,4 C 74 % 0,0 l/m 17,0 km/h (3 Bft) W 278 25,7 km/h (4 Bft)
08.01.2012 10:34 5,4 C 74 % 0,0 l/m 19,2 km/h (3 Bft) N-NW 334 38,6 km/h (5 Bft)
08.01.2012 10:35 5,5 C 74 % 0,0 l/m 25,5 km/h (4 Bft) W-NW 294 40,2 km/h (6 Bft)
08.01.2012 10:36 5,6 C 73 % 0,0 l/m 29,3 km/h (5 Bft) W 261 43,5 km/h (6 Bft)
08.01.2012 10:37 5,6 C 74 % 0,0 l/m 28,4 km/h (4 Bft) W 265 43,5 km/h (6 Bft)
08.01.2012 10:38 5,6 C 74 % 0,0 l/m 16,7 km/h (3 Bft) W 271 29,0 km/h (5 Bft)
08.01.2012 10:39 5,6 C 74 % 0,0 l/m 22,5 km/h (4 Bft) N-NW 337 38,6 km/h (5 Bft)
08.01.2012 10:40 5,7 C 74 % 0,0 l/m 12,5 km/h (3 Bft) W-SW 241 22,5 km/h (4 Bft)
08.01.2012 10:41 5,7 C 74 % 0,0 l/m 25,0 km/h (4 Bft) W-NW 298 40,2 km/h (6 Bft)
08.01.2012 10:42 5,7 C 74 % 0,0 l/m 20,5 km/h (4 Bft) O-SO 103 29,0 km/h (5 Bft)
08.01.2012 10:43 5,8 C 74 % 0,0 l/m 18,2 km/h (3 Bft) W-NW 302 27,4 km/h (4 Bft)
08.01.2012 10:44 5,8 C 73 % 0,0 l/m 20,7 km/h (4 Bft) W-NW 286 46,7 km/h (6 Bft)
08.01.2012 10:45 5,8 C 73 % 0,0 l/m 18,0 km/h (3 Bft) W-NW 283 29,0 km/h (5 Bft)
08.01.2012 10:46 5,8 C 72 % 0,0 l/m 27,3 km/h (4 Bft) W 259 37,0 km/h (5 Bft)
08.01.2012 10:47 5,8 C 73 % 0,0 l/m 29,4 km/h (5 Bft) W-SW 255 53,1 km/h (7 Bft)
08.01.2012 10:48 5,8 C 72 % 0,0 l/m 19,7 km/h (3 Bft) W-NW 286 49,9 km/h (6 Bft)
08.01.2012 10:49 5,8 C 73 % 0,0 l/m 21,4 km/h (4 Bft) N-NW 329 37,0 km/h (5 Bft)
08.01.2012 10:50 5,8 C 72 % 0,0 l/m 24,9 km/h (4 Bft) SO 144 37,0 km/h (5 Bft)
08.01.2012 10:51 5,8 C 72 % 0,0 l/m 18,8 km/h (3 Bft) SW 218 33,8 km/h (5 Bft)
08.01.2012 10:52 5,8 C 72 % 0,0 l/m 24,5 km/h (4 Bft) O 85 38,6 km/h (5 Bft)
08.01.2012 10:53 5,8 C 72 % 0,0 l/m 19,9 km/h (4 Bft) NW 305 30,6 km/h (5 Bft)
08.01.2012 10:54 5,8 C 73 % 0,0 l/m 23,5 km/h (4 Bft) S-SW 200 33,8 km/h (5 Bft)
08.01.2012 10:55 5,8 C 72 % 0,0 l/m 32,7 km/h (5 Bft) W-NW 285 48,3 km/h (6 Bft)
08.01.2012 10:56 5,8 C 71 % 0,0 l/m 23,4 km/h (4 Bft) NW 312 41,8 km/h (6 Bft)
08.01.2012 10:57 5,8 C 72 % 0,0 l/m 24,8 km/h (4 Bft) W-NW 295 33,8 km/h (5 Bft)
08.01.2012 10:58 5,9 C 72 % 0,0 l/m 21,9 km/h (4 Bft) NW 326 38,6 km/h (5 Bft)
08.01.2012 10:59 5,9 C 72 % 0,0 l/m 17,0 km/h (3 Bft) W 281 40,2 km/h (6 Bft)
08.01.2012 11:00 5,9 C 72 % 0,0 l/m 21,9 km/h (4 Bft) W-SW 253 32,2 km/h (5 Bft)
08.01.2012 11:01 5,9 C 71 % 0,0 l/m 24,9 km/h (4 Bft) NW 308 43,5 km/h (6 Bft)
08.01.2012 11:02 5,9 C 72 % 0,0 l/m 16,8 km/h (3 Bft) NW 313 38,6 km/h (5 Bft)
08.01.2012 11:03 5,9 C 72 % 0,0 l/m 29,3 km/h (5 Bft) W-NW 290 51,5 km/h (7 Bft)
08.01.2012 11:04 5,9 C 72 % 0,0 l/m 25,1 km/h (4 Bft) W-NW 302 38,6 km/h (5 Bft)
08.01.2012 11:05 5,9 C 71 % 0,0 l/m 20,7 km/h (4 Bft) W 266 32,2 km/h (5 Bft)
08.01.2012 11:06 5,9 C 72 % 0,0 l/m 23,4 km/h (4 Bft) W-SW 253 37,0 km/h (5 Bft)
08.01.2012 11:07 6,0 C 71 % 0,0 l/m 24,6 km/h (4 Bft) W-NW 293 49,9 km/h (6 Bft)
08.01.2012 11:08 6,0 C 71 % 0,0 l/m 26,1 km/h (4 Bft) W-SW 257 37,0 km/h (5 Bft)
08.01.2012 11:09 6,0 C 72 % 0,0 l/m 21,2 km/h (4 Bft) W-NW 297 43,5 km/h (6 Bft)
08.01.2012 11:10 6,1 C 71 % 0,0 l/m 21,6 km/h (4 Bft) W-NW 288 38,6 km/h (5 Bft)
08.01.2012 11:11 6,1 C 72 % 0,0 l/m 14,2 km/h (3 Bft) NO 37 19,3 km/h (3 Bft)
08.01.2012 11:12 6,2 C 72 % 0,0 l/m 20,6 km/h (4 Bft) W-NW 297 38,6 km/h (5 Bft)
08.01.2012 11:13 6,2 C 72 % 0,0 l/m 23,0 km/h (4 Bft) NW 322 32,2 km/h (5 Bft)
08.01.2012 11:14 6,2 C 71 % 0,0 l/m 16,0 km/h (3 Bft) W 266 27,4 km/h (4 Bft)
08.01.2012 11:15 6,2 C 73 % 0,0 l/m 13,9 km/h (3 Bft) W-NW 287 29,0 km/h (5 Bft)
08.01.2012 11:16 6,2 C 72 % 0,0 l/m 19,9 km/h (4 Bft) W 278 30,6 km/h (5 Bft)
08.01.2012 11:17 6,2 C 72 % 0,0 l/m 25,1 km/h (4 Bft) W 263 41,8 km/h (6 Bft)
08.01.2012 11:18 6,2 C 71 % 0,0 l/m 18,9 km/h (3 Bft) NW 319 35,4 km/h (5 Bft)
08.01.2012 11:19 6,2 C 71 % 0,0 l/m 21,6 km/h (4 Bft) W-NW 282 32,2 km/h (5 Bft)
08.01.2012 11:20 6,2 C 71 % 0,0 l/m 25,4 km/h (4 Bft) W-SW 248 49,9 km/h (6 Bft)
08.01.2012 11:21 6,2 C 71 % 0,0 l/m 25,5 km/h (4 Bft) W 276 45,1 km/h (6 Bft)
08.01.2012 11:22 6,2 C 71 % 0,0 l/m 15,0 km/h (3 Bft) W-NW 283 30,6 km/h (5 Bft)
08.01.2012 11:23 6,2 C 71 % 0,0 l/m 21,1 km/h (4 Bft) W-SW 243 30,6 km/h (5 Bft)
08.01.2012 11:24 6,2 C 72 % 0,0 l/m 12,4 km/h (3 Bft) W 262 25,7 km/h (4 Bft)
08.01.2012 11:25 6,2 C 72 % 0,0 l/m 13,3 km/h (3 Bft) W-NW 290 25,7 km/h (4 Bft)
08.01.2012 11:26 6,2 C 72 % 0,0 l/m 18,0 km/h (3 Bft) W-NW 294 33,8 km/h (5 Bft)
08.01.2012 11:27 6,2 C 71 % 0,0 l/m 15,3 km/h (3 Bft) NW 306 20,9 km/h (4 Bft)
08.01.2012 11:28 6,2 C 71 % 0,0 l/m 14,9 km/h (3 Bft) W-SW 257 22,5 km/h (4 Bft)
08.01.2012 11:29 6,2 C 72 % 0,0 l/m 13,2 km/h (3 Bft) W 281 24,1 km/h (4 Bft)
08.01.2012 11:30 6,2 C 72 % 0,0 l/m 18,6 km/h (3 Bft) W-NW 293 33,8 km/h (5 Bft)
08.01.2012 11:31 6,1 C 71 % 0,0 l/m 22,1 km/h (4 Bft) W 266 45,1 km/h (6 Bft)
08.01.2012 11:32 6,1 C 70 % 0,0 l/m 19,4 km/h (3 Bft) W-NW 295 35,4 km/h (5 Bft)
08.01.2012 11:33 6,1 C 70 % 0,0 l/m 26,3 km/h (4 Bft) W-NW 283 40,2 km/h (6 Bft)
08.01.2012 11:34 6,0 C 70 % 0,0 l/m 22,8 km/h (4 Bft) W-NW 298 32,2 km/h (5 Bft)
08.01.2012 11:35 6,0 C 71 % 0,0 l/m 19,2 km/h (3 Bft) NW 312 30,6 km/h (5 Bft)
08.01.2012 11:36 6,0 C 71 % 0,0 l/m 20,1 km/h (4 Bft) NW 312 33,8 km/h (5 Bft)
08.01.2012 11:37 6,0 C 71 % 0,0 l/m 12,5 km/h (3 Bft) NW 326 27,4 km/h (4 Bft)
08.01.2012 11:38 6,0 C 71 % 0,0 l/m 8,1 km/h (2 Bft) W 271 14,5 km/h (3 Bft)
08.01.2012 11:39 6,1 C 72 % 0,0 l/m 11,8 km/h (2 Bft) NW 311 19,3 km/h (3 Bft)
08.01.2012 11:40 6,1 C 71 % 0,0 l/m 14,8 km/h (3 Bft) W-SW 243 22,5 km/h (4 Bft)
08.01.2012 11:41 6,1 C 70 % 0,0 l/m 22,8 km/h (4 Bft) NW 315 35,4 km/h (5 Bft)
08.01.2012 11:42 6,1 C 71 % 0,0 l/m 15,6 km/h (3 Bft) N 349 32,2 km/h (5 Bft)
08.01.2012 11:43 6,2 C 71 % 0,0 l/m 12,6 km/h (3 Bft) NW 306 22,5 km/h (4 Bft)
08.01.2012 11:44 6,2 C 71 % 0,0 l/m 20,1 km/h (4 Bft) W-NW 298 29,0 km/h (5 Bft)
08.01.2012 11:45 6,2 C 71 % 0,0 l/m 15,6 km/h (3 Bft) NW 312 24,1 km/h (4 Bft)
08.01.2012 11:46 6,2 C 70 % 0,0 l/m 21,6 km/h (4 Bft) NW 316 33,8 km/h (5 Bft)
08.01.2012 11:47 6,3 C 70 % 0,0 l/m 23,5 km/h (4 Bft) W-NW 302 48,3 km/h (6 Bft)
08.01.2012 11:48 6,3 C 70 % 0,0 l/m 25,7 km/h (4 Bft) W 262 41,8 km/h (6 Bft)
08.01.2012 11:49 6,3 C 69 % 0,0 l/m 20,5 km/h (4 Bft) W 278 27,4 km/h (4 Bft)
08.01.2012 11:50 6,3 C 70 % 0,0 l/m 16,9 km/h (3 Bft) W-NW 285 35,4 km/h (5 Bft)
08.01.2012 11:51 6,3 C 69 % 0,0 l/m 18,3 km/h (3 Bft) W-NW 284 32,2 km/h (5 Bft)
08.01.2012 11:52 6,3 C 69 % 0,0 l/m 18,7 km/h (3 Bft) W 262 32,2 km/h (5 Bft)
08.01.2012 11:53 6,3 C 70 % 0,0 l/m 13,4 km/h (3 Bft) N-NW 327 24,1 km/h (4 Bft)
08.01.2012 11:54 6,4 C 70 % 0,0 l/m 10,3 km/h (2 Bft) W 276 14,5 km/h (3 Bft)
08.01.2012 11:55 6,4 C 70 % 0,0 l/m 20,4 km/h (4 Bft) NW 314 29,0 km/h (5 Bft)
08.01.2012 11:56 6,4 C 70 % 0,0 l/m 15,1 km/h (3 Bft) N-NW 338 27,4 km/h (4 Bft)
08.01.2012 11:57 6,5 C 70 % 0,0 l/m 16,5 km/h (3 Bft) W-NW 288 25,7 km/h (4 Bft)
08.01.2012 11:58 6,6 C 69 % 0,0 l/m 19,8 km/h (3 Bft) NW 309 30,6 km/h (5 Bft)
08.01.2012 11:59 6,6 C 69 % 0,0 l/m 17,5 km/h (3 Bft) NW 304 35,4 km/h (5 Bft)
08.01.2012 12:00 6,6 C 69 % 0,0 l/m 20,7 km/h (4 Bft) W-NW 290 35,4 km/h (5 Bft)
08.01.2012 12:01 6,5 C 69 % 0,0 l/m 18,8 km/h (3 Bft) W-NW 293 37,0 km/h (5 Bft)
08.01.2012 12:02 6,5 C 69 % 0,0 l/m 19,1 km/h (3 Bft) NW 312 45,1 km/h (6 Bft)
08.01.2012 12:03 6,5 C 68 % 0,0 l/m 22,0 km/h (4 Bft) N-NW 336 40,2 km/h (6 Bft)
08.01.2012 12:04 6,5 C 69 % 0,0 l/m 21,5 km/h (4 Bft) W-NW 295 33,8 km/h (5 Bft)
08.01.2012 12:05 6,4 C 69 % 0,0 l/m 17,9 km/h (3 Bft) W-NW 300 24,1 km/h (4 Bft)
08.01.2012 12:06 6,5 C 69 % 0,0 l/m 17,4 km/h (3 Bft) W-NW 297 29,0 km/h (5 Bft)
08.01.2012 12:07 6,5 C 69 % 0,0 l/m 23,7 km/h (4 Bft) W 266 35,4 km/h (5 Bft)
08.01.2012 12:08 6,4 C 69 % 0,0 l/m 22,8 km/h (4 Bft) O 88 33,8 km/h (5 Bft)
08.01.2012 12:09 6,4 C 69 % 0,0 l/m 25,1 km/h (4 Bft) W 271 49,9 km/h (6 Bft)
08.01.2012 12:10 6,4 C 68 % 0,0 l/m 22,5 km/h (4 Bft) W-NW 290 35,4 km/h (5 Bft)
08.01.2012 12:11 6,4 C 68 % 0,2 l/m 22,4 km/h (4 Bft) NW 314 41,8 km/h (6 Bft)
08.01.2012 12:12 6,4 C 70 % 0,0 l/m 17,3 km/h (3 Bft) W-NW 293 32,2 km/h (5 Bft)
08.01.2012 12:13 6,4 C 69 % 0,0 l/m 21,4 km/h (4 Bft) W-NW 293 33,8 km/h (5 Bft)
08.01.2012 12:14 6,4 C 69 % 0,0 l/m 21,7 km/h (4 Bft) NW 312 35,4 km/h (5 Bft)
08.01.2012 12:15 6,4 C 69 % 0,0 l/m 17,7 km/h (3 Bft) N-NW 337 33,8 km/h (5 Bft)
08.01.2012 12:16 6,4 C 70 % 0,0 l/m 19,6 km/h (3 Bft) W 271 29,0 km/h (5 Bft)
08.01.2012 12:17 6,4 C 69 % 0,0 l/m 18,7 km/h (3 Bft) W 273 27,4 km/h (4 Bft)
08.01.2012 12:18 6,4 C 69 % 0,0 l/m 19,1 km/h (3 Bft) W-NW 295 32,2 km/h (5 Bft)
08.01.2012 12:19 6,4 C 69 % 0,0 l/m 22,5 km/h (4 Bft) NW 305 33,8 km/h (5 Bft)
08.01.2012 12:20 6,4 C 69 % 0,0 l/m 17,1 km/h (3 Bft) NW 309 24,1 km/h (4 Bft)
08.01.2012 12:21 6,4 C 70 % 0,0 l/m 15,0 km/h (3 Bft) W-NW 293 27,4 km/h (4 Bft)
08.01.2012 12:22 6,3 C 69 % 0,0 l/m 31,9 km/h (5 Bft) N-NW 332 46,7 km/h (6 Bft)
08.01.2012 12:23 6,3 C 69 % 0,0 l/m 20,6 km/h (4 Bft) W 260 40,2 km/h (6 Bft)
08.01.2012 12:24 6,3 C 69 % 0,0 l/m 19,2 km/h (3 Bft) W-NW 298 33,8 km/h (5 Bft)
08.01.2012 12:25 6,2 C 69 % 0,0 l/m 20,5 km/h (4 Bft) W-NW 295 32,2 km/h (5 Bft)
08.01.2012 12:26 6,2 C 70 % 0,0 l/m 14,6 km/h (3 Bft) W-NW 299 25,7 km/h (4 Bft)
08.01.2012 12:27 6,2 C 71 % 0,0 l/m 15,4 km/h (3 Bft) N-NO 16 27,4 km/h (4 Bft)
08.01.2012 12:28 6,2 C 72 % 0,0 l/m 12,5 km/h (3 Bft) W 271 30,6 km/h (5 Bft)
08.01.2012 12:29 6,2 C 72 % 0,0 l/m 19,2 km/h (3 Bft) W-NW 295 35,4 km/h (5 Bft)
08.01.2012 12:30 6,2 C 72 % 0,0 l/m 15,5 km/h (3 Bft) SW 235 30,6 km/h (5 Bft)
08.01.2012 12:31 6,2 C 72 % 0,0 l/m 15,9 km/h (3 Bft) W-NW 293 30,6 km/h (5 Bft)
08.01.2012 12:32 6,2 C 72 % 0,0 l/m 15,1 km/h (3 Bft) W 269 27,4 km/h (4 Bft)
08.01.2012 12:33 6,2 C 72 % 0,0 l/m 22,6 km/h (4 Bft) W-SW 239 35,4 km/h (5 Bft)
08.01.2012 12:34 6,2 C 72 % 0,0 l/m 22,5 km/h (4 Bft) N-NW 345 30,6 km/h (5 Bft)
08.01.2012 12:35 6,1 C 73 % 0,0 l/m 21,2 km/h (4 Bft) W 277 30,6 km/h (5 Bft)
08.01.2012 12:36 6,1 C 73 % 0,0 l/m 17,8 km/h (3 Bft) W 270 35,4 km/h (5 Bft)
08.01.2012 12:37 6,0 C 73 % 0,0 l/m 21,9 km/h (4 Bft) W-NW 293 35,4 km/h (5 Bft)
08.01.2012 12:38 5,9 C 73 % 0,0 l/m 18,9 km/h (3 Bft) N 1 33,8 km/h (5 Bft)
08.01.2012 12:39 5,9 C 74 % 0,0 l/m 18,8 km/h (3 Bft) W-NW 298 30,6 km/h (5 Bft)
08.01.2012 12:40 5,9 C 74 % 0,0 l/m 9,6 km/h (2 Bft) SW 221 16,1 km/h (3 Bft)
08.01.2012 12:41 5,8 C 74 % 0,0 l/m 24,6 km/h (4 Bft) W-NW 290 37,0 km/h (5 Bft)
08.01.2012 12:42 5,8 C 74 % 0,0 l/m 24,9 km/h (4 Bft) SW 219 40,2 km/h (6 Bft)
08.01.2012 12:43 5,7 C 75 % 0,0 l/m 11,9 km/h (2 Bft) W-SW 249 22,5 km/h (4 Bft)
08.01.2012 12:44 5,7 C 74 % 0,0 l/m 18,6 km/h (3 Bft) W-SW 241 30,6 km/h (5 Bft)
08.01.2012 12:45 5,6 C 75 % 0,0 l/m 22,6 km/h (4 Bft) W-SW 249 35,4 km/h (5 Bft)
08.01.2012 12:46 5,6 C 75 % 0,0 l/m 20,2 km/h (4 Bft) NW 305 29,0 km/h (5 Bft)
08.01.2012 12:47 5,5 C 75 % 0,0 l/m 16,4 km/h (3 Bft) W 270 22,5 km/h (4 Bft)
08.01.2012 12:48 5,5 C 76 % 0,0 l/m 20,1 km/h (4 Bft) N-NW 330 33,8 km/h (5 Bft)
08.01.2012 12:49 5,5 C 76 % 0,0 l/m 20,2 km/h (4 Bft) N 8 30,6 km/h (5 Bft)
08.01.2012 12:50 5,4 C 76 % 0,0 l/m 16,3 km/h (3 Bft) NW 326 25,7 km/h (4 Bft)
08.01.2012 12:51 5,4 C 76 % 0,0 l/m 20,2 km/h (4 Bft) W-SW 245 53,1 km/h (7 Bft)
08.01.2012 12:52 5,4 C 76 % 0,0 l/m 22,8 km/h (4 Bft) W-NW 297 35,4 km/h (5 Bft)
08.01.2012 12:53 5,4 C 76 % 0,0 l/m 16,0 km/h (3 Bft) SW 225 27,4 km/h (4 Bft)
08.01.2012 12:54 5,4 C 76 % 0,0 l/m 20,3 km/h (4 Bft) W-NW 301 30,6 km/h (5 Bft)
08.01.2012 12:55 5,4 C 76 % 0,0 l/m 14,0 km/h (3 Bft) NO 40 22,5 km/h (4 Bft)
08.01.2012 12:56 5,4 C 76 % 0,0 l/m 14,8 km/h (3 Bft) W-SW 248 27,4 km/h (4 Bft)
08.01.2012 12:57 5,3 C 76 % 0,0 l/m 23,3 km/h (4 Bft) W-NW 290 35,4 km/h (5 Bft)
08.01.2012 12:58 5,3 C 77 % 0,0 l/m 17,9 km/h (3 Bft) W-NW 291 30,6 km/h (5 Bft)
08.01.2012 12:59 5,3 C 77 % 0,0 l/m 20,2 km/h (4 Bft) NW 315 30,6 km/h (5 Bft)
08.01.2012 13:00 5,2 C 77 % 0,0 l/m 17,3 km/h (3 Bft) W 274 35,4 km/h (5 Bft)
08.01.2012 13:01 5,2 C 78 % 0,0 l/m 16,9 km/h (3 Bft) NW 312 27,4 km/h (4 Bft)
08.01.2012 13:02 5,2 C 78 % 0,0 l/m 23,0 km/h (4 Bft) W-NW 295 40,2 km/h (6 Bft)
08.01.2012 13:03 5,1 C 78 % 0,0 l/m 13,3 km/h (3 Bft) W 273 24,1 km/h (4 Bft)
08.01.2012 13:04 5,1 C 79 % 0,0 l/m 10,9 km/h (2 Bft) O-SO 109 20,9 km/h (4 Bft)
08.01.2012 13:05 5,1 C 79 % 0,0 l/m 12,7 km/h (3 Bft) W-NW 302 25,7 km/h (4 Bft)
08.01.2012 13:06 5,1 C 79 % 0,0 l/m 11,9 km/h (2 Bft) S-SW 198 25,7 km/h (4 Bft)
08.01.2012 13:07 5,0 C 80 % 0,0 l/m 5,1 km/h (1 Bft) W-SW 248 12,9 km/h (3 Bft)
08.01.2012 13:08 5,0 C 79 % 0,0 l/m 20,3 km/h (4 Bft) NW 321 32,2 km/h (5 Bft)
08.01.2012 13:09 5,0 C 79 % 0,0 l/m 14,1 km/h (3 Bft) W-NW 285 19,3 km/h (3 Bft)
08.01.2012 13:10 5,0 C 79 % 0,0 l/m 10,8 km/h (2 Bft) W 259 16,1 km/h (3 Bft)
08.01.2012 13:11 5,0 C 80 % 0,0 l/m 15,1 km/h (3 Bft) S-SO 150 25,7 km/h (4 Bft)
08.01.2012 13:12 4,9 C 79 % 0,0 l/m 18,4 km/h (3 Bft) NW 306 38,6 km/h (5 Bft)
08.01.2012 13:13 4,9 C 79 % 0,0 l/m 25,3 km/h (4 Bft) SW 226 40,2 km/h (6 Bft)
08.01.2012 13:14 4,9 C 79 % 0,0 l/m 17,1 km/h (3 Bft) NW 307 30,6 km/h (5 Bft)
08.01.2012 13:15 4,9 C 79 % 0,0 l/m 10,1 km/h (2 Bft) W 267 17,7 km/h (3 Bft)
08.01.2012 13:16 4,9 C 79 % 0,0 l/m 12,6 km/h (3 Bft) W-NW 301 20,9 km/h (4 Bft)
08.01.2012 13:17 4,9 C 79 % 0,0 l/m 15,3 km/h (3 Bft) W-NW 293 29,0 km/h (5 Bft)
08.01.2012 13:18 4,9 C 79 % 0,0 l/m 21,1 km/h (4 Bft) SO 130 35,4 km/h (5 Bft)
08.01.2012 13:19 4,9 C 79 % 0,0 l/m 12,4 km/h (3 Bft) W 273 24,1 km/h (4 Bft)
08.01.2012 13:20 4,9 C 79 % 0,0 l/m 13,0 km/h (3 Bft) W 261 24,1 km/h (4 Bft)
08.01.2012 13:21 4,9 C 79 % 0,0 l/m 16,6 km/h (3 Bft) S 181 38,6 km/h (5 Bft)
08.01.2012 13:22 4,9 C 79 % 0,0 l/m 15,0 km/h (3 Bft) SW 235 30,6 km/h (5 Bft)
08.01.2012 13:23 4,9 C 79 % 0,0 l/m 13,5 km/h (3 Bft) SW 219 19,3 km/h (3 Bft)
08.01.2012 13:24 4,9 C 80 % 0,0 l/m 9,3 km/h (2 Bft) W-SW 239 16,1 km/h (3 Bft)
08.01.2012 13:25 4,9 C 79 % 0,0 l/m 17,0 km/h (3 Bft) SW 225 30,6 km/h (5 Bft)
08.01.2012 13:26 4,9 C 79 % 0,0 l/m 9,6 km/h (2 Bft) SW 232 16,1 km/h (3 Bft)
08.01.2012 13:27 4,9 C 79 % 0,0 l/m 15,9 km/h (3 Bft) W 264 24,1 km/h (4 Bft)
08.01.2012 13:28 4,9 C 79 % 0,0 l/m 10,0 km/h (2 Bft) W-NW 287 16,1 km/h (3 Bft)
08.01.2012 13:29 4,9 C 79 % 0,0 l/m 11,3 km/h (2 Bft) W-NW 286 24,1 km/h (4 Bft)
08.01.2012 13:30 4,9 C 78 % 0,0 l/m 16,4 km/h (3 Bft) SW 235 30,6 km/h (5 Bft)
08.01.2012 13:31 4,9 C 78 % 0,0 l/m 13,4 km/h (3 Bft) NW 305 29,0 km/h (5 Bft)
08.01.2012 13:32 4,9 C 78 % 0,0 l/m 16,5 km/h (3 Bft) W-SW 243 29,0 km/h (5 Bft)
08.01.2012 13:33 4,9 C 78 % 0,0 l/m 13,1 km/h (3 Bft) W-NW 291 22,5 km/h (4 Bft)
08.01.2012 13:34 4,9 C 78 % 0,0 l/m 13,4 km/h (3 Bft) NW 315 22,5 km/h (4 Bft)
08.01.2012 13:35 4,9 C 77 % 0,0 l/m 15,5 km/h (3 Bft) W 281 32,2 km/h (5 Bft)
08.01.2012 13:36 5,0 C 77 % 0,0 l/m 14,1 km/h (3 Bft) W 271 20,9 km/h (4 Bft)
08.01.2012 13:37 5,0 C 77 % 0,0 l/m 12,3 km/h (3 Bft) W-SW 257 19,3 km/h (3 Bft)
08.01.2012 13:38 5,0 C 78 % 0,0 l/m 10,7 km/h (2 Bft) W 281 16,1 km/h (3 Bft)
08.01.2012 13:39 5,0 C 78 % 0,0 l/m 8,8 km/h (2 Bft) W-SW 243 16,1 km/h (3 Bft)
08.01.2012 13:40 5,0 C 78 % 0,0 l/m 13,4 km/h (3 Bft) NW 312 20,9 km/h (4 Bft)
08.01.2012 13:41 5,0 C 78 % 0,0 l/m 17,1 km/h (3 Bft) W 261 25,7 km/h (4 Bft)
08.01.2012 13:42 5,0 C 78 % 0,0 l/m 9,6 km/h (2 Bft) N 353 17,7 km/h (3 Bft)
08.01.2012 13:43 5,0 C 78 % 0,0 l/m 7,5 km/h (2 Bft) W-SW 257 14,5 km/h (3 Bft)
08.01.2012 13:44 5,1 C 78 % 0,0 l/m 6,2 km/h (2 Bft) SO 127 11,3 km/h (2 Bft)
08.01.2012 13:45 5,1 C 78 % 0,0 l/m 12,3 km/h (3 Bft) W 273 19,3 km/h (3 Bft)
08.01.2012 13:46 5,1 C 77 % 0,0 l/m 11,9 km/h (2 Bft) W-SW 249 20,9 km/h (4 Bft)
08.01.2012 13:47 5,1 C 78 % 0,0 l/m 10,8 km/h (2 Bft) NW 312 20,9 km/h (4 Bft)
08.01.2012 13:48 5,1 C 77 % 0,0 l/m 12,8 km/h (3 Bft) W-NW 287 22,5 km/h (4 Bft)
08.01.2012 13:49 5,1 C 77 % 0,0 l/m 13,0 km/h (3 Bft) NW 306 22,5 km/h (4 Bft)
08.01.2012 13:50 5,1 C 77 % 0,0 l/m 10,3 km/h (2 Bft) W 280 20,9 km/h (4 Bft)
08.01.2012 13:51 5,1 C 77 % 0,0 l/m 16,2 km/h (3 Bft) W-NW 300 32,2 km/h (5 Bft)
08.01.2012 13:52 5,2 C 77 % 0,0 l/m 9,3 km/h (2 Bft) SW 236 14,5 km/h (3 Bft)
08.01.2012 13:53 5,2 C 77 % 0,0 l/m 17,7 km/h (3 Bft) W 276 27,4 km/h (4 Bft)
08.01.2012 13:54 5,2 C 77 % 0,0 l/m 18,2 km/h (3 Bft) W-NW 302 33,8 km/h (5 Bft)
08.01.2012 13:55 5,2 C 76 % 0,0 l/m 15,6 km/h (3 Bft) N-NW 328 27,4 km/h (4 Bft)
08.01.2012 13:56 5,2 C 76 % 0,0 l/m 7,5 km/h (2 Bft) N 360 17,7 km/h (3 Bft)
08.01.2012 13:57 5,2 C 77 % 0,0 l/m 4,3 km/h (1 Bft) SO 134 8,0 km/h (2 Bft)
08.01.2012 13:58 5,2 C 77 % 0,0 l/m 8,8 km/h (2 Bft) N-NW 337 17,7 km/h (3 Bft)
08.01.2012 13:59 5,2 C 77 % 0,0 l/m 7,4 km/h (2 Bft) NW 312 12,9 km/h (3 Bft)
08.01.2012 14:00 5,2 C 76 % 0,0 l/m 14,6 km/h (3 Bft) NW 308 25,7 km/h (4 Bft)
08.01.2012 14:01 5,2 C 76 % 0,0 l/m 8,4 km/h (2 Bft) W-NW 300 20,9 km/h (4 Bft)
08.01.2012 14:02 5,2 C 76 % 0,0 l/m 13,8 km/h (3 Bft) W-NW 286 24,1 km/h (4 Bft)
08.01.2012 14:03 5,2 C 76 % 0,0 l/m 11,1 km/h (2 Bft) NW 304 19,3 km/h (3 Bft)
08.01.2012 14:04 5,2 C 77 % 0,0 l/m 10,3 km/h (2 Bft) S-SW 212 16,1 km/h (3 Bft)
08.01.2012 14:05 5,2 C 76 % 0,0 l/m 4,4 km/h (1 Bft) NW 319 8,0 km/h (2 Bft)
08.01.2012 14:06 5,2 C 76 % 0,0 l/m 18,1 km/h (3 Bft) W-NW 295 25,7 km/h (4 Bft)
08.01.2012 14:07 5,2 C 76 % 0,0 l/m 18,2 km/h (3 Bft) W-NW 301 33,8 km/h (5 Bft)
08.01.2012 14:08 5,2 C 76 % 0,0 l/m 18,6 km/h (3 Bft) W 264 24,1 km/h (4 Bft)
08.01.2012 14:09 5,2 C 76 % 0,0 l/m 9,4 km/h (2 Bft) W-NW 293 16,1 km/h (3 Bft)
08.01.2012 14:10 5,2 C 76 % 0,0 l/m 11,8 km/h (2 Bft) SO 138 22,5 km/h (4 Bft)
08.01.2012 14:11 5,2 C 76 % 0,0 l/m 15,1 km/h (3 Bft) NW 305 29,0 km/h (5 Bft)
08.01.2012 14:12 5,2 C 75 % 0,0 l/m 13,2 km/h (3 Bft) W-SW 245 27,4 km/h (4 Bft)
08.01.2012 14:13 5,2 C 76 % 0,0 l/m 11,4 km/h (2 Bft) W-SW 253 17,7 km/h (3 Bft)
08.01.2012 14:14 5,2 C 76 % 0,0 l/m 15,3 km/h (3 Bft) NW 305 29,0 km/h (5 Bft)
08.01.2012 14:15 5,2 C 76 % 0,0 l/m 21,0 km/h (4 Bft) NW 306 35,4 km/h (5 Bft)
08.01.2012 14:16 5,2 C 75 % 0,0 l/m 14,4 km/h (3 Bft) SW 218 22,5 km/h (4 Bft)
08.01.2012 14:17 5,2 C 75 % 0,0 l/m 22,2 km/h (4 Bft) W-SW 248 32,2 km/h (5 Bft)
08.01.2012 14:18 5,2 C 75 % 0,0 l/m 16,2 km/h (3 Bft) W 281 25,7 km/h (4 Bft)
08.01.2012 14:19 5,2 C 75 % 0,0 l/m 12,7 km/h (3 Bft) W-NW 300 22,5 km/h (4 Bft)
08.01.2012 14:20 5,2 C 76 % 0,0 l/m 13,4 km/h (3 Bft) W-NW 297 17,7 km/h (3 Bft)
08.01.2012 14:21 5,2 C 76 % 0,0 l/m 13,4 km/h (3 Bft) W 277 19,3 km/h (3 Bft)
08.01.2012 14:22 5,2 C 76 % 0,0 l/m 7,0 km/h (2 Bft) W-NW 291 12,9 km/h (3 Bft)
08.01.2012 14:23 5,2 C 76 % 0,0 l/m 11,3 km/h (2 Bft) W-SW 255 22,5 km/h (4 Bft)
08.01.2012 14:24 5,2 C 76 % 0,0 l/m 20,4 km/h (4 Bft) W-NW 297 35,4 km/h (5 Bft)
08.01.2012 14:25 5,2 C 75 % 0,0 l/m 16,3 km/h (3 Bft) W-NW 297 25,7 km/h (4 Bft)
08.01.2012 14:26 5,2 C 75 % 0,0 l/m 17,3 km/h (3 Bft) SW 232 25,7 km/h (4 Bft)
08.01.2012 14:27 5,2 C 75 % 0,0 l/m 19,0 km/h (3 Bft) W 266 29,0 km/h (5 Bft)
08.01.2012 14:28 5,2 C 75 % 0,0 l/m 11,8 km/h (2 Bft) NW 321 20,9 km/h (4 Bft)
08.01.2012 14:29 5,2 C 75 % 0,0 l/m 9,2 km/h (2 Bft) W 276 19,3 km/h (3 Bft)
08.01.2012 14:30 5,2 C 75 % 0,0 l/m 13,6 km/h (3 Bft) N-NO 25 22,5 km/h (4 Bft)
08.01.2012 14:31 5,2 C 75 % 0,0 l/m 9,4 km/h (2 Bft) N-NW 337 14,5 km/h (3 Bft)
08.01.2012 14:32 5,2 C 75 % 0,0 l/m 9,7 km/h (2 Bft) W-NW 285 16,1 km/h (3 Bft)
08.01.2012 14:33 5,2 C 76 % 0,0 l/m 8,4 km/h (2 Bft) W 277 17,7 km/h (3 Bft)
08.01.2012 14:34 5,2 C 76 % 0,0 l/m 8,0 km/h (2 Bft) W 273 19,3 km/h (3 Bft)
08.01.2012 14:35 5,2 C 75 % 0,0 l/m 16,1 km/h (3 Bft) W-NW 288 22,5 km/h (4 Bft)
08.01.2012 14:36 5,3 C 75 % 0,0 l/m 16,6 km/h (3 Bft) W-NW 287 30,6 km/h (5 Bft)
08.01.2012 14:37 5,3 C 74 % 0,0 l/m 13,7 km/h (3 Bft) W-NW 294 22,5 km/h (4 Bft)
08.01.2012 14:38 5,3 C 74 % 0,0 l/m 14,1 km/h (3 Bft) W-NW 288 19,3 km/h (3 Bft)
08.01.2012 14:39 5,3 C 75 % 0,0 l/m 8,8 km/h (2 Bft) W 278 12,9 km/h (3 Bft)
08.01.2012 14:40 5,2 C 75 % 0,0 l/m 5,7 km/h (1 Bft) SW 228 9,7 km/h (2 Bft)
08.01.2012 14:41 5,2 C 75 % 0,0 l/m 8,8 km/h (2 Bft) N-NW 337 16,1 km/h (3 Bft)
08.01.2012 14:42 5,2 C 75 % 0,0 l/m 7,7 km/h (2 Bft) NW 306 12,9 km/h (3 Bft)
08.01.2012 14:43 5,2 C 75 % 0,0 l/m 12,9 km/h (3 Bft) W 266 16,1 km/h (3 Bft)
08.01.2012 14:44 5,2 C 75 % 0,0 l/m 17,2 km/h (3 Bft) W-NW 295 29,0 km/h (5 Bft)
08.01.2012 14:45 5,2 C 75 % 0,0 l/m 9,4 km/h (2 Bft) N-NW 340 17,7 km/h (3 Bft)
08.01.2012 14:46 5,2 C 75 % 0,0 l/m 10,1 km/h (2 Bft) W-NW 284 17,7 km/h (3 Bft)
08.01.2012 14:47 5,2 C 75 % 0,0 l/m 9,1 km/h (2 Bft) N-NO 26 17,7 km/h (3 Bft)
08.01.2012 14:48 5,2 C 74 % 0,0 l/m 6,5 km/h (2 Bft) O-NO 78 16,1 km/h (3 Bft)
08.01.2012 14:49 5,2 C 75 % 0,0 l/m 8,3 km/h (2 Bft) W-NW 282 19,3 km/h (3 Bft)
08.01.2012 14:50 5,2 C 75 % 0,0 l/m 8,7 km/h (2 Bft) W 266 14,5 km/h (3 Bft)
08.01.2012 14:51 5,2 C 74 % 0,0 l/m 6,5 km/h (2 Bft) N 349 12,9 km/h (3 Bft)
08.01.2012 14:52 5,2 C 75 % 0,0 l/m 5,6 km/h (1 Bft) O 84 11,3 km/h (2 Bft)
08.01.2012 14:53 5,2 C 74 % 0,0 l/m 8,5 km/h (2 Bft) SW 217 11,3 km/h (2 Bft)
08.01.2012 14:54 5,2 C 75 % 0,0 l/m 6,2 km/h (2 Bft) W 270 11,3 km/h (2 Bft)
08.01.2012 14:55 5,2 C 75 % 0,0 l/m 6,9 km/h (2 Bft) W 259 12,9 km/h (3 Bft)
08.01.2012 14:56 5,1 C 75 % 0,0 l/m 8,1 km/h (2 Bft) N-NO 26 12,9 km/h (3 Bft)
08.01.2012 14:57 5,2 C 75 % 0,0 l/m 7,1 km/h (2 Bft) W 270 11,3 km/h (2 Bft)
08.01.2012 14:58 5,1 C 75 % 0,0 l/m 6,0 km/h (2 Bft) W-NW 285 9,7 km/h (2 Bft)
08.01.2012 14:59 5,1 C 75 % 0,0 l/m 7,4 km/h (2 Bft) W-SW 239 11,3 km/h (2 Bft)
08.01.2012 15:00 5,1 C 75 % 0,0 l/m 12,1 km/h (2 Bft) SW 229 16,1 km/h (3 Bft)
08.01.2012 15:01 5,1 C 75 % 0,0 l/m 11,2 km/h (2 Bft) NO 44 17,7 km/h (3 Bft)
08.01.2012 15:02 5,1 C 75 % 0,0 l/m 5,2 km/h (1 Bft) W 277 17,7 km/h (3 Bft)
08.01.2012 15:03 5,1 C 75 % 0,0 l/m 9,9 km/h (2 Bft) W-SW 242 24,1 km/h (4 Bft)
08.01.2012 15:04 5,1 C 75 % 0,0 l/m 6,9 km/h (2 Bft) SW 236 12,9 km/h (3 Bft)
08.01.2012 15:05 5,1 C 75 % 0,0 l/m 9,2 km/h (2 Bft) S 186 16,1 km/h (3 Bft)
08.01.2012 15:06 5,0 C 75 % 0,0 l/m 17,2 km/h (3 Bft) N 354 25,7 km/h (4 Bft)
08.01.2012 15:07 5,1 C 74 % 0,0 l/m 12,0 km/h (2 Bft) N-NW 337 19,3 km/h (3 Bft)
08.01.2012 15:08 5,0 C 74 % 0,0 l/m 14,2 km/h (3 Bft) O-SO 118 17,7 km/h (3 Bft)
08.01.2012 15:09 5,0 C 74 % 0,0 l/m 6,8 km/h (2 Bft) NW 311 14,5 km/h (3 Bft)
08.01.2012 15:10 5,0 C 74 % 0,0 l/m 14,0 km/h (3 Bft) NW 304 20,9 km/h (4 Bft)
08.01.2012 15:11 5,0 C 74 % 0,0 l/m 10,9 km/h (2 Bft) W-NW 287 17,7 km/h (3 Bft)
08.01.2012 15:12 4,9 C 74 % 0,0 l/m 10,8 km/h (2 Bft) NW 305 20,9 km/h (4 Bft)
08.01.2012 15:13 4,9 C 74 % 0,0 l/m 8,3 km/h (2 Bft) W-NW 284 14,5 km/h (3 Bft)
08.01.2012 15:14 4,9 C 74 % 0,0 l/m 9,9 km/h (2 Bft) W 273 16,1 km/h (3 Bft)
08.01.2012 15:15 4,9 C 74 % 0,0 l/m 5,9 km/h (2 Bft) W 260 12,9 km/h (3 Bft)
08.01.2012 15:16 4,9 C 74 % 0,0 l/m 6,1 km/h (2 Bft) W-NW 294 12,9 km/h (3 Bft)
08.01.2012 15:17 4,9 C 74 % 0,0 l/m 9,9 km/h (2 Bft) W-NW 297 14,5 km/h (3 Bft)
08.01.2012 15:18 4,8 C 74 % 0,0 l/m 13,0 km/h (3 Bft) W 274 20,9 km/h (4 Bft)
08.01.2012 15:19 4,8 C 74 % 0,0 l/m 10,2 km/h (2 Bft) S-SO 148 20,9 km/h (4 Bft)
08.01.2012 15:20 4,8 C 74 % 0,0 l/m 7,2 km/h (2 Bft) W-SW 253 14,5 km/h (3 Bft)
08.01.2012 15:21 4,8 C 74 % 0,0 l/m 6,7 km/h (2 Bft) S-SO 160 16,1 km/h (3 Bft)
08.01.2012 15:22 4,8 C 74 % 0,0 l/m 8,9 km/h (2 Bft) W-SW 239 12,9 km/h (3 Bft)
08.01.2012 15:23 4,8 C 74 % 0,0 l/m 7,9 km/h (2 Bft) SW 228 12,9 km/h (3 Bft)
08.01.2012 15:24 4,8 C 74 % 0,0 l/m 4,6 km/h (1 Bft) N-NW 347 9,7 km/h (2 Bft)
08.01.2012 15:25 4,8 C 74 % 0,0 l/m 8,0 km/h (2 Bft) W-NW 300 16,1 km/h (3 Bft)
08.01.2012 15:26 4,8 C 74 % 0,0 l/m 7,0 km/h (2 Bft) W-NW 289 17,7 km/h (3 Bft)
08.01.2012 15:27 4,8 C 74 % 0,0 l/m 8,0 km/h (2 Bft) NW 308 20,9 km/h (4 Bft)
08.01.2012 15:28 4,8 C 74 % 0,0 l/m 5,0 km/h (1 Bft) W 265 11,3 km/h (2 Bft)
08.01.2012 15:29 4,8 C 74 % 0,0 l/m 9,7 km/h (2 Bft) NW 315 12,9 km/h (3 Bft)
08.01.2012 15:30 4,7 C 74 % 0,0 l/m 3,4 km/h (1 Bft) N-NW 333 8,0 km/h (2 Bft)
08.01.2012 15:31 4,7 C 74 % 0,0 l/m 4,2 km/h (1 Bft) SW 232 8,0 km/h (2 Bft)
08.01.2012 15:32 4,7 C 75 % 0,0 l/m 8,4 km/h (2 Bft) W-SW 253 14,5 km/h (3 Bft)
08.01.2012 15:33 4,7 C 75 % 0,0 l/m 7,4 km/h (2 Bft) W-SW 252 12,9 km/h (3 Bft)
08.01.2012 15:34 4,7 C 75 % 0,0 l/m 6,5 km/h (2 Bft) SW 225 9,7 km/h (2 Bft)
08.01.2012 15:35 4,7 C 75 % 0,0 l/m 8,4 km/h (2 Bft) W 260 12,9 km/h (3 Bft)
08.01.2012 15:36 4,7 C 75 % 0,0 l/m 6,9 km/h (2 Bft) W 280 11,3 km/h (2 Bft)
08.01.2012 15:37 4,6 C 75 % 0,0 l/m 8,3 km/h (2 Bft) W-SW 256 14,5 km/h (3 Bft)
08.01.2012 15:38 4,6 C 75 % 0,0 l/m 5,2 km/h (1 Bft) SW 224 8,0 km/h (2 Bft)
08.01.2012 15:39 4,6 C 75 % 0,0 l/m 9,7 km/h (2 Bft) W 266 14,5 km/h (3 Bft)
08.01.2012 15:40 4,6 C 75 % 0,0 l/m 5,2 km/h (1 Bft) W-SW 252 11,3 km/h (2 Bft)
08.01.2012 15:41 4,6 C 75 % 0,0 l/m 5,6 km/h (1 Bft) W-SW 254 8,0 km/h (2 Bft)
08.01.2012 15:42 4,6 C 75 % 0,0 l/m 5,5 km/h (1 Bft) SW 218 11,3 km/h (2 Bft)
08.01.2012 15:43 4,6 C 75 % 0,0 l/m 8,0 km/h (2 Bft) SW 231 11,3 km/h (2 Bft)
08.01.2012 15:44 4,6 C 75 % 0,0 l/m 9,1 km/h (2 Bft) SW 217 11,3 km/h (2 Bft)
08.01.2012 15:45 4,6 C 75 % 0,0 l/m 9,5 km/h (2 Bft) W-SW 245 11,3 km/h (2 Bft)
08.01.2012 15:46 4,6 C 75 % 0,0 l/m 7,6 km/h (2 Bft) W 273 12,9 km/h (3 Bft)
08.01.2012 15:47 4,5 C 75 % 0,0 l/m 5,9 km/h (2 Bft) SW 231 12,9 km/h (3 Bft)
08.01.2012 15:48 4,5 C 75 % 0,0 l/m 7,5 km/h (2 Bft) W-SW 254 11,3 km/h (2 Bft)
08.01.2012 15:49 4,5 C 75 % 0,0 l/m 6,6 km/h (2 Bft) W-SW 239 9,7 km/h (2 Bft)
08.01.2012 15:50 4,5 C 75 % 0,0 l/m 6,1 km/h (2 Bft) W-SW 246 9,7 km/h (2 Bft)
08.01.2012 15:51 4,5 C 75 % 0,0 l/m 7,8 km/h (2 Bft) W-NW 297 12,9 km/h (3 Bft)
08.01.2012 15:52 4,5 C 75 % 0,0 l/m 4,2 km/h (1 Bft) S-SW 205 6,4 km/h (2 Bft)
08.01.2012 15:53 4,5 C 75 % 0,0 l/m 5,9 km/h (2 Bft) W-NW 297 6,4 km/h (2 Bft)
08.01.2012 15:54 4,5 C 75 % 0,0 l/m 4,6 km/h (1 Bft) W-SW 255 6,4 km/h (2 Bft)
08.01.2012 15:55 4,5 C 75 % 0,0 l/m 4,7 km/h (1 Bft) SW 221 6,4 km/h (2 Bft)
08.01.2012 15:56 4,5 C 75 % 0,0 l/m 5,0 km/h (1 Bft) W 262 6,4 km/h (2 Bft)
08.01.2012 15:57 4,4 C 75 % 0,0 l/m 4,1 km/h (1 Bft) W-SW 257 12,9 km/h (3 Bft)
08.01.2012 15:58 4,5 C 75 % 0,0 l/m 10,2 km/h (2 Bft) W 265 14,5 km/h (3 Bft)
08.01.2012 15:59 4,4 C 75 % 0,0 l/m 7,1 km/h (2 Bft) W 269 9,7 km/h (2 Bft)
08.01.2012 16:00 4,4 C 75 % 0,0 l/m 7,0 km/h (2 Bft) W 274 11,3 km/h (2 Bft)
08.01.2012 16:01 4,4 C 75 % 0,0 l/m 7,6 km/h (2 Bft) SW 235 11,3 km/h (2 Bft)
08.01.2012 16:02 4,4 C 75 % 0,0 l/m 6,6 km/h (2 Bft) W-SW 239 8,0 km/h (2 Bft)
08.01.2012 16:03 4,4 C 75 % 0,0 l/m 8,4 km/h (2 Bft) SW 236 9,7 km/h (2 Bft)
08.01.2012 16:04 4,4 C 75 % 0,0 l/m 7,4 km/h (2 Bft) W-SW 239 9,7 km/h (2 Bft)
08.01.2012 16:05 4,5 C 75 % 0,0 l/m 9,5 km/h (2 Bft) W 277 12,9 km/h (3 Bft)
08.01.2012 16:06 4,5 C 75 % 0,0 l/m 7,0 km/h (2 Bft) W-NW 297 11,3 km/h (2 Bft)
08.01.2012 16:07 4,5 C 75 % 0,0 l/m 4,9 km/h (1 Bft) NW 319 8,0 km/h (2 Bft)
08.01.2012 16:08 4,5 C 75 % 0,0 l/m 9,1 km/h (2 Bft) W 269 19,3 km/h (3 Bft)
08.01.2012 16:09 4,5 C 74 % 0,0 l/m 9,8 km/h (2 Bft) O-NO 67 16,1 km/h (3 Bft)
08.01.2012 16:10 4,5 C 74 % 0,0 l/m 9,2 km/h (2 Bft) W 262 12,9 km/h (3 Bft)
08.01.2012 16:11 4,5 C 74 % 0,0 l/m 9,7 km/h (2 Bft) W 278 12,9 km/h (3 Bft)
08.01.2012 16:12 4,5 C 74 % 0,0 l/m 5,6 km/h (1 Bft) W 271 9,7 km/h (2 Bft)
08.01.2012 16:13 4,5 C 74 % 0,0 l/m 7,0 km/h (2 Bft) W 266 11,3 km/h (2 Bft)
08.01.2012 16:14 4,5 C 74 % 0,0 l/m 6,7 km/h (2 Bft) W-NW 297 11,3 km/h (2 Bft)
08.01.2012 16:15 4,5 C 74 % 0,0 l/m 12,4 km/h (3 Bft) O-SO 118 19,3 km/h (3 Bft)
08.01.2012 16:16 4,5 C 74 % 0,0 l/m 11,1 km/h (2 Bft) W-SW 256 17,7 km/h (3 Bft)
08.01.2012 16:17 4,5 C 74 % 0,0 l/m 9,1 km/h (2 Bft) W-NW 294 16,1 km/h (3 Bft)
08.01.2012 16:18 4,5 C 74 % 0,0 l/m 4,9 km/h (1 Bft) N-NW 344 8,0 km/h (2 Bft)
08.01.2012 16:19 4,5 C 74 % 0,0 l/m 2,6 km/h (1 Bft) W 261 3,2 km/h (1 Bft)
08.01.2012 16:20 4,4 C 74 % 0,0 l/m 4,6 km/h (1 Bft) W-SW 255 8,0 km/h (2 Bft)
08.01.2012 16:21 4,4 C 74 % 0,0 l/m 2,6 km/h (1 Bft) W-SW 248 9,7 km/h (2 Bft)
08.01.2012 16:22 4,4 C 74 % 0,0 l/m 6,0 km/h (2 Bft) W-SW 245 9,7 km/h (2 Bft)
08.01.2012 16:23 4,4 C 74 % 0,0 l/m 7,6 km/h (2 Bft) SW 221 11,3 km/h (2 Bft)
08.01.2012 16:24 4,4 C 74 % 0,0 l/m 5,1 km/h (1 Bft) N-NW 329 8,0 km/h (2 Bft)
08.01.2012 16:25 4,4 C 74 % 0,0 l/m 2,8 km/h (1 Bft) W 259 6,4 km/h (2 Bft)
08.01.2012 16:26 4,4 C 74 % 0,0 l/m 7,4 km/h (2 Bft) S 191 14,5 km/h (3 Bft)
08.01.2012 16:27 4,3 C 74 % 0,0 l/m 6,4 km/h (2 Bft) S-SW 208 9,7 km/h (2 Bft)
08.01.2012 16:28 4,3 C 74 % 0,0 l/m 2,9 km/h (1 Bft) S 191 4,8 km/h (1 Bft)
08.01.2012 16:29 4,3 C 74 % 0,0 l/m 6,7 km/h (2 Bft) NW 312 9,7 km/h (2 Bft)
08.01.2012 16:30 4,3 C 74 % 0,0 l/m 5,1 km/h (1 Bft) W 278 9,7 km/h (2 Bft)
08.01.2012 16:31 4,3 C 74 % 0,0 l/m 4,0 km/h (1 Bft) W-SW 249 8,0 km/h (2 Bft)
08.01.2012 16:32 4,3 C 74 % 0,0 l/m 5,4 km/h (1 Bft) W-NW 297 11,3 km/h (2 Bft)
08.01.2012 16:33 4,3 C 74 % 0,0 l/m 6,1 km/h (2 Bft) W-NW 282 11,3 km/h (2 Bft)
08.01.2012 16:34 4,3 C 74 % 0,0 l/m 4,7 km/h (1 Bft) W-NW 301 9,7 km/h (2 Bft)
08.01.2012 16:35 4,3 C 74 % 0,0 l/m 6,4 km/h (2 Bft) W-NW 291 11,3 km/h (2 Bft)
08.01.2012 16:36 4,2 C 75 % 0,0 l/m 8,1 km/h (2 Bft) W-SW 255 9,7 km/h (2 Bft)
08.01.2012 16:37 4,3 C 74 % 0,0 l/m 7,7 km/h (2 Bft) W 260 12,9 km/h (3 Bft)
08.01.2012 16:38 4,2 C 75 % 0,0 l/m 6,2 km/h (2 Bft) W 266 12,9 km/h (3 Bft)
08.01.2012 16:39 4,2 C 75 % 0,0 l/m 5,6 km/h (1 Bft) W 267 9,7 km/h (2 Bft)
08.01.2012 16:40 4,2 C 75 % 0,0 l/m 4,0 km/h (1 Bft) NW 307 8,0 km/h (2 Bft)
08.01.2012 16:41 4,2 C 75 % 0,0 l/m 6,6 km/h (2 Bft) W 278 14,5 km/h (3 Bft)
08.01.2012 16:42 4,2 C 75 % 0,0 l/m 6,2 km/h (2 Bft) SW 215 16,1 km/h (3 Bft)
08.01.2012 16:43 4,2 C 75 % 0,0 l/m 6,6 km/h (2 Bft) W-NW 297 12,9 km/h (3 Bft)
08.01.2012 16:44 4,2 C 75 % 0,0 l/m 6,3 km/h (2 Bft) W 260 9,7 km/h (2 Bft)
08.01.2012 16:45 4,2 C 75 % 0,0 l/m 2,7 km/h (1 Bft) S-SW 205 6,4 km/h (2 Bft)
08.01.2012 16:46 4,2 C 75 % 0,0 l/m 4,5 km/h (1 Bft) W-SW 243 9,7 km/h (2 Bft)
08.01.2012 16:47 4,2 C 75 % 0,0 l/m 7,1 km/h (2 Bft) W-NW 282 11,3 km/h (2 Bft)
08.01.2012 16:48 4,1 C 75 % 0,0 l/m 6,6 km/h (2 Bft) W-NW 293 11,3 km/h (2 Bft)
08.01.2012 16:49 4,1 C 75 % 0,0 l/m 6,9 km/h (2 Bft) W-NW 295 11,3 km/h (2 Bft)
08.01.2012 16:50 4,1 C 75 % 0,0 l/m 12,1 km/h (2 Bft) W-NW 294 20,9 km/h (4 Bft)
08.01.2012 16:51 4,1 C 75 % 0,0 l/m 5,6 km/h (1 Bft) W-SW 253 9,7 km/h (2 Bft)
08.01.2012 16:52 4,2 C 75 % 0,0 l/m 5,9 km/h (2 Bft) W 278 9,7 km/h (2 Bft)
08.01.2012 16:53 4,2 C 75 % 0,0 l/m 6,3 km/h (2 Bft) W-SW 248 9,7 km/h (2 Bft)
08.01.2012 16:54 4,1 C 75 % 0,0 l/m 4,7 km/h (1 Bft) NW 312 6,4 km/h (2 Bft)
08.01.2012 16:55 4,1 C 75 % 0,0 l/m 2,7 km/h (1 Bft) W-NW 298 3,2 km/h (1 Bft)
08.01.2012 16:56 4,1 C 75 % 0,0 l/m 5,7 km/h (1 Bft) W-NW 288 8,0 km/h (2 Bft)
08.01.2012 16:57 4,1 C 75 % 0,0 l/m 5,1 km/h (1 Bft) N-NO 13 11,3 km/h (2 Bft)
08.01.2012 16:58 4,1 C 75 % 0,0 l/m 5,4 km/h (1 Bft) SW 229 9,7 km/h (2 Bft)
08.01.2012 16:59 4,0 C 76 % 0,0 l/m 6,6 km/h (2 Bft) SW 221 9,7 km/h (2 Bft)
08.01.2012 17:00 4,0 C 76 % 0,0 l/m 9,0 km/h (2 Bft) W-SW 246 14,5 km/h (3 Bft)
08.01.2012 17:01 4,0 C 76 % 0,0 l/m 8,1 km/h (2 Bft) NW 308 12,9 km/h (3 Bft)
08.01.2012 17:02 4,0 C 76 % 0,0 l/m 6,4 km/h (2 Bft) SW 232 16,1 km/h (3 Bft)
08.01.2012 17:03 4,0 C 76 % 0,0 l/m 8,8 km/h (2 Bft) W-SW 253 12,9 km/h (3 Bft)
08.01.2012 17:04 4,0 C 76 % 0,0 l/m 6,3 km/h (2 Bft) W 274 8,0 km/h (2 Bft)
08.01.2012 17:05 4,0 C 76 % 0,0 l/m 4,5 km/h (1 Bft) W-NW 302 6,4 km/h (2 Bft)
08.01.2012 17:06 4,0 C 76 % 0,0 l/m 5,3 km/h (1 Bft) W-SW 242 6,4 km/h (2 Bft)
08.01.2012 17:07 4,0 C 76 % 0,0 l/m 9,7 km/h (2 Bft) W 262 12,9 km/h (3 Bft)
08.01.2012 17:08 4,0 C 76 % 0,0 l/m 7,5 km/h (2 Bft) W 260 11,3 km/h (2 Bft)
08.01.2012 17:09 4,0 C 76 % 0,0 l/m 8,2 km/h (2 Bft) SW 215 17,7 km/h (3 Bft)
08.01.2012 17:10 4,0 C 76 % 0,0 l/m 10,2 km/h (2 Bft) W-SW 242 14,5 km/h (3 Bft)
08.01.2012 17:11 4,0 C 76 % 0,0 l/m 6,8 km/h (2 Bft) W-NW 285 9,7 km/h (2 Bft)
08.01.2012 17:12 3,9 C 76 % 0,0 l/m 7,0 km/h (2 Bft) W-SW 249 16,1 km/h (3 Bft)
08.01.2012 17:13 3,9 C 76 % 0,0 l/m 7,1 km/h (2 Bft) W 260 11,3 km/h (2 Bft)
08.01.2012 17:14 3,9 C 76 % 0,0 l/m 7,0 km/h (2 Bft) S-SW 207 12,9 km/h (3 Bft)
08.01.2012 17:15 3,9 C 76 % 0,0 l/m 6,4 km/h (2 Bft) W-NW 288 11,3 km/h (2 Bft)
08.01.2012 17:16 3,9 C 76 % 0,0 l/m 5,6 km/h (1 Bft) W-NW 297 9,7 km/h (2 Bft)
08.01.2012 17:17 3,9 C 76 % 0,0 l/m 2,9 km/h (1 Bft) S-SW 207 4,8 km/h (1 Bft)
08.01.2012 17:18 3,9 C 76 % 0,0 l/m 5,5 km/h (1 Bft) W-SW 241 8,0 km/h (2 Bft)
08.01.2012 17:19 3,9 C 76 % 0,0 l/m 6,4 km/h (2 Bft) W-NW 300 11,3 km/h (2 Bft)
08.01.2012 17:20 3,9 C 76 % 0,0 l/m 6,3 km/h (2 Bft) N-NO 25 11,3 km/h (2 Bft)
08.01.2012 17:21 3,9 C 76 % 0,0 l/m 5,6 km/h (1 Bft) W-NW 291 9,7 km/h (2 Bft)
08.01.2012 17:22 3,9 C 76 % 0,0 l/m 5,4 km/h (1 Bft) SW 225 9,7 km/h (2 Bft)
08.01.2012 17:23 3,8 C 76 % 0,0 l/m 7,3 km/h (2 Bft) W-SW 253 9,7 km/h (2 Bft)
08.01.2012 17:24 3,8 C 76 % 0,0 l/m 5,8 km/h (2 Bft) W-SW 240 9,7 km/h (2 Bft)
08.01.2012 17:25 3,8 C 76 % 0,0 l/m 5,4 km/h (1 Bft) W-SW 250 8,0 km/h (2 Bft)
08.01.2012 17:26 3,8 C 76 % 0,0 l/m 6,6 km/h (2 Bft) W 281 9,7 km/h (2 Bft)
08.01.2012 17:27 3,8 C 76 % 0,0 l/m 5,1 km/h (1 Bft) SW 218 11,3 km/h (2 Bft)
08.01.2012 17:28 3,9 C 76 % 0,0 l/m 7,4 km/h (2 Bft) W-SW 246 9,7 km/h (2 Bft)
08.01.2012 17:29 3,8 C 76 % 0,0 l/m 7,2 km/h (2 Bft) W 274 11,3 km/h (2 Bft)
08.01.2012 17:30 3,8 C 76 % 0,0 l/m 4,2 km/h (1 Bft) W 272 6,4 km/h (2 Bft)
08.01.2012 17:31 3,8 C 76 % 0,0 l/m 1,7 km/h (1 Bft) W-SW 245 6,4 km/h (2 Bft)
08.01.2012 17:32 3,8 C 76 % 0,0 l/m 2,5 km/h (1 Bft) W 268 4,8 km/h (1 Bft)
08.01.2012 17:33 3,8 C 76 % 0,0 l/m 5,8 km/h (2 Bft) W-SW 253 9,7 km/h (2 Bft)
08.01.2012 17:34 3,9 C 76 % 0,0 l/m 6,5 km/h (2 Bft) W 276 9,7 km/h (2 Bft)
08.01.2012 17:35 3,9 C 76 % 0,0 l/m 1,7 km/h (1 Bft) S-SW 204 4,8 km/h (1 Bft)
08.01.2012 17:36 3,9 C 76 % 0,0 l/m 1,5 km/h (1 Bft) SW 231 3,2 km/h (1 Bft)
08.01.2012 17:37 3,9 C 76 % 0,0 l/m 1,2 km/h (1 Bft) W 270 4,8 km/h (1 Bft)
08.01.2012 17:38 3,9 C 76 % 0,0 l/m 1,0 km/h (0 Bft) S-SO 159 3,2 km/h (1 Bft)
08.01.2012 17:39 3,9 C 76 % 0,0 l/m 3,1 km/h (1 Bft) SW 224 8,0 km/h (2 Bft)
08.01.2012 17:40 3,9 C 76 % 0,0 l/m 2,5 km/h (1 Bft) W 278 4,8 km/h (1 Bft)
08.01.2012 17:41 3,9 C 76 % 0,0 l/m 2,1 km/h (1 Bft) W-NW 298 4,8 km/h (1 Bft)
08.01.2012 17:42 3,9 C 76 % 0,0 l/m 0,5 km/h (0 Bft) W 274 1,6 km/h (1 Bft)
08.01.2012 17:43 3,9 C 76 % 0,0 l/m 0,9 km/h (0 Bft) W-SW 252 1,6 km/h (1 Bft)
08.01.2012 17:44 3,9 C 76 % 0,0 l/m 2,2 km/h (1 Bft) NW 305 12,9 km/h (3 Bft)
08.01.2012 17:45 3,8 C 76 % 0,0 l/m 5,0 km/h (1 Bft) S-SW 208 12,9 km/h (3 Bft)
08.01.2012 17:46 3,8 C 76 % 0,0 l/m 4,6 km/h (1 Bft) W-NW 302 8,0 km/h (2 Bft)
08.01.2012 17:47 3,9 C 76 % 0,0 l/m 3,1 km/h (1 Bft) W-NW 290 9,7 km/h (2 Bft)
08.01.2012 17:48 3,9 C 76 % 0,0 l/m 5,5 km/h (1 Bft) NW 312 8,0 km/h (2 Bft)
08.01.2012 17:49 3,9 C 76 % 0,0 l/m 3,1 km/h (1 Bft) SW 224 4,8 km/h (1 Bft)
08.01.2012 17:50 3,9 C 76 % 0,0 l/m 2,7 km/h (1 Bft) SW 214 4,8 km/h (1 Bft)
08.01.2012 17:51 3,9 C 76 % 0,0 l/m 3,1 km/h (1 Bft) W 261 4,8 km/h (1 Bft)
08.01.2012 17:52 3,9 C 76 % 0,0 l/m 5,7 km/h (1 Bft) W-NW 297 9,7 km/h (2 Bft)
08.01.2012 17:53 3,9 C 76 % 0,0 l/m 5,1 km/h (1 Bft) W-NW 293 8,0 km/h (2 Bft)
08.01.2012 17:54 4,0 C 76 % 0,0 l/m 2,2 km/h (1 Bft) NW 321 4,8 km/h (1 Bft)
08.01.2012 17:55 4,0 C 76 % 0,0 l/m 6,8 km/h (2 Bft) NW 308 16,1 km/h (3 Bft)
08.01.2012 17:56 4,1 C 76 % 0,0 l/m 13,1 km/h (3 Bft) O 86 17,7 km/h (3 Bft)
08.01.2012 17:57 4,1 C 76 % 0,0 l/m 6,6 km/h (2 Bft) W-NW 293 12,9 km/h (3 Bft)
08.01.2012 17:58 4,1 C 76 % 0,0 l/m 12,3 km/h (3 Bft) W-NW 302 17,7 km/h (3 Bft)
08.01.2012 17:59 4,2 C 76 % 0,0 l/m 5,4 km/h (1 Bft) W 259 11,3 km/h (2 Bft)
08.01.2012 18:00 4,2 C 76 % 0,0 l/m 10,1 km/h (2 Bft) W 273 17,7 km/h (3 Bft)
08.01.2012 18:01 4,2 C 76 % 0,0 l/m 9,7 km/h (2 Bft) W 271 14,5 km/h (3 Bft)
08.01.2012 18:02 4,2 C 76 % 0,0 l/m 5,6 km/h (1 Bft) W 265 11,3 km/h (2 Bft)
08.01.2012 18:03 4,2 C 75 % 0,0 l/m 9,3 km/h (2 Bft) NW 304 12,9 km/h (3 Bft)
08.01.2012 18:04 4,3 C 75 % 0,0 l/m 12,0 km/h (2 Bft) W 263 19,3 km/h (3 Bft)
08.01.2012 18:05 4,3 C 75 % 0,0 l/m 8,6 km/h (2 Bft) W-NW 290 20,9 km/h (4 Bft)
08.01.2012 18:06 4,3 C 75 % 0,0 l/m 11,7 km/h (2 Bft) NO 39 22,5 km/h (4 Bft)
08.01.2012 18:07 4,4 C 75 % 0,0 l/m 10,3 km/h (2 Bft) W 278 14,5 km/h (3 Bft)
08.01.2012 18:08 4,4 C 75 % 0,0 l/m 14,9 km/h (3 Bft) W-NW 297 22,5 km/h (4 Bft)
08.01.2012 18:09 4,4 C 75 % 0,0 l/m 12,9 km/h (3 Bft) W-NW 293 20,9 km/h (4 Bft)
08.01.2012 18:10 4,5 C 75 % 0,0 l/m 11,6 km/h (2 Bft) SW 224 20,9 km/h (4 Bft)
08.01.2012 18:11 4,5 C 75 % 0,0 l/m 6,8 km/h (2 Bft) NW 304 16,1 km/h (3 Bft)
08.01.2012 18:12 4,5 C 75 % 0,0 l/m 10,8 km/h (2 Bft) NW 305 14,5 km/h (3 Bft)
08.01.2012 18:13 4,5 C 75 % 0,0 l/m 10,6 km/h (2 Bft) W-NW 297 14,5 km/h (3 Bft)
08.01.2012 18:14 4,5 C 75 % 0,0 l/m 9,3 km/h (2 Bft) W-NW 284 16,1 km/h (3 Bft)
08.01.2012 18:15 4,5 C 75 % 0,0 l/m 10,5 km/h (2 Bft) NW 309 14,5 km/h (3 Bft)
08.01.2012 18:16 4,5 C 75 % 0,0 l/m 8,0 km/h (2 Bft) W-NW 300 12,9 km/h (3 Bft)
08.01.2012 18:17 4,5 C 75 % 0,0 l/m 11,5 km/h (2 Bft) NW 308 17,7 km/h (3 Bft)
08.01.2012 18:18 4,6 C 75 % 0,0 l/m 10,9 km/h (2 Bft) W-NW 296 17,7 km/h (3 Bft)
08.01.2012 18:19 4,5 C 75 % 0,0 l/m 8,6 km/h (2 Bft) NW 305 12,9 km/h (3 Bft)
08.01.2012 18:20 4,5 C 75 % 0,0 l/m 9,7 km/h (2 Bft) NW 325 16,1 km/h (3 Bft)
08.01.2012 18:21 4,5 C 75 % 0,0 l/m 10,7 km/h (2 Bft) W-NW 301 16,1 km/h (3 Bft)
08.01.2012 18:22 4,5 C 75 % 0,0 l/m 10,1 km/h (2 Bft) W-NW 301 12,9 km/h (3 Bft)
08.01.2012 18:23 4,5 C 75 % 0,0 l/m 8,7 km/h (2 Bft) NW 305 14,5 km/h (3 Bft)
08.01.2012 18:24 4,4 C 75 % 0,0 l/m 4,9 km/h (1 Bft) N-NW 329 8,0 km/h (2 Bft)
08.01.2012 18:25 4,4 C 75 % 0,0 l/m 8,2 km/h (2 Bft) NW 325 11,3 km/h (2 Bft)
08.01.2012 18:26 4,4 C 75 % 0,0 l/m 8,0 km/h (2 Bft) N-NW 333 11,3 km/h (2 Bft)
08.01.2012 18:27 4,4 C 75 % 0,0 l/m 9,3 km/h (2 Bft) N-NW 335 14,5 km/h (3 Bft)
08.01.2012 18:28 4,4 C 75 % 0,0 l/m 12,4 km/h (3 Bft) NW 304 16,1 km/h (3 Bft)
08.01.2012 18:29 4,4 C 75 % 0,0 l/m 6,6 km/h (2 Bft) W-NW 295 9,7 km/h (2 Bft)
08.01.2012 18:30 4,4 C 75 % 0,0 l/m 7,2 km/h (2 Bft) N-NW 345 12,9 km/h (3 Bft)
08.01.2012 18:31 4,3 C 75 % 0,0 l/m 10,7 km/h (2 Bft) NW 315 16,1 km/h (3 Bft)
08.01.2012 18:32 4,3 C 75 % 0,0 l/m 8,5 km/h (2 Bft) NW 308 16,1 km/h (3 Bft)
08.01.2012 18:33 4,3 C 75 % 0,0 l/m 9,0 km/h (2 Bft) N-NW 332 16,1 km/h (3 Bft)
08.01.2012 18:34 4,3 C 75 % 0,0 l/m 8,0 km/h (2 Bft) W-NW 284 14,5 km/h (3 Bft)
08.01.2012 18:35 4,3 C 75 % 0,0 l/m 5,1 km/h (1 Bft) NW 317 8,0 km/h (2 Bft)
08.01.2012 18:36 4,3 C 75 % 0,0 l/m 7,4 km/h (2 Bft) N 5 12,9 km/h (3 Bft)
08.01.2012 18:37 4,3 C 75 % 0,0 l/m 7,5 km/h (2 Bft) W-NW 291 14,5 km/h (3 Bft)
08.01.2012 18:38 4,3 C 75 % 0,0 l/m 11,9 km/h (2 Bft) W 277 19,3 km/h (3 Bft)
08.01.2012 18:39 4,3 C 75 % 0,0 l/m 12,9 km/h (3 Bft) W-NW 297 17,7 km/h (3 Bft)
08.01.2012 18:40 4,3 C 75 % 0,0 l/m 12,6 km/h (3 Bft) NW 310 20,9 km/h (4 Bft)
08.01.2012 18:41 4,3 C 75 % 0,0 l/m 10,7 km/h (2 Bft) W 263 19,3 km/h (3 Bft)
08.01.2012 18:42 4,3 C 74 % 0,0 l/m 13,7 km/h (3 Bft) W 274 19,3 km/h (3 Bft)
08.01.2012 18:43 4,4 C 74 % 0,0 l/m 17,3 km/h (3 Bft) W-NW 302 24,1 km/h (4 Bft)
08.01.2012 18:44 4,4 C 74 % 0,0 l/m 10,8 km/h (2 Bft) W-NW 300 16,1 km/h (3 Bft)
08.01.2012 18:45 4,4 C 74 % 0,0 l/m 12,4 km/h (3 Bft) W-NW 301 22,5 km/h (4 Bft)
08.01.2012 18:46 4,4 C 74 % 0,0 l/m 13,3 km/h (3 Bft) W-NW 287 22,5 km/h (4 Bft)
08.01.2012 18:47 4,4 C 74 % 0,0 l/m 13,4 km/h (3 Bft) N-NW 336 20,9 km/h (4 Bft)
08.01.2012 18:48 4,4 C 74 % 0,0 l/m 14,1 km/h (3 Bft) W-NW 296 22,5 km/h (4 Bft)
08.01.2012 18:49 4,4 C 74 % 0,0 l/m 6,8 km/h (2 Bft) W-SW 256 12,9 km/h (3 Bft)
08.01.2012 18:50 4,4 C 74 % 0,0 l/m 14,1 km/h (3 Bft) NW 312 24,1 km/h (4 Bft)
08.01.2012 18:51 4,4 C 74 % 0,0 l/m 16,5 km/h (3 Bft) W-NW 300 22,5 km/h (4 Bft)
08.01.2012 18:52 4,4 C 74 % 0,0 l/m 11,3 km/h (2 Bft) W 278 17,7 km/h (3 Bft)
08.01.2012 18:53 4,4 C 74 % 0,0 l/m 15,3 km/h (3 Bft) W 274 24,1 km/h (4 Bft)
08.01.2012 18:54 4,4 C 74 % 0,0 l/m 12,7 km/h (3 Bft) W-NW 288 19,3 km/h (3 Bft)
08.01.2012 18:55 4,4 C 74 % 0,0 l/m 15,4 km/h (3 Bft) W-NW 287 22,5 km/h (4 Bft)
08.01.2012 18:56 4,5 C 74 % 0,0 l/m 14,3 km/h (3 Bft) W-NW 294 24,1 km/h (4 Bft)
08.01.2012 18:57 4,5 C 74 % 0,0 l/m 17,4 km/h (3 Bft) W 276 24,1 km/h (4 Bft)
08.01.2012 18:58 4,5 C 73 % 0,0 l/m 12,6 km/h (3 Bft) W-NW 302 19,3 km/h (3 Bft)
08.01.2012 18:59 4,6 C 73 % 0,0 l/m 16,6 km/h (3 Bft) W-NW 283 27,4 km/h (4 Bft)
08.01.2012 19:00 4,6 C 73 % 0,0 l/m 14,4 km/h (3 Bft) W-NW 300 29,0 km/h (5 Bft)
08.01.2012 19:01 4,6 C 73 % 0,0 l/m 11,6 km/h (2 Bft) W-NW 295 17,7 km/h (3 Bft)
08.01.2012 19:02 4,6 C 73 % 0,0 l/m 7,2 km/h (2 Bft) N-NW 328 9,7 km/h (2 Bft)
08.01.2012 19:03 4,6 C 73 % 0,0 l/m 14,6 km/h (3 Bft) W-NW 300 25,7 km/h (4 Bft)
08.01.2012 19:04 4,6 C 73 % 0,0 l/m 8,1 km/h (2 Bft) W-NW 293 16,1 km/h (3 Bft)
08.01.2012 19:05 4,6 C 73 % 0,0 l/m 9,6 km/h (2 Bft) W 273 22,5 km/h (4 Bft)
08.01.2012 19:06 4,6 C 73 % 0,0 l/m 7,6 km/h (2 Bft) W-SW 250 19,3 km/h (3 Bft)
08.01.2012 19:07 4,5 C 74 % 0,0 l/m 6,0 km/h (2 Bft) NW 309 9,7 km/h (2 Bft)
08.01.2012 19:08 4,5 C 74 % 0,0 l/m 4,9 km/h (1 Bft) W 277 14,5 km/h (3 Bft)
08.01.2012 19:09 4,5 C 74 % 0,0 l/m 12,7 km/h (3 Bft) W-NW 293 19,3 km/h (3 Bft)
08.01.2012 19:10 4,5 C 74 % 0,0 l/m 10,6 km/h (2 Bft) NW 307 12,9 km/h (3 Bft)
08.01.2012 19:11 4,4 C 74 % 0,0 l/m 11,2 km/h (2 Bft) W 280 14,5 km/h (3 Bft)
08.01.2012 19:12 4,4 C 74 % 0,0 l/m 12,9 km/h (3 Bft) W-SW 255 19,3 km/h (3 Bft)
08.01.2012 19:13 4,4 C 74 % 0,0 l/m 8,7 km/h (2 Bft) W-SW 250 12,9 km/h (3 Bft)
08.01.2012 19:14 4,4 C 74 % 0,0 l/m 7,7 km/h (2 Bft) W 281 11,3 km/h (2 Bft)
08.01.2012 19:15 4,4 C 74 % 0,0 l/m 4,9 km/h (1 Bft) W-SW 257 9,7 km/h (2 Bft)
08.01.2012 19:16 4,4 C 74 % 0,0 l/m 4,6 km/h (1 Bft) N-NW 327 9,7 km/h (2 Bft)
08.01.2012 19:17 4,3 C 74 % 0,0 l/m 9,6 km/h (2 Bft) W-NW 300 16,1 km/h (3 Bft)
08.01.2012 19:18 4,3 C 74 % 0,0 l/m 8,9 km/h (2 Bft) W 281 11,3 km/h (2 Bft)
08.01.2012 19:19 4,3 C 74 % 0,0 l/m 7,6 km/h (2 Bft) W-NW 285 17,7 km/h (3 Bft)
08.01.2012 19:20 4,3 C 74 % 0,0 l/m 7,8 km/h (2 Bft) W-NW 301 12,9 km/h (3 Bft)
08.01.2012 19:21 4,3 C 74 % 0,0 l/m 8,4 km/h (2 Bft) NW 310 20,9 km/h (4 Bft)
08.01.2012 19:22 4,3 C 74 % 0,0 l/m 8,7 km/h (2 Bft) W 271 17,7 km/h (3 Bft)
08.01.2012 19:23 4,3 C 74 % 0,0 l/m 4,7 km/h (1 Bft) W-NW 293 9,7 km/h (2 Bft)
08.01.2012 19:24 4,3 C 74 % 0,0 l/m 5,4 km/h (1 Bft) W 277 16,1 km/h (3 Bft)
08.01.2012 19:25 4,3 C 75 % 0,0 l/m 9,3 km/h (2 Bft) W-SW 238 17,7 km/h (3 Bft)
08.01.2012 19:26 4,3 C 75 % 0,0 l/m 9,8 km/h (2 Bft) W-SW 252 17,7 km/h (3 Bft)
08.01.2012 19:27 4,3 C 75 % 0,0 l/m 9,3 km/h (2 Bft) W-NW 298 11,3 km/h (2 Bft)
08.01.2012 19:28 4,2 C 75 % 0,0 l/m 6,7 km/h (2 Bft) W-SW 252 16,1 km/h (3 Bft)
08.01.2012 19:29 4,2 C 75 % 0,0 l/m 5,6 km/h (1 Bft) W-SW 250 14,5 km/h (3 Bft)
08.01.2012 19:30 4,2 C 75 % 0,0 l/m 8,2 km/h (2 Bft) W-NW 301 12,9 km/h (3 Bft)
08.01.2012 19:31 4,2 C 75 % 0,0 l/m 11,7 km/h (2 Bft) W 259 17,7 km/h (3 Bft)
08.01.2012 19:32 4,3 C 75 % 0,0 l/m 8,3 km/h (2 Bft) W 276 12,9 km/h (3 Bft)
08.01.2012 19:33 4,3 C 75 % 0,0 l/m 8,9 km/h (2 Bft) W-NW 282 11,3 km/h (2 Bft)
08.01.2012 19:34 4,2 C 75 % 0,0 l/m 11,2 km/h (2 Bft) W 274 19,3 km/h (3 Bft)
08.01.2012 19:35 4,3 C 75 % 0,0 l/m 7,7 km/h (2 Bft) O-SO 121 11,3 km/h (2 Bft)
08.01.2012 19:36 4,3 C 75 % 0,0 l/m 7,6 km/h (2 Bft) W-NW 296 12,9 km/h (3 Bft)
08.01.2012 19:37 4,3 C 74 % 0,0 l/m 11,2 km/h (2 Bft) W 269 16,1 km/h (3 Bft)
08.01.2012 19:38 4,3 C 74 % 0,0 l/m 9,8 km/h (2 Bft) W-NW 289 19,3 km/h (3 Bft)
08.01.2012 19:39 4,3 C 74 % 0,0 l/m 12,9 km/h (3 Bft) W-NW 284 20,9 km/h (4 Bft)
08.01.2012 19:40 4,3 C 74 % 0,0 l/m 10,6 km/h (2 Bft) W 264 16,1 km/h (3 Bft)
08.01.2012 19:41 4,4 C 74 % 0,0 l/m 9,8 km/h (2 Bft) W 259 19,3 km/h (3 Bft)
08.01.2012 19:42 4,4 C 74 % 0,0 l/m 10,5 km/h (2 Bft) W-NW 300 14,5 km/h (3 Bft)
08.01.2012 19:43 4,4 C 74 % 0,0 l/m 5,6 km/h (1 Bft) W-SW 256 12,9 km/h (3 Bft)
08.01.2012 19:44 4,4 C 74 % 0,0 l/m 9,9 km/h (2 Bft) W 278 14,5 km/h (3 Bft)
08.01.2012 19:45 4,4 C 74 % 0,0 l/m 11,1 km/h (2 Bft) W-SW 244 20,9 km/h (4 Bft)
08.01.2012 19:46 4,4 C 74 % 0,0 l/m 15,4 km/h (3 Bft) W-NW 295 24,1 km/h (4 Bft)
08.01.2012 19:47 4,4 C 74 % 0,0 l/m 15,6 km/h (3 Bft) W 263 25,7 km/h (4 Bft)
08.01.2012 19:48 4,4 C 74 % 0,0 l/m 15,2 km/h (3 Bft) SW 233 27,4 km/h (4 Bft)
08.01.2012 19:49 4,4 C 74 % 0,0 l/m 10,5 km/h (2 Bft) W-NW 297 24,1 km/h (4 Bft)
08.01.2012 19:50 4,4 C 74 % 0,0 l/m 15,1 km/h (3 Bft) W-NW 300 22,5 km/h (4 Bft)
08.01.2012 19:51 4,4 C 74 % 0,0 l/m 18,0 km/h (3 Bft) SW 219 30,6 km/h (5 Bft)
08.01.2012 19:52 4,4 C 74 % 0,0 l/m 11,3 km/h (2 Bft) N-NO 29 19,3 km/h (3 Bft)
08.01.2012 19:53 4,4 C 74 % 0,0 l/m 11,7 km/h (2 Bft) W-SW 253 25,7 km/h (4 Bft)
08.01.2012 19:54 4,4 C 74 % 0,0 l/m 8,0 km/h (2 Bft) NW 317 14,5 km/h (3 Bft)
08.01.2012 19:55 4,4 C 74 % 0,0 l/m 7,0 km/h (2 Bft) W-SW 255 17,7 km/h (3 Bft)
08.01.2012 19:56 4,4 C 74 % 0,0 l/m 11,6 km/h (2 Bft) W-NW 297 19,3 km/h (3 Bft)
08.01.2012 19:57 4,4 C 75 % 0,0 l/m 13,2 km/h (3 Bft) W 264 24,1 km/h (4 Bft)
08.01.2012 19:58 4,4 C 75 % 0,0 l/m 8,7 km/h (2 Bft) NO 45 14,5 km/h (3 Bft)
08.01.2012 19:59 4,4 C 75 % 0,0 l/m 17,9 km/h (3 Bft) W 269 32,2 km/h (5 Bft)
08.01.2012 20:00 4,4 C 75 % 0,0 l/m 12,8 km/h (3 Bft) W 269 24,1 km/h (4 Bft)
08.01.2012 20:01 4,4 C 75 % 0,0 l/m 11,3 km/h (2 Bft) W 264 29,0 km/h (5 Bft)
08.01.2012 20:02 4,4 C 75 % 0,0 l/m 10,5 km/h (2 Bft) O 88 22,5 km/h (4 Bft)
08.01.2012 20:03 4,4 C 75 % 0,0 l/m 13,3 km/h (3 Bft) W 260 22,5 km/h (4 Bft)
08.01.2012 20:04 4,4 C 75 % 0,0 l/m 11,9 km/h (2 Bft) W 278 19,3 km/h (3 Bft)
08.01.2012 20:05 4,4 C 75 % 0,0 l/m 12,5 km/h (3 Bft) NW 304 19,3 km/h (3 Bft)
08.01.2012 20:06 4,4 C 75 % 0,0 l/m 11,2 km/h (2 Bft) N-NW 330 16,1 km/h (3 Bft)
08.01.2012 20:07 4,4 C 76 % 0,0 l/m 6,2 km/h (2 Bft) SW 226 11,3 km/h (2 Bft)
08.01.2012 20:08 4,3 C 76 % 0,0 l/m 9,6 km/h (2 Bft) W-SW 250 25,7 km/h (4 Bft)
08.01.2012 20:09 4,3 C 76 % 0,0 l/m 15,4 km/h (3 Bft) W-NW 295 29,0 km/h (5 Bft)
08.01.2012 20:10 4,3 C 76 % 0,0 l/m 10,7 km/h (2 Bft) W 277 17,7 km/h (3 Bft)
08.01.2012 20:11 4,3 C 76 % 0,0 l/m 13,4 km/h (3 Bft) W-SW 253 19,3 km/h (3 Bft)
08.01.2012 20:12 4,3 C 76 % 0,0 l/m 5,8 km/h (2 Bft) NW 308 12,9 km/h (3 Bft)
08.01.2012 20:13 4,3 C 76 % 0,0 l/m 5,0 km/h (1 Bft) NW 304 8,0 km/h (2 Bft)
08.01.2012 20:14 4,3 C 76 % 0,0 l/m 8,0 km/h (2 Bft) W-SW 257 19,3 km/h (3 Bft)
08.01.2012 20:15 4,3 C 76 % 0,0 l/m 15,4 km/h (3 Bft) W-NW 302 24,1 km/h (4 Bft)
08.01.2012 20:16 4,3 C 76 % 0,0 l/m 12,1 km/h (2 Bft) W-SW 252 17,7 km/h (3 Bft)
08.01.2012 20:17 4,3 C 77 % 0,0 l/m 11,5 km/h (2 Bft) W-NW 298 22,5 km/h (4 Bft)
08.01.2012 20:18 4,3 C 77 % 0,0 l/m 11,7 km/h (2 Bft) NW 311 17,7 km/h (3 Bft)
08.01.2012 20:19 4,3 C 77 % 0,0 l/m 6,2 km/h (2 Bft) N 352 12,9 km/h (3 Bft)
08.01.2012 20:20 4,2 C 77 % 0,0 l/m 7,1 km/h (2 Bft) SW 232 11,3 km/h (2 Bft)
08.01.2012 20:21 4,2 C 77 % 0,0 l/m 6,5 km/h (2 Bft) NW 304 14,5 km/h (3 Bft)
08.01.2012 20:22 4,2 C 77 % 0,0 l/m 10,4 km/h (2 Bft) W 270 16,1 km/h (3 Bft)
08.01.2012 20:23 4,2 C 77 % 0,0 l/m 6,6 km/h (2 Bft) W-SW 240 16,1 km/h (3 Bft)
08.01.2012 20:24 4,2 C 77 % 0,0 l/m 4,0 km/h (1 Bft) NW 319 11,3 km/h (2 Bft)
08.01.2012 20:25 4,2 C 78 % 0,0 l/m 8,4 km/h (2 Bft) W 277 12,9 km/h (3 Bft)
08.01.2012 20:26 4,2 C 78 % 0,0 l/m 11,0 km/h (2 Bft) W 267 17,7 km/h (3 Bft)
08.01.2012 20:27 4,2 C 78 % 0,0 l/m 6,8 km/h (2 Bft) W 274 12,9 km/h (3 Bft)
08.01.2012 20:28 4,2 C 78 % 0,0 l/m 9,7 km/h (2 Bft) W-NW 296 14,5 km/h (3 Bft)
08.01.2012 20:29 4,2 C 78 % 0,0 l/m 10,7 km/h (2 Bft) W-SW 256 14,5 km/h (3 Bft)
08.01.2012 20:30 4,2 C 78 % 0,0 l/m 7,2 km/h (2 Bft) NW 313 14,5 km/h (3 Bft)
08.01.2012 20:31 4,2 C 78 % 0,0 l/m 8,9 km/h (2 Bft) W-NW 285 14,5 km/h (3 Bft)
08.01.2012 20:32 4,2 C 78 % 0,0 l/m 7,6 km/h (2 Bft) S 179 14,5 km/h (3 Bft)
08.01.2012 20:33 4,1 C 78 % 0,0 l/m 6,3 km/h (2 Bft) W 280 12,9 km/h (3 Bft)
08.01.2012 20:34 4,1 C 78 % 0,0 l/m 7,8 km/h (2 Bft) NW 314 12,9 km/h (3 Bft)
08.01.2012 20:35 4,1 C 78 % 0,0 l/m 8,9 km/h (2 Bft) W-NW 291 14,5 km/h (3 Bft)
08.01.2012 20:36 4,1 C 78 % 0,0 l/m 10,6 km/h (2 Bft) N-NW 327 17,7 km/h (3 Bft)
08.01.2012 20:37 4,1 C 78 % 0,0 l/m 9,0 km/h (2 Bft) NW 306 16,1 km/h (3 Bft)
08.01.2012 20:38 4,1 C 78 % 0,0 l/m 15,6 km/h (3 Bft) W-NW 295 22,5 km/h (4 Bft)
08.01.2012 20:39 4,1 C 78 % 0,0 l/m 8,3 km/h (2 Bft) W-NW 285 14,5 km/h (3 Bft)
08.01.2012 20:40 4,1 C 78 % 0,0 l/m 6,2 km/h (2 Bft) N-NW 347 11,3 km/h (2 Bft)
08.01.2012 20:41 4,1 C 78 % 0,0 l/m 4,7 km/h (1 Bft) S-SW 203 9,7 km/h (2 Bft)
08.01.2012 20:42 4,1 C 78 % 0,0 l/m 7,8 km/h (2 Bft) W-SW 240 14,5 km/h (3 Bft)
08.01.2012 20:43 4,1 C 78 % 0,0 l/m 11,5 km/h (2 Bft) N-NW 332 16,1 km/h (3 Bft)
08.01.2012 20:44 4,1 C 78 % 0,0 l/m 11,4 km/h (2 Bft) W 269 17,7 km/h (3 Bft)
08.01.2012 20:45 4,1 C 78 % 0,0 l/m 7,7 km/h (2 Bft) W-SW 252 11,3 km/h (2 Bft)
08.01.2012 20:46 4,1 C 78 % 0,0 l/m 11,8 km/h (2 Bft) W-SW 243 16,1 km/h (3 Bft)
08.01.2012 20:47 4,1 C 78 % 0,0 l/m 10,0 km/h (2 Bft) W-SW 252 16,1 km/h (3 Bft)
08.01.2012 20:48 4,1 C 78 % 0,0 l/m 12,2 km/h (2 Bft) W-SW 243 19,3 km/h (3 Bft)
08.01.2012 20:49 4,1 C 78 % 0,0 l/m 7,2 km/h (2 Bft) W-NW 297 12,9 km/h (3 Bft)
08.01.2012 20:50 4,1 C 78 % 0,0 l/m 8,2 km/h (2 Bft) W-SW 245 16,1 km/h (3 Bft)
08.01.2012 20:51 4,1 C 78 % 0,0 l/m 6,3 km/h (2 Bft) W 274 11,3 km/h (2 Bft)
08.01.2012 20:52 4,1 C 79 % 0,0 l/m 9,6 km/h (2 Bft) W 277 14,5 km/h (3 Bft)
08.01.2012 20:53 4,1 C 79 % 0,0 l/m 7,3 km/h (2 Bft) W-SW 255 11,3 km/h (2 Bft)
08.01.2012 20:54 4,1 C 79 % 0,0 l/m 9,0 km/h (2 Bft) O-SO 105 17,7 km/h (3 Bft)
08.01.2012 20:55 4,1 C 79 % 0,0 l/m 6,7 km/h (2 Bft) W 280 11,3 km/h (2 Bft)
08.01.2012 20:56 4,1 C 79 % 0,0 l/m 9,5 km/h (2 Bft) W-NW 284 16,1 km/h (3 Bft)
08.01.2012 20:57 4,1 C 79 % 0,0 l/m 6,9 km/h (2 Bft) W-NW 293 12,9 km/h (3 Bft)
08.01.2012 20:58 4,1 C 79 % 0,0 l/m 7,4 km/h (2 Bft) W-SW 238 12,9 km/h (3 Bft)
08.01.2012 20:59 4,1 C 79 % 0,0 l/m 8,2 km/h (2 Bft) W 260 12,9 km/h (3 Bft)
08.01.2012 21:00 4,1 C 79 % 0,0 l/m 8,2 km/h (2 Bft) W 277 14,5 km/h (3 Bft)
08.01.2012 21:01 4,1 C 79 % 0,0 l/m 6,0 km/h (2 Bft) W 271 11,3 km/h (2 Bft)
08.01.2012 21:02 4,1 C 79 % 0,0 l/m 9,3 km/h (2 Bft) SW 222 14,5 km/h (3 Bft)
08.01.2012 21:03 4,1 C 79 % 0,0 l/m 11,3 km/h (2 Bft) W 281 16,1 km/h (3 Bft)
08.01.2012 21:04 4,1 C 79 % 0,0 l/m 6,2 km/h (2 Bft) O-SO 120 9,7 km/h (2 Bft)
08.01.2012 21:05 4,1 C 79 % 0,0 l/m 6,8 km/h (2 Bft) W-SW 238 9,7 km/h (2 Bft)
08.01.2012 21:06 4,1 C 79 % 0,0 l/m 9,0 km/h (2 Bft) O-NO 75 12,9 km/h (3 Bft)
08.01.2012 21:07 4,0 C 79 % 0,0 l/m 7,0 km/h (2 Bft) NW 310 14,5 km/h (3 Bft)
08.01.2012 21:08 4,0 C 79 % 0,0 l/m 6,5 km/h (2 Bft) W-NW 288 11,3 km/h (2 Bft)
08.01.2012 21:09 4,0 C 79 % 0,0 l/m 6,8 km/h (2 Bft) W 276 11,3 km/h (2 Bft)
08.01.2012 21:10 4,0 C 79 % 0,0 l/m 5,4 km/h (1 Bft) O 96 8,0 km/h (2 Bft)
08.01.2012 21:11 4,0 C 79 % 0,0 l/m 5,6 km/h (1 Bft) SW 232 9,7 km/h (2 Bft)
08.01.2012 21:12 3,9 C 79 % 0,0 l/m 3,4 km/h (1 Bft) W 269 6,4 km/h (2 Bft)
08.01.2012 21:13 3,9 C 79 % 0,0 l/m 7,0 km/h (2 Bft) W-SW 250 11,3 km/h (2 Bft)
08.01.2012 21:14 3,9 C 79 % 0,0 l/m 8,6 km/h (2 Bft) W-SW 240 14,5 km/h (3 Bft)
08.01.2012 21:15 3,9 C 79 % 0,0 l/m 6,1 km/h (2 Bft) SW 228 8,0 km/h (2 Bft)
08.01.2012 21:16 3,9 C 80 % 0,0 l/m 11,2 km/h (2 Bft) SW 214 12,9 km/h (3 Bft)
08.01.2012 21:17 3,9 C 80 % 0,0 l/m 8,9 km/h (2 Bft) SW 235 11,3 km/h (2 Bft)
08.01.2012 21:18 3,8 C 80 % 0,0 l/m 6,2 km/h (2 Bft) SW 218 11,3 km/h (2 Bft)
08.01.2012 21:19 3,8 C 80 % 0,0 l/m 6,8 km/h (2 Bft) N-NW 328 9,7 km/h (2 Bft)
08.01.2012 21:20 3,8 C 80 % 0,0 l/m 7,6 km/h (2 Bft) SW 225 12,9 km/h (3 Bft)
08.01.2012 21:21 3,7 C 80 % 0,0 l/m 9,5 km/h (2 Bft) SW 218 12,9 km/h (3 Bft)
08.01.2012 21:22 3,7 C 80 % 0,0 l/m 11,1 km/h (2 Bft) W 271 16,1 km/h (3 Bft)
08.01.2012 21:23 3,7 C 80 % 0,0 l/m 8,2 km/h (2 Bft) W 261 11,3 km/h (2 Bft)
08.01.2012 21:24 3,7 C 80 % 0,0 l/m 9,4 km/h (2 Bft) W-SW 242 11,3 km/h (2 Bft)
08.01.2012 21:25 3,7 C 80 % 0,0 l/m 10,3 km/h (2 Bft) W-SW 242 14,5 km/h (3 Bft)
08.01.2012 21:26 3,7 C 80 % 0,0 l/m 10,9 km/h (2 Bft) S-SW 208 14,5 km/h (3 Bft)
08.01.2012 21:27 3,7 C 80 % 0,0 l/m 11,8 km/h (2 Bft) W 267 17,7 km/h (3 Bft)
08.01.2012 21:28 3,7 C 80 % 0,0 l/m 7,1 km/h (2 Bft) W-SW 238 11,3 km/h (2 Bft)
08.01.2012 21:29 3,7 C 80 % 0,0 l/m 11,2 km/h (2 Bft) W 271 17,7 km/h (3 Bft)
08.01.2012 21:30 3,7 C 80 % 0,0 l/m 12,0 km/h (2 Bft) W-NW 302 16,1 km/h (3 Bft)
08.01.2012 21:31 3,7 C 80 % 0,0 l/m 6,6 km/h (2 Bft) W-SW 246 14,5 km/h (3 Bft)
08.01.2012 21:32 3,7 C 80 % 0,0 l/m 9,8 km/h (2 Bft) W 263 14,5 km/h (3 Bft)
08.01.2012 21:33 3,7 C 80 % 0,0 l/m 9,3 km/h (2 Bft) W-SW 255 12,9 km/h (3 Bft)
08.01.2012 21:34 3,7 C 80 % 0,0 l/m 13,1 km/h (3 Bft) SW 229 16,1 km/h (3 Bft)
08.01.2012 21:35 3,7 C 80 % 0,0 l/m 12,6 km/h (3 Bft) NO 43 22,5 km/h (4 Bft)
08.01.2012 21:36 3,7 C 80 % 0,0 l/m 7,3 km/h (2 Bft) W-SW 255 12,9 km/h (3 Bft)
08.01.2012 21:37 3,7 C 80 % 0,0 l/m 10,5 km/h (2 Bft) W-SW 255 14,5 km/h (3 Bft)
08.01.2012 21:38 3,7 C 80 % 0,0 l/m 13,8 km/h (3 Bft) SW 226 17,7 km/h (3 Bft)
08.01.2012 21:39 3,8 C 80 % 0,0 l/m 12,0 km/h (2 Bft) W 267 14,5 km/h (3 Bft)
08.01.2012 21:40 3,8 C 79 % 0,0 l/m 8,9 km/h (2 Bft) W 259 12,9 km/h (3 Bft)
08.01.2012 21:41 3,7 C 80 % 0,0 l/m 7,6 km/h (2 Bft) W-SW 241 12,9 km/h (3 Bft)
08.01.2012 21:42 3,7 C 80 % 0,0 l/m 10,7 km/h (2 Bft) SW 232 16,1 km/h (3 Bft)
08.01.2012 21:43 3,7 C 80 % 0,0 l/m 10,8 km/h (2 Bft) W-SW 243 14,5 km/h (3 Bft)
08.01.2012 21:44 3,7 C 80 % 0,0 l/m 8,8 km/h (2 Bft) W-SW 257 14,5 km/h (3 Bft)
08.01.2012 21:45 3,7 C 80 % 0,0 l/m 13,9 km/h (3 Bft) W-SW 241 19,3 km/h (3 Bft)
08.01.2012 21:46 3,7 C 80 % 0,0 l/m 11,7 km/h (2 Bft) W-SW 237 17,7 km/h (3 Bft)
08.01.2012 21:47 3,7 C 80 % 0,0 l/m 14,4 km/h (3 Bft) W-SW 243 19,3 km/h (3 Bft)
08.01.2012 21:48 3,7 C 80 % 0,0 l/m 11,6 km/h (2 Bft) W-SW 239 16,1 km/h (3 Bft)
08.01.2012 21:49 3,7 C 80 % 0,0 l/m 11,5 km/h (2 Bft) N-NO 25 16,1 km/h (3 Bft)
08.01.2012 21:50 3,7 C 80 % 0,0 l/m 11,1 km/h (2 Bft) W 261 17,7 km/h (3 Bft)
08.01.2012 21:51 3,7 C 80 % 0,0 l/m 9,3 km/h (2 Bft) SW 225 16,1 km/h (3 Bft)
08.01.2012 21:52 3,7 C 80 % 0,0 l/m 10,3 km/h (2 Bft) W-NW 295 16,1 km/h (3 Bft)
08.01.2012 21:53 3,7 C 80 % 0,0 l/m 7,6 km/h (2 Bft) W 280 9,7 km/h (2 Bft)
08.01.2012 21:54 3,7 C 80 % 0,0 l/m 10,4 km/h (2 Bft) W 273 16,1 km/h (3 Bft)
08.01.2012 21:55 3,7 C 80 % 0,0 l/m 11,5 km/h (2 Bft) W 263 14,5 km/h (3 Bft)
08.01.2012 21:56 3,7 C 80 % 0,0 l/m 13,2 km/h (3 Bft) W-SW 245 19,3 km/h (3 Bft)
08.01.2012 21:57 3,7 C 80 % 0,0 l/m 9,7 km/h (2 Bft) W-SW 245 16,1 km/h (3 Bft)
08.01.2012 21:58 3,8 C 80 % 0,0 l/m 11,8 km/h (2 Bft) W-SW 241 17,7 km/h (3 Bft)
08.01.2012 21:59 3,8 C 80 % 0,0 l/m 11,9 km/h (2 Bft) W-SW 248 12,9 km/h (3 Bft)
08.01.2012 22:00 3,8 C 80 % 0,0 l/m 12,5 km/h (3 Bft) W-SW 239 16,1 km/h (3 Bft)
08.01.2012 22:01 3,8 C 80 % 0,0 l/m 13,1 km/h (3 Bft) W-SW 242 16,1 km/h (3 Bft)
08.01.2012 22:02 3,8 C 80 % 0,0 l/m 12,7 km/h (3 Bft) SW 222 16,1 km/h (3 Bft)
08.01.2012 22:03 3,8 C 80 % 0,0 l/m 12,1 km/h (2 Bft) W-SW 237 17,7 km/h (3 Bft)
08.01.2012 22:04 3,8 C 79 % 0,0 l/m 10,2 km/h (2 Bft) W-SW 242 14,5 km/h (3 Bft)
08.01.2012 22:05 3,8 C 80 % 0,0 l/m 9,7 km/h (2 Bft) SW 235 12,9 km/h (3 Bft)
08.01.2012 22:06 3,8 C 80 % 0,0 l/m 10,1 km/h (2 Bft) SW 231 14,5 km/h (3 Bft)
08.01.2012 22:07 3,8 C 80 % 0,0 l/m 12,5 km/h (3 Bft) SW 228 16,1 km/h (3 Bft)
08.01.2012 22:08 3,8 C 80 % 0,0 l/m 8,2 km/h (2 Bft) SW 236 12,9 km/h (3 Bft)
08.01.2012 22:09 3,8 C 80 % 0,0 l/m 12,3 km/h (3 Bft) SW 225 16,1 km/h (3 Bft)
08.01.2012 22:10 3,8 C 80 % 0,0 l/m 11,9 km/h (2 Bft) W-SW 242 14,5 km/h (3 Bft)
08.01.2012 22:11 3,8 C 80 % 0,0 l/m 10,3 km/h (2 Bft) W-SW 257 12,9 km/h (3 Bft)
08.01.2012 22:12 3,8 C 80 % 0,0 l/m 13,2 km/h (3 Bft) W 281 17,7 km/h (3 Bft)
08.01.2012 22:13 3,8 C 80 % 0,0 l/m 9,7 km/h (2 Bft) SW 231 11,3 km/h (2 Bft)
08.01.2012 22:14 3,8 C 80 % 0,0 l/m 9,3 km/h (2 Bft) W-NW 290 12,9 km/h (3 Bft)
08.01.2012 22:15 3,8 C 80 % 0,0 l/m 8,4 km/h (2 Bft) S-SO 152 11,3 km/h (2 Bft)
08.01.2012 22:16 3,8 C 80 % 0,0 l/m 8,3 km/h (2 Bft) W-SW 242 14,5 km/h (3 Bft)
08.01.2012 22:17 3,8 C 80 % 0,0 l/m 9,1 km/h (2 Bft) W-SW 248 12,9 km/h (3 Bft)
08.01.2012 22:18 3,8 C 80 % 0,0 l/m 10,8 km/h (2 Bft) S 181 14,5 km/h (3 Bft)
08.01.2012 22:19 3,8 C 80 % 0,0 l/m 9,3 km/h (2 Bft) W-SW 250 14,5 km/h (3 Bft)
08.01.2012 22:20 3,9 C 79 % 0,0 l/m 5,4 km/h (1 Bft) W-SW 248 11,3 km/h (2 Bft)
08.01.2012 22:21 3,9 C 79 % 0,0 l/m 5,8 km/h (2 Bft) W 267 9,7 km/h (2 Bft)
08.01.2012 22:22 3,9 C 79 % 0,0 l/m 5,5 km/h (1 Bft) W 262 8,0 km/h (2 Bft)
08.01.2012 22:23 3,9 C 79 % 0,0 l/m 4,8 km/h (1 Bft) SW 236 6,4 km/h (2 Bft)
08.01.2012 22:24 3,9 C 79 % 0,0 l/m 3,8 km/h (1 Bft) NW 312 8,0 km/h (2 Bft)
08.01.2012 22:25 3,9 C 79 % 0,0 l/m 2,0 km/h (1 Bft) W 269 3,2 km/h (1 Bft)
08.01.2012 22:26 3,9 C 79 % 0,0 l/m 2,3 km/h (1 Bft) W-NW 283 4,8 km/h (1 Bft)
08.01.2012 22:27 3,9 C 80 % 0,0 l/m 3,7 km/h (1 Bft) W 270 8,0 km/h (2 Bft)
08.01.2012 22:28 3,9 C 80 % 0,0 l/m 5,2 km/h (1 Bft) SW 232 9,7 km/h (2 Bft)
08.01.2012 22:29 3,9 C 80 % 0,0 l/m 7,2 km/h (2 Bft) W-SW 241 12,9 km/h (3 Bft)
08.01.2012 22:30 3,9 C 79 % 0,0 l/m 8,8 km/h (2 Bft) N 8 11,3 km/h (2 Bft)
08.01.2012 22:31 4,0 C 79 % 0,0 l/m 7,2 km/h (2 Bft) S-SW 198 9,7 km/h (2 Bft)
08.01.2012 22:32 4,0 C 79 % 0,0 l/m 7,5 km/h (2 Bft) SW 231 11,3 km/h (2 Bft)
08.01.2012 22:33 4,1 C 79 % 0,0 l/m 8,7 km/h (2 Bft) W-SW 250 11,3 km/h (2 Bft)
08.01.2012 22:34 4,1 C 79 % 0,0 l/m 8,0 km/h (2 Bft) W 264 11,3 km/h (2 Bft)
08.01.2012 22:35 4,1 C 79 % 0,0 l/m 8,4 km/h (2 Bft) W-SW 252 11,3 km/h (2 Bft)
08.01.2012 22:36 4,1 C 79 % 0,0 l/m 8,1 km/h (2 Bft) N 353 14,5 km/h (3 Bft)
08.01.2012 22:37 4,1 C 79 % 0,0 l/m 3,2 km/h (1 Bft) SW 215 8,0 km/h (2 Bft)
08.01.2012 22:38 4,1 C 79 % 0,0 l/m 4,7 km/h (1 Bft) SW 218 8,0 km/h (2 Bft)
08.01.2012 22:39 4,1 C 79 % 0,0 l/m 3,0 km/h (1 Bft) W-NW 288 6,4 km/h (2 Bft)
08.01.2012 22:40 4,1 C 79 % 0,0 l/m 2,9 km/h (1 Bft) S-SW 194 4,8 km/h (1 Bft)
08.01.2012 22:41 4,1 C 79 % 0,0 l/m 4,3 km/h (1 Bft) W-SW 245 9,7 km/h (2 Bft)
08.01.2012 22:42 4,1 C 79 % 0,0 l/m 7,9 km/h (2 Bft) W-SW 248 9,7 km/h (2 Bft)
08.01.2012 22:43 4,1 C 79 % 0,0 l/m 7,2 km/h (2 Bft) W-NW 294 11,3 km/h (2 Bft)
08.01.2012 22:44 4,1 C 79 % 0,0 l/m 3,8 km/h (1 Bft) O-SO 109 6,4 km/h (2 Bft)
08.01.2012 22:45 4,1 C 79 % 0,0 l/m 4,4 km/h (1 Bft) S-SW 211 8,0 km/h (2 Bft)
08.01.2012 22:46 4,1 C 79 % 0,0 l/m 4,7 km/h (1 Bft) W 259 6,4 km/h (2 Bft)
08.01.2012 22:47 4,1 C 79 % 0,0 l/m 6,0 km/h (2 Bft) W-SW 254 8,0 km/h (2 Bft)
08.01.2012 22:48 4,1 C 79 % 0,0 l/m 4,0 km/h (1 Bft) W 273 8,0 km/h (2 Bft)
08.01.2012 22:49 4,1 C 79 % 0,0 l/m 2,8 km/h (1 Bft) W 276 4,8 km/h (1 Bft)
08.01.2012 22:50 4,1 C 79 % 0,0 l/m 8,2 km/h (2 Bft) SW 224 11,3 km/h (2 Bft)
08.01.2012 22:51 4,1 C 79 % 0,0 l/m 5,4 km/h (1 Bft) W-SW 245 8,0 km/h (2 Bft)
08.01.2012 22:52 4,1 C 79 % 0,0 l/m 2,7 km/h (1 Bft) W-NW 284 4,8 km/h (1 Bft)
08.01.2012 22:53 4,1 C 79 % 0,0 l/m 4,3 km/h (1 Bft) SW 215 8,0 km/h (2 Bft)
08.01.2012 22:54 4,1 C 79 % 0,0 l/m 6,6 km/h (2 Bft) W-SW 250 11,3 km/h (2 Bft)
08.01.2012 22:55 4,1 C 79 % 0,0 l/m 4,1 km/h (1 Bft) SW 235 8,0 km/h (2 Bft)
08.01.2012 22:56 4,1 C 79 % 0,0 l/m 6,9 km/h (2 Bft) W-SW 237 9,7 km/h (2 Bft)
08.01.2012 22:57 4,1 C 79 % 0,0 l/m 7,3 km/h (2 Bft) W-SW 250 9,7 km/h (2 Bft)
08.01.2012 22:58 4,1 C 79 % 0,0 l/m 4,4 km/h (1 Bft) SW 232 8,0 km/h (2 Bft)
08.01.2012 22:59 4,1 C 79 % 0,0 l/m 8,0 km/h (2 Bft) W-SW 248 11,3 km/h (2 Bft)
08.01.2012 23:00 4,1 C 79 % 0,0 l/m 6,4 km/h (2 Bft) SW 228 8,0 km/h (2 Bft)
08.01.2012 23:01 4,1 C 80 % 0,0 l/m 6,9 km/h (2 Bft) SW 224 9,7 km/h (2 Bft)
08.01.2012 23:02 4,1 C 80 % 0,0 l/m 7,2 km/h (2 Bft) SW 224 9,7 km/h (2 Bft)
08.01.2012 23:03 4,1 C 80 % 0,0 l/m 9,1 km/h (2 Bft) SW 236 11,3 km/h (2 Bft)
08.01.2012 23:04 4,1 C 80 % 0,0 l/m 6,9 km/h (2 Bft) W-SW 255 11,3 km/h (2 Bft)
08.01.2012 23:05 4,1 C 80 % 0,0 l/m 10,0 km/h (2 Bft) W-SW 240 12,9 km/h (3 Bft)
08.01.2012 23:06 4,1 C 80 % 0,0 l/m 10,0 km/h (2 Bft) SW 215 11,3 km/h (2 Bft)
08.01.2012 23:07 4,1 C 80 % 0,0 l/m 5,5 km/h (1 Bft) W 270 9,7 km/h (2 Bft)
08.01.2012 23:08 4,1 C 80 % 0,2 l/m 4,4 km/h (1 Bft) SW 224 6,4 km/h (2 Bft)
08.01.2012 23:09 4,1 C 80 % 0,0 l/m 4,8 km/h (1 Bft) W 271 8,0 km/h (2 Bft)
08.01.2012 23:10 4,1 C 80 % 0,0 l/m 5,6 km/h (1 Bft) W-SW 250 11,3 km/h (2 Bft)
08.01.2012 23:11 4,1 C 80 % 0,0 l/m 8,6 km/h (2 Bft) W-NW 288 12,9 km/h (3 Bft)
08.01.2012 23:12 4,1 C 80 % 0,0 l/m 8,0 km/h (2 Bft) S-SW 207 11,3 km/h (2 Bft)
08.01.2012 23:13 4,1 C 80 % 0,0 l/m 8,2 km/h (2 Bft) W 281 11,3 km/h (2 Bft)
08.01.2012 23:14 4,2 C 80 % 0,0 l/m 3,7 km/h (1 Bft) W 260 6,4 km/h (2 Bft)
08.01.2012 23:15 4,2 C 80 % 0,0 l/m 8,4 km/h (2 Bft) N 5 12,9 km/h (3 Bft)
08.01.2012 23:16 4,2 C 80 % 0,0 l/m 3,9 km/h (1 Bft) W-SW 255 12,9 km/h (3 Bft)
08.01.2012 23:17 4,2 C 80 % 0,0 l/m 3,2 km/h (1 Bft) SW 224 6,4 km/h (2 Bft)
08.01.2012 23:18 4,2 C 80 % 0,0 l/m 5,9 km/h (2 Bft) W-SW 252 11,3 km/h (2 Bft)
08.01.2012 23:19 4,2 C 80 % 0,0 l/m 8,2 km/h (2 Bft) W 271 11,3 km/h (2 Bft)
08.01.2012 23:20 4,2 C 80 % 0,0 l/m 6,7 km/h (2 Bft) W 278 9,7 km/h (2 Bft)
08.01.2012 23:21 4,2 C 79 % 0,0 l/m 7,6 km/h (2 Bft) NW 304 11,3 km/h (2 Bft)
08.01.2012 23:22 4,3 C 79 % 0,0 l/m 6,0 km/h (2 Bft) NW 318 9,7 km/h (2 Bft)
08.01.2012 23:23 4,2 C 79 % 0,0 l/m 9,2 km/h (2 Bft) W-SW 256 12,9 km/h (3 Bft)
08.01.2012 23:24 4,3 C 79 % 0,0 l/m 3,5 km/h (1 Bft) W 259 9,7 km/h (2 Bft)
08.01.2012 23:25 4,3 C 79 % 0,0 l/m 1,7 km/h (1 Bft) W-SW 256 3,2 km/h (1 Bft)
08.01.2012 23:26 4,2 C 79 % 0,0 l/m 5,1 km/h (1 Bft) S-SO 147 9,7 km/h (2 Bft)
08.01.2012 23:27 4,3 C 79 % 0,0 l/m 3,6 km/h (1 Bft) W 269 6,4 km/h (2 Bft)
08.01.2012 23:28 4,2 C 79 % 0,0 l/m 4,2 km/h (1 Bft) W-SW 245 6,4 km/h (2 Bft)
08.01.2012 23:29 4,2 C 80 % 0,0 l/m 6,3 km/h (2 Bft) W-NW 291 11,3 km/h (2 Bft)
08.01.2012 23:30 4,2 C 80 % 0,0 l/m 5,0 km/h (1 Bft) W-NW 293 11,3 km/h (2 Bft)
08.01.2012 23:31 4,3 C 79 % 0,0 l/m 9,4 km/h (2 Bft) W-NW 288 14,5 km/h (3 Bft)
08.01.2012 23:32 4,3 C 79 % 0,0 l/m 8,0 km/h (2 Bft) W-NW 297 11,3 km/h (2 Bft)
08.01.2012 23:33 4,3 C 79 % 0,0 l/m 4,7 km/h (1 Bft) W-NW 297 9,7 km/h (2 Bft)
08.01.2012 23:34 4,3 C 79 % 0,0 l/m 3,4 km/h (1 Bft) W-SW 245 6,4 km/h (2 Bft)
08.01.2012 23:35 4,3 C 79 % 0,0 l/m 5,8 km/h (2 Bft) W-SW 249 11,3 km/h (2 Bft)
08.01.2012 23:36 4,3 C 79 % 0,0 l/m 8,1 km/h (2 Bft) W-NW 287 9,7 km/h (2 Bft)
08.01.2012 23:37 4,3 C 79 % 0,0 l/m 4,3 km/h (1 Bft) SW 236 8,0 km/h (2 Bft)
08.01.2012 23:38 4,2 C 79 % 0,0 l/m 2,5 km/h (1 Bft) W 269 4,8 km/h (1 Bft)
08.01.2012 23:39 4,2 C 79 % 0,0 l/m 2,7 km/h (1 Bft) W 266 6,4 km/h (2 Bft)
08.01.2012 23:40 4,2 C 79 % 0,0 l/m 2,9 km/h (1 Bft) W-SW 248 6,4 km/h (2 Bft)
08.01.2012 23:41 4,2 C 79 % 0,2 l/m 3,7 km/h (1 Bft) W-NW 294 6,4 km/h (2 Bft)
08.01.2012 23:42 4,2 C 80 % 0,0 l/m 3,2 km/h (1 Bft) W-SW 256 8,0 km/h (2 Bft)
08.01.2012 23:43 4,2 C 80 % 0,0 l/m 5,5 km/h (1 Bft) W-SW 256 12,9 km/h (3 Bft)
08.01.2012 23:44 4,2 C 80 % 0,0 l/m 7,1 km/h (2 Bft) W-SW 245 12,9 km/h (3 Bft)
08.01.2012 23:45 4,2 C 80 % 0,0 l/m 9,0 km/h (2 Bft) SW 233 12,9 km/h (3 Bft)
08.01.2012 23:46 4,2 C 79 % 0,0 l/m 6,0 km/h (2 Bft) W-NW 295 12,9 km/h (3 Bft)
08.01.2012 23:47 4,2 C 79 % 0,0 l/m 7,1 km/h (2 Bft) W-NW 284 9,7 km/h (2 Bft)
08.01.2012 23:48 4,2 C 80 % 0,0 l/m 6,6 km/h (2 Bft) W-SW 250 9,7 km/h (2 Bft)
08.01.2012 23:49 4,2 C 80 % 0,0 l/m 8,9 km/h (2 Bft) W-SW 238 11,3 km/h (2 Bft)
08.01.2012 23:50 4,2 C 80 % 0,0 l/m 9,7 km/h (2 Bft) S-SW 213 12,9 km/h (3 Bft)
08.01.2012 23:51 4,2 C 80 % 0,0 l/m 6,6 km/h (2 Bft) W-SW 246 9,7 km/h (2 Bft)
08.01.2012 23:52 4,2 C 80 % 0,0 l/m 7,6 km/h (2 Bft) SW 231 11,3 km/h (2 Bft)
08.01.2012 23:53 4,1 C 80 % 0,0 l/m 7,7 km/h (2 Bft) SW 218 9,7 km/h (2 Bft)
08.01.2012 23:54 4,1 C 80 % 0,0 l/m 6,5 km/h (2 Bft) SW 218 8,0 km/h (2 Bft)
08.01.2012 23:55 4,1 C 80 % 0,0 l/m 8,0 km/h (2 Bft) W-SW 250 9,7 km/h (2 Bft)
08.01.2012 23:56 4,1 C 80 % 0,2 l/m 6,9 km/h (2 Bft) SW 235 8,0 km/h (2 Bft)
08.01.2012 23:57 4,1 C 81 % 0,0 l/m 6,6 km/h (2 Bft) W 269 8,0 km/h (2 Bft)
08.01.2012 23:58 4,1 C 81 % 0,0 l/m 3,4 km/h (1 Bft) W-NW 289 6,4 km/h (2 Bft)
08.01.2012 23:59 4,1 C 81 % 0,0 l/m 1,6 km/h (1 Bft) W-SW 242 1,6 km/h (1 Bft)
_ Min-Zeit 21:21 12:03 - 17:42 - - 17:42
Minimum _ 3,7 C 68 % - 0,5 km/h (0 Bft) - - 1,6 km/h (1 Bft)
_ Max-Zeit 11:58 00:00 00:00 10:55 - - 00:41
Maximum _ 6,6 C 83 % 0,0 l/m 32,7 km/h
W-NW (5 Bft)
- - 53,1 km/h
NW (7 Bft)
Durchschnitt _ 4,8 C 77 % #0,0 l/m 12,1 km/h (2 Bft) W-NW - 20,6 km/h (4 Bft)